Darstellungsparameter: Aktuell verwendete Einstellungen:
Skalierung der Graphiken ... ?
xyx+y,   Skalierungsfaktor:      Skalierung: Modus: x, Faktor: 1
Darstellungszeitraum ... ?
Vom - - bis: - -   Zeitraum: 04.01.2010 - 03.04.2010
Min/Max/Avg-Anzeige ... ?
Zeige MMA aktuell
Zeige MMA Monat
Zeige MMA alles
Zeige --A aktuell
Zeige --A Monat
Zeige --A alles
Keine MMA-Anzeige
MMA:
Minimum Maximum Average (ber die Originaldaten)
MMA-Basis: 14.04.2020 - 16.05.2020
Quicknavigation für Darstellung... ?
Tage:      1T, 2T, 3T, 5T -1T -2T -3T -5T +1T +2T +3T +5T
Wochen: 1W, 2W, 3W -1W -2W -3W +1W +2W +3W
Monate: 1M, 3M, 6M -1M -3M -6M +1M +3M +6M
Jahre:    1J, 3J, 5J, 10J -1J -3J -5J -10J +1J +3J +5J +10J
Nutze für die Darstellung ... ?
Originaldaten oder Mittelwerte auf ...
Stundenbasis Tagesbasis Wochenbasis
Monatsbasis Jahresbasis      Datenbasis: Original-Daten
Darstellen als:
Statistik (Auto) Statistik J:M      Darstellung:
Zur Graphik,    zurück zur Übersicht aller Sensoren.
 
Tabellarische Datenbersicht: ?
 
Sensor: Nr:Datum:Temp:Abs-Feuchte:Windchill:Wind:
Aussen-T/F 1 04-01-2010 00:08:02 -4.5 C 2.75 g/m*3 -4.5 C 0 km/h
2 04-01-2010 00:20:02 -4.5 C 2.75 g/m*3 -4.5 C 0 km/h
3 04-01-2010 00:32:02 -4.3 C 2.83 g/m*3 -4.3 C 0 km/h
4 04-01-2010 00:44:02 -4.4 C 2.81 g/m*3 -4.4 C 0 km/h
5 04-01-2010 00:56:02 -4.2 C 2.85 g/m*3 -4.2 C 0 km/h
6 04-01-2010 01:08:02 -4.4 C 2.77 g/m*3 -4.4 C 0 km/h
7 04-01-2010 01:20:02 -4.3 C 2.79 g/m*3 -4.3 C 0 km/h
8 04-01-2010 01:32:02 -4.3 C 2.79 g/m*3 -4.3 C 0 km/h
9 04-01-2010 01:44:02 -4.4 C 2.77 g/m*3 -4.4 C 0 km/h
10 04-01-2010 01:56:02 -4.4 C 2.74 g/m*3 -4.4 C 0 km/h
11 04-01-2010 02:08:02 -4.3 C 2.76 g/m*3 -4.3 C 0 km/h
12 04-01-2010 02:20:02 -4.3 C 2.72 g/m*3 -4.3 C 0 km/h
13 04-01-2010 02:32:03 -4.3 C 2.72 g/m*3 -4.3 C 0 km/h
14 04-01-2010 02:44:03 -4.3 C 2.72 g/m*3 -4.3 C 0 km/h
15 04-01-2010 02:56:03 -4.3 C 2.65 g/m*3 -4.3 C 0 km/h
16 04-01-2010 03:08:03 -4.3 C 2.61 g/m*3 -4.3 C 0 km/h
17 04-01-2010 03:20:03 -4.3 C 2.58 g/m*3 -4.3 C 0 km/h
18 04-01-2010 03:32:03 -4.3 C 2.54 g/m*3 -4.3 C 0 km/h
19 04-01-2010 03:44:03 -4.4 C 2.52 g/m*3 -4.4 C 0 km/h
20 04-01-2010 03:56:03 -4.4 C 2.52 g/m*3 -4.4 C 0 km/h
21 04-01-2010 04:08:03 -4.3 C 2.58 g/m*3 -4.3 C 0 km/h
22 04-01-2010 04:20:03 -4.3 C 2.58 g/m*3 -4.3 C 0 km/h
23 04-01-2010 04:32:03 -4.3 C 2.58 g/m*3 -4.3 C 0 km/h
24 04-01-2010 04:44:03 -4.3 C 2.58 g/m*3 -4.3 C 0 km/h
25 04-01-2010 04:56:03 -4.3 C 2.58 g/m*3 -4.3 C 0 km/h
Sensor: Nr:Datum:Temp:Abs-Feuchte:Windchill:Wind:
Aussen-T/F 26 04-01-2010 05:08:03 -4.2 C 2.63 g/m*3 -4.2 C 0 km/h
27 04-01-2010 05:20:03 -4.2 C 2.63 g/m*3 -4.2 C 0 km/h
28 04-01-2010 05:32:03 -4.2 C 2.63 g/m*3 -4.2 C 0 km/h
29 04-01-2010 05:44:03 -4.4 C 2.56 g/m*3 -4.4 C 0 km/h
30 04-01-2010 05:56:03 -4.4 C 2.56 g/m*3 -4.4 C 0 km/h
31 04-01-2010 06:08:03 -4.4 C 2.63 g/m*3 -4.4 C 0 km/h
32 04-01-2010 06:20:03 -4.4 C 2.67 g/m*3 -4.4 C 0 km/h
33 04-01-2010 06:32:03 -4.4 C 2.67 g/m*3 -4.4 C 0 km/h
34 04-01-2010 06:44:03 -4.3 C 2.72 g/m*3 -4.3 C 0 km/h
35 04-01-2010 06:56:04 -4.3 C 2.72 g/m*3 -4.3 C 0 km/h
36 04-01-2010 07:08:04 -4.3 C 2.72 g/m*3 -4.3 C 0 km/h
37 04-01-2010 07:20:04 -4.4 C 2.67 g/m*3 -4.4 C 0 km/h
38 04-01-2010 07:32:04 -4.4 C 2.63 g/m*3 -4.4 C 0 km/h
39 04-01-2010 07:44:04 -4.4 C 2.6 g/m*3 -4.4 C 0 km/h
40 04-01-2010 07:56:04 -4.4 C 2.6 g/m*3 -4.4 C 0 km/h
41 04-01-2010 08:08:04 -4.4 C 2.6 g/m*3 -4.4 C 0 km/h
42 04-01-2010 08:20:04 -4.4 C 2.56 g/m*3 -4.4 C 0 km/h
43 04-01-2010 08:32:04 -4.4 C 2.56 g/m*3 -4.4 C 0 km/h
44 04-01-2010 08:44:04 -4.4 C 2.56 g/m*3 -4.4 C 0 km/h
45 04-01-2010 08:56:04 -4.4 C 2.56 g/m*3 -4.4 C 0 km/h
46 04-01-2010 09:08:04 -4.3 C 2.58 g/m*3 -4.3 C 0 km/h
47 04-01-2010 09:20:04 -4.3 C 2.58 g/m*3 -4.3 C 0 km/h
48 04-01-2010 09:32:04 -4.3 C 2.58 g/m*3 -4.3 C 0 km/h
49 04-01-2010 09:44:04 -4.2 C 2.56 g/m*3 -4.2 C 0 km/h
50 04-01-2010 09:56:04 -4.1 C 2.54 g/m*3 -4.1 C 0 km/h
Sensor: Nr:Datum:Temp:Abs-Feuchte:Windchill:Wind:
Aussen-T/F 51 04-01-2010 10:08:02 -4 C 2.56 g/m*3 -4 C 0 km/h
52 04-01-2010 10:20:03 -4 C 2.56 g/m*3 -4 C 0 km/h
53 04-01-2010 10:32:02 -3.7 C 2.62 g/m*3 -3.7 C 0 km/h
54 04-01-2010 10:44:02 -3.6 C 2.56 g/m*3 -3.6 C 0 km/h
55 04-01-2010 10:56:02 -3.4 C 2.63 g/m*3 -3.4 C 0 km/h
56 04-01-2010 11:08:02 -3.1 C 2.65 g/m*3 -3.1 C 0 km/h
57 04-01-2010 11:20:02 -3 C 2.63 g/m*3 -3 C 0 km/h
58 04-01-2010 11:32:02 -3.1 C 2.54 g/m*3 -3.1 C 0 km/h
59 04-01-2010 11:44:02 -3.1 C 2.46 g/m*3 -3.1 C 0 km/h
60 04-01-2010 11:56:02 -3.1 C 2.46 g/m*3 -3.1 C 0 km/h
61 04-01-2010 12:08:02 -3.2 C 2.4 g/m*3 -3.2 C 0 km/h
62 04-01-2010 12:20:02 -3 C 2.4 g/m*3 -3 C 0 km/h
63 04-01-2010 12:32:02 -3.5 C 2.24 g/m*3 -3.5 C 0 km/h
64 04-01-2010 12:44:02 -3.7 C 2.21 g/m*3 -3.7 C 0 km/h
65 04-01-2010 12:56:02 -3.9 C 2.25 g/m*3 -3.9 C 0 km/h
66 04-01-2010 13:08:02 -4 C 2.27 g/m*3 -4 C 0 km/h
67 04-01-2010 13:20:02 -4.1 C 2.29 g/m*3 -4.1 C 0 km/h
68 04-01-2010 13:32:01 -4 C 2.34 g/m*3 -4 C 0 km/h
69 04-01-2010 13:44:01 -3.8 C 2.41 g/m*3 -3.8 C 0 km/h
70 04-01-2010 13:56:02 -3.6 C 2.41 g/m*3 -3.6 C 0 km/h
71 04-01-2010 14:08:01 -3.4 C 2.41 g/m*3 -3.4 C 0 km/h
72 04-01-2010 14:20:01 -3.2 C 2.4 g/m*3 -3.2 C 0 km/h
73 04-01-2010 14:32:02 -3.2 C 2.28 g/m*3 -3.2 C 0 km/h
74 04-01-2010 14:44:02 -3.4 C 2.21 g/m*3 -3.4 C 0 km/h
75 04-01-2010 14:56:02 -3.7 C 2.21 g/m*3 -3.7 C 0 km/h
Sensor: Nr:Datum:Temp:Abs-Feuchte:Windchill:Wind:
Aussen-T/F 76 04-01-2010 15:08:01 -4 C 2.23 g/m*3 -4 C 0 km/h
77 04-01-2010 15:20:02 -4.2 C 2.24 g/m*3 -4.2 C 0 km/h
78 04-01-2010 15:32:02 -4.2 C 2.24 g/m*3 -4.2 C 0 km/h
79 04-01-2010 15:44:02 -4.3 C 2.18 g/m*3 -4.3 C 0 km/h
80 04-01-2010 15:56:01 -4.6 C 2.17 g/m*3 -4.6 C 0 km/h
81 04-01-2010 16:08:02 -4.9 C 2.19 g/m*3 -4.9 C 0 km/h
82 04-01-2010 16:20:01 -5.2 C 2.18 g/m*3 -5.2 C 0 km/h
83 04-01-2010 16:32:01 -5.5 C 2.17 g/m*3 -5.5 C 0 km/h
84 04-01-2010 16:44:01 -5.7 C 2.2 g/m*3 -5.7 C 0 km/h
85 04-01-2010 16:56:01 -5.9 C 2.17 g/m*3 -5.9 C 0 km/h
86 04-01-2010 17:08:02 -6.2 C 2.15 g/m*3 -6.2 C 0 km/h
87 04-01-2010 17:20:01 -6.3 C 2.17 g/m*3 -6.3 C 0 km/h
88 04-01-2010 17:32:01 -6.4 C 2.18 g/m*3 -6.4 C 0 km/h
89 04-01-2010 17:44:01 -6.5 C 2.2 g/m*3 -6.5 C 0 km/h
90 04-01-2010 17:56:01 -6.5 C 2.2 g/m*3 -6.5 C 0 km/h
91 04-01-2010 18:08:02 -6.7 C 2.2 g/m*3 -6.7 C 0 km/h
92 04-01-2010 18:20:01 -6.8 C 2.21 g/m*3 -6.8 C 0 km/h
93 04-01-2010 18:32:02 -6.9 C 2.19 g/m*3 -6.9 C 0 km/h
94 04-01-2010 18:44:02 -7 C 2.18 g/m*3 -7 C 0 km/h
95 04-01-2010 18:56:01 -7.1 C 2.19 g/m*3 -7.1 C 0 km/h
96 04-01-2010 19:08:02 -7.2 C 2.18 g/m*3 -7.2 C 0 km/h
97 04-01-2010 19:20:02 -7.3 C 2.19 g/m*3 -7.3 C 0 km/h
98 04-01-2010 19:32:01 -7.3 C 2.22 g/m*3 -7.3 C 0 km/h
99 04-01-2010 19:44:01 -7.6 C 2.14 g/m*3 -7.6 C 0 km/h
100 04-01-2010 19:56:02 -7.7 C 2.15 g/m*3 -7.7 C 0 km/h
Sensor: Nr:Datum:Temp:Abs-Feuchte:Windchill:Wind:
Aussen-T/F 101 04-01-2010 20:08:02 -7.7 C 2.18 g/m*3 -7.7 C 0 km/h
102 04-01-2010 20:20:02 -7.8 C 2.16 g/m*3 -7.8 C 0 km/h
103 04-01-2010 20:32:02 -7.9 C 2.15 g/m*3 -7.9 C 0 km/h
104 04-01-2010 20:44:02 -7.9 C 2.18 g/m*3 -7.9 C 0 km/h
105 04-01-2010 20:56:02 -8.1 C 2.14 g/m*3 -8.1 C 0 km/h
106 04-01-2010 21:08:02 -8.4 C 2.1 g/m*3 -8.4 C 0 km/h
107 04-01-2010 21:20:02 -8.5 C 2.08 g/m*3 -8.5 C 0 km/h
108 04-01-2010 21:32:02 -8.5 C 2.08 g/m*3 -8.5 C 0 km/h
109 04-01-2010 21:44:02 -8.6 C 2.09 g/m*3 -8.6 C 0 km/h
110 04-01-2010 21:56:02 -8.7 C 2.08 g/m*3 -8.7 C 0 km/h
111 04-01-2010 22:08:02 -8.7 C 2.08 g/m*3 -8.7 C 0 km/h
112 04-01-2010 22:20:02 -8.7 C 2.1 g/m*3 -8.7 C 0 km/h
113 04-01-2010 22:33:03 -8.8 C 2.09 g/m*3 -8.8 C 0 km/h
114 04-01-2010 22:45:03 -9 C 2.06 g/m*3 -9 C 0 km/h
115 04-01-2010 22:57:03 -9 C 2.06 g/m*3 -9 C 0 km/h
116 04-01-2010 23:09:03 -9 C 2.06 g/m*3 -9 C 0 km/h
117 04-01-2010 23:21:04 -9.2 C 2.03 g/m*3 -9.2 C 0 km/h
118 04-01-2010 23:33:04 -9.2 C 2.03 g/m*3 -9.2 C 0 km/h
119 04-01-2010 23:45:04 -9.3 C 2.01 g/m*3 -9.3 C 0 km/h
120 04-01-2010 23:57:04 -9.4 C 2 g/m*3 -9.4 C 0 km/h
121 05-01-2010 00:09:04 -9.6 C 1.97 g/m*3 -9.6 C 0 km/h
122 05-01-2010 00:21:04 -9.5 C 1.98 g/m*3 -9.5 C 0 km/h
123 05-01-2010 00:33:04 -9.5 C 1.98 g/m*3 -9.5 C 0 km/h
124 05-01-2010 00:45:04 -9.5 C 2.01 g/m*3 -9.5 C 0 km/h
125 05-01-2010 00:57:04 -9.7 C 1.98 g/m*3 -9.7 C 0 km/h
Sensor: Nr:Datum:Temp:Abs-Feuchte:Windchill:Wind:
Aussen-T/F 126 05-01-2010 01:09:04 -9.7 C 1.98 g/m*3 -9.7 C 0 km/h
127 05-01-2010 01:21:04 -9.8 C 1.96 g/m*3 -9.8 C 0 km/h
128 05-01-2010 01:33:04 -9.8 C 1.96 g/m*3 -9.8 C 0 km/h
129 05-01-2010 01:45:04 -9.8 C 1.96 g/m*3 -9.8 C 0 km/h
130 05-01-2010 01:57:04 -9.9 C 1.95 g/m*3 -9.9 C 0 km/h
131 05-01-2010 02:09:04 -10 C 1.93 g/m*3 -10 C 0 km/h
132 05-01-2010 02:21:05 -10 C 1.93 g/m*3 -10 C 0 km/h
133 05-01-2010 02:33:05 -10.1 C 1.92 g/m*3 -10.1 C 0 km/h
134 05-01-2010 02:45:05 -10.2 C 1.9 g/m*3 -10.2 C 0 km/h
135 05-01-2010 02:57:05 -10.2 C 1.9 g/m*3 -10.2 C 0 km/h
136 05-01-2010 03:09:05 -10.1 C 1.92 g/m*3 -10.1 C 0 km/h
137 05-01-2010 03:21:05 -10.2 C 1.9 g/m*3 -10.2 C 0 km/h
138 05-01-2010 03:33:05 -10.3 C 1.89 g/m*3 -10.3 C 0 km/h
139 05-01-2010 03:45:05 -10.2 C 1.9 g/m*3 -10.2 C 0 km/h
140 05-01-2010 03:57:05 -10.2 C 1.9 g/m*3 -10.2 C 0 km/h
141 05-01-2010 04:09:05 -10.2 C 1.9 g/m*3 -10.2 C 0 km/h
142 05-01-2010 04:21:05 -10.3 C 1.89 g/m*3 -10.3 C 0 km/h
143 05-01-2010 04:33:05 -10.2 C 1.9 g/m*3 -10.2 C 0 km/h
144 05-01-2010 04:45:05 -10.1 C 1.92 g/m*3 -10.1 C 0 km/h
145 05-01-2010 04:57:05 -9.6 C 2.01 g/m*3 -9.6 C 0 km/h
146 05-01-2010 05:09:05 -9.1 C 2.12 g/m*3 -9.1 C 0 km/h
147 05-01-2010 05:21:05 -8.7 C 2.18 g/m*3 -8.7 C 0 km/h
148 05-01-2010 05:33:05 -8.5 C 2.21 g/m*3 -8.5 C 0 km/h
149 05-01-2010 05:45:05 -8.4 C 2.2 g/m*3 -8.4 C 0 km/h
150 05-01-2010 05:57:05 -8.2 C 2.24 g/m*3 -8.2 C 0 km/h
Sensor: Nr:Datum:Temp:Abs-Feuchte:Windchill:Wind:
Aussen-T/F 151 05-01-2010 06:09:05 -8 C 2.27 g/m*3 -8 C 0 km/h
152 05-01-2010 06:21:05 -7.9 C 2.29 g/m*3 -7.9 C 0 km/h
153 05-01-2010 06:33:06 -7.9 C 2.26 g/m*3 -7.9 C 0 km/h
154 05-01-2010 06:45:06 -8.2 C 2.18 g/m*3 -8.2 C 0 km/h
155 05-01-2010 06:57:06 -8.6 C 2.12 g/m*3 -8.6 C 0 km/h
156 05-01-2010 07:09:06 -8.8 C 2.06 g/m*3 -8.8 C 0 km/h
157 05-01-2010 07:21:06 -8.9 C 2.05 g/m*3 -8.9 C 0 km/h
158 05-01-2010 07:33:06 -8.9 C 2.07 g/m*3 -8.9 C 0 km/h
159 05-01-2010 07:45:06 -8.9 C 2.07 g/m*3 -8.9 C 0 km/h
160 05-01-2010 07:57:06 -8.9 C 2.07 g/m*3 -8.9 C 0 km/h
161 05-01-2010 08:09:06 -8.9 C 2.07 g/m*3 -8.9 C 0 km/h
162 05-01-2010 08:21:06 -9 C 2.06 g/m*3 -9 C 0 km/h
163 05-01-2010 08:33:03 -9 C 2.06 g/m*3 -9 C 0 km/h
164 05-01-2010 08:45:02 -9 C 2.06 g/m*3 -9 C 0 km/h
165 05-01-2010 08:57:02 -9 C 2.06 g/m*3 -9 C 0 km/h
166 05-01-2010 09:09:02 -9 C 2.06 g/m*3 -9 C 0 km/h
167 05-01-2010 09:21:02 -9 C 2.06 g/m*3 -9 C 0 km/h
168 05-01-2010 09:33:02 -9 C 2.06 g/m*3 -9 C 0 km/h
169 05-01-2010 09:45:01 -8.9 C 2.07 g/m*3 -8.9 C 0 km/h
170 05-01-2010 09:57:01 -8.9 C 2.07 g/m*3 -8.9 C 0 km/h
171 05-01-2010 10:09:02 -8.6 C 2.14 g/m*3 -8.6 C 0 km/h
172 05-01-2010 10:21:01 -8.4 C 2.18 g/m*3 -8.4 C 0 km/h
173 05-01-2010 10:33:01 -8.4 C 2.15 g/m*3 -8.4 C 0 km/h
174 05-01-2010 10:45:01 -8.3 C 2.17 g/m*3 -8.3 C 0 km/h
175 05-01-2010 10:57:01 -8.3 C 2.17 g/m*3 -8.3 C 0 km/h
Sensor: Nr:Datum:Temp:Abs-Feuchte:Windchill:Wind:
Aussen-T/F 176 05-01-2010 11:09:01 -8.2 C 2.18 g/m*3 -8.2 C 0 km/h
177 05-01-2010 11:21:02 -8 C 2.22 g/m*3 -8 C 0 km/h
178 05-01-2010 11:33:01 -7.9 C 2.23 g/m*3 -7.9 C 0 km/h
179 05-01-2010 11:45:01 -7.8 C 2.25 g/m*3 -7.8 C 0 km/h
180 05-01-2010 11:57:01 -7.7 C 2.26 g/m*3 -7.7 C 0 km/h
181 05-01-2010 12:09:01 -7.5 C 2.3 g/m*3 -7.5 C 0 km/h
182 05-01-2010 12:21:02 -7.3 C 2.33 g/m*3 -7.3 C 0 km/h
183 05-01-2010 12:33:01 -7.2 C 2.35 g/m*3 -7.2 C 0 km/h
184 05-01-2010 12:45:03 -7.1 C 2.37 g/m*3 -7.1 C 0 km/h
185 05-01-2010 12:57:03 -6.8 C 2.42 g/m*3 -6.8 C 0 km/h
186 05-01-2010 13:09:02 -6.6 C 2.46 g/m*3 -6.6 C 0 km/h
187 05-01-2010 13:21:02 -6.6 C 2.43 g/m*3 -6.6 C 0 km/h
188 05-01-2010 13:33:02 -6.5 C 2.44 g/m*3 -6.5 C 0 km/h
189 05-01-2010 13:45:02 -6.4 C 2.46 g/m*3 -6.4 C 0 km/h
190 05-01-2010 13:57:02 -6.4 C 2.46 g/m*3 -6.4 C 0 km/h
191 05-01-2010 14:09:02 -6.1 C 2.52 g/m*3 -6.1 C 0 km/h
192 05-01-2010 14:21:02 -6 C 2.53 g/m*3 -6 C 0 km/h
193 05-01-2010 14:33:01 -5.9 C 2.52 g/m*3 -5.9 C 0 km/h
194 05-01-2010 14:45:02 -5.7 C 2.56 g/m*3 -5.7 C 0 km/h
195 05-01-2010 14:57:02 -5.7 C 2.52 g/m*3 -5.7 C 0 km/h
196 05-01-2010 15:09:01 -5.6 C 2.54 g/m*3 -5.6 C 0 km/h
197 05-01-2010 15:21:02 -5.6 C 2.54 g/m*3 -5.6 C 0 km/h
198 05-01-2010 15:33:01 -5.6 C 2.51 g/m*3 -5.6 C 0 km/h
199 05-01-2010 15:45:02 -5.6 C 2.51 g/m*3 -5.6 C 0 km/h
200 05-01-2010 15:57:02 -5.6 C 2.54 g/m*3 -5.6 C 0 km/h
Sensor: Nr:Datum:Temp:Abs-Feuchte:Windchill:Wind:
Aussen-T/F 201 05-01-2010 16:09:02 -5.7 C 2.52 g/m*3 -5.7 C 0 km/h
202 05-01-2010 16:21:02 -5.7 C 2.52 g/m*3 -5.7 C 0 km/h
203 05-01-2010 16:33:03 -5.8 C 2.54 g/m*3 -5.8 C 0 km/h
204 05-01-2010 16:45:04 -6 C 2.5 g/m*3 -6 C 0 km/h
205 05-01-2010 16:57:04 -6.2 C 2.47 g/m*3 -6.2 C 0 km/h
206 05-01-2010 17:09:02 -6.3 C 2.45 g/m*3 -6.3 C 0 km/h
207 05-01-2010 17:21:02 -6.5 C 2.44 g/m*3 -6.5 C 0 km/h
208 05-01-2010 17:33:01 -6.6 C 2.43 g/m*3 -6.6 C 0 km/h
209 05-01-2010 17:45:03 -6.8 C 2.39 g/m*3 -6.8 C 0 km/h
210 05-01-2010 17:57:03 -6.9 C 2.37 g/m*3 -6.9 C 0 km/h
211 05-01-2010 18:09:03 -7 C 2.38 g/m*3 -7 C 0 km/h
212 05-01-2010 18:21:02 -7.1 C 2.37 g/m*3 -7.1 C 0 km/h
213 05-01-2010 18:33:03 -7.3 C 2.33 g/m*3 -7.3 C 0 km/h
214 05-01-2010 18:45:02 -7.3 C 2.33 g/m*3 -7.3 C 0 km/h
215 05-01-2010 18:57:03 -7.4 C 2.34 g/m*3 -7.4 C 0 km/h
216 05-01-2010 19:09:01 -7.3 C 2.36 g/m*3 -7.3 C 0 km/h
217 05-01-2010 19:21:02 -7.2 C 2.38 g/m*3 -7.2 C 0 km/h
218 05-01-2010 19:33:02 -7.2 C 2.38 g/m*3 -7.2 C 0 km/h
219 05-01-2010 19:45:02 -7.3 C 2.36 g/m*3 -7.3 C 0 km/h
220 05-01-2010 19:57:02 -7.4 C 2.34 g/m*3 -7.4 C 0 km/h
221 05-01-2010 20:09:02 -7.5 C 2.33 g/m*3 -7.5 C 0 km/h
222 05-01-2010 20:21:04 -7.4 C 2.37 g/m*3 -7.4 C 0 km/h
223 05-01-2010 20:33:02 -7.4 C 2.37 g/m*3 -7.4 C 0 km/h
224 05-01-2010 20:45:02 -7 C 2.44 g/m*3 -7 C 0 km/h
225 05-01-2010 20:57:03 -6.9 C 2.46 g/m*3 -6.9 C 0 km/h
Sensor: Nr:Datum:Temp:Abs-Feuchte:Windchill:Wind:
Aussen-T/F 226 05-01-2010 21:09:01 -6.9 C 2.46 g/m*3 -6.9 C 0 km/h
227 05-01-2010 21:21:02 -6.9 C 2.46 g/m*3 -6.9 C 0 km/h
228 05-01-2010 21:33:02 -7.1 C 2.43 g/m*3 -7.1 C 0 km/h
229 05-01-2010 21:45:01 -7.3 C 2.39 g/m*3 -7.3 C 0 km/h
230 05-01-2010 21:57:02 -7.3 C 2.39 g/m*3 -7.3 C 0 km/h
231 05-01-2010 22:09:02 -7.5 C 2.33 g/m*3 -7.5 C 0 km/h
232 05-01-2010 22:21:02 -7.7 C 2.29 g/m*3 -7.7 C 0 km/h
233 05-01-2010 22:33:01 -7.8 C 2.28 g/m*3 -7.8 C 0 km/h
234 05-01-2010 22:45:02 -7.9 C 2.26 g/m*3 -7.9 C 0 km/h
235 05-01-2010 22:57:02 -7.9 C 2.26 g/m*3 -7.9 C 0 km/h
236 05-01-2010 23:09:02 -8 C 2.27 g/m*3 -8 C 0 km/h
237 05-01-2010 23:21:02 -8.2 C 2.21 g/m*3 -8.2 C 0 km/h
238 05-01-2010 23:34:04 -8.2 C 2.24 g/m*3 -8.2 C 0 km/h
239 05-01-2010 23:46:04 -8.2 C 2.24 g/m*3 -8.2 C 0 km/h
240 05-01-2010 23:58:04 -8.3 C 2.22 g/m*3 -8.3 C 0 km/h
241 06-01-2010 00:10:04 -8.4 C 2.2 g/m*3 -8.4 C 0 km/h
242 06-01-2010 00:22:04 -8.5 C 2.16 g/m*3 -8.5 C 0 km/h
243 06-01-2010 00:34:04 -8.6 C 2.17 g/m*3 -8.6 C 0 km/h
244 06-01-2010 00:46:04 -8.6 C 2.17 g/m*3 -8.6 C 0 km/h
245 06-01-2010 00:58:04 -8.7 C 2.15 g/m*3 -8.7 C 0 km/h
246 06-01-2010 01:10:04 -8.9 C 2.12 g/m*3 -8.9 C 0 km/h
247 06-01-2010 01:22:04 -8.9 C 2.12 g/m*3 -8.9 C 0 km/h
248 06-01-2010 01:34:05 -9 C 2.11 g/m*3 -9 C 0 km/h
249 06-01-2010 01:46:05 -9.1 C 2.09 g/m*3 -9.1 C 0 km/h
250 06-01-2010 01:58:05 -9.2 C 2.08 g/m*3 -9.2 C 0 km/h
Sensor: Nr:Datum:Temp:Abs-Feuchte:Windchill:Wind:
Aussen-T/F 251 06-01-2010 02:10:05 -9.2 C 2.08 g/m*3 -9.2 C 0 km/h
252 06-01-2010 02:22:05 -9.3 C 2.06 g/m*3 -9.3 C 0 km/h
253 06-01-2010 02:34:05 -9.4 C 2.05 g/m*3 -9.4 C 0 km/h
254 06-01-2010 02:46:05 -9.4 C 2.05 g/m*3 -9.4 C 0 km/h
255 06-01-2010 02:58:05 -9.4 C 2.05 g/m*3 -9.4 C 0 km/h
256 06-01-2010 03:10:05 -9.4 C 2.05 g/m*3 -9.4 C 0 km/h
257 06-01-2010 03:22:05 -9.4 C 2.05 g/m*3 -9.4 C 0 km/h
258 06-01-2010 03:34:05 -9.5 C 2.03 g/m*3 -9.5 C 0 km/h
259 06-01-2010 03:46:05 -9.6 C 1.99 g/m*3 -9.6 C 0 km/h
260 06-01-2010 03:58:05 -9.6 C 1.99 g/m*3 -9.6 C 0 km/h
261 06-01-2010 04:10:05 -9.7 C 1.98 g/m*3 -9.7 C 0 km/h
262 06-01-2010 04:22:05 -9.8 C 1.96 g/m*3 -9.8 C 0 km/h
263 06-01-2010 04:34:05 -9.7 C 1.98 g/m*3 -9.7 C 0 km/h
264 06-01-2010 04:46:05 -9.8 C 1.96 g/m*3 -9.8 C 0 km/h
265 06-01-2010 04:58:05 -9.8 C 1.96 g/m*3 -9.8 C 0 km/h
266 06-01-2010 05:10:05 -9.8 C 1.96 g/m*3 -9.8 C 0 km/h
267 06-01-2010 05:22:05 -9.8 C 1.96 g/m*3 -9.8 C 0 km/h
268 06-01-2010 05:34:05 -9.9 C 1.95 g/m*3 -9.9 C 0 km/h
269 06-01-2010 05:46:06 -10 C 1.93 g/m*3 -10 C 0 km/h
270 06-01-2010 05:58:06 -10 C 1.93 g/m*3 -10 C 0 km/h
271 06-01-2010 06:10:06 -10 C 1.93 g/m*3 -10 C 0 km/h
272 06-01-2010 06:22:06 -10 C 1.93 g/m*3 -10 C 0 km/h
273 06-01-2010 06:34:06 -10 C 1.93 g/m*3 -10 C 0 km/h
274 06-01-2010 06:46:06 -10.2 C 1.9 g/m*3 -10.2 C 0 km/h
275 06-01-2010 06:58:06 -10.2 C 1.88 g/m*3 -10.2 C 0 km/h
Sensor: Nr:Datum:Temp:Abs-Feuchte:Windchill:Wind:
Aussen-T/F 276 06-01-2010 07:10:06 -10.3 C 1.87 g/m*3 -10.3 C 0 km/h
277 06-01-2010 07:22:06 -10.3 C 1.87 g/m*3 -10.3 C 0 km/h
278 06-01-2010 07:34:06 -10.4 C 1.85 g/m*3 -10.4 C 0 km/h
279 06-01-2010 07:46:06 -10.4 C 1.85 g/m*3 -10.4 C 0 km/h
280 06-01-2010 07:58:06 -10.1 C 1.89 g/m*3 -10.1 C 0 km/h
281 06-01-2010 08:10:04 -9.7 C 1.98 g/m*3 -9.7 C 0 km/h
282 06-01-2010 08:22:04 -9.5 C 1.98 g/m*3 -9.5 C 0 km/h
283 06-01-2010 08:34:04 -9.4 C 2 g/m*3 -9.4 C 0 km/h
284 06-01-2010 08:46:02 -9.3 C 1.99 g/m*3 -9.3 C 0 km/h
285 06-01-2010 08:58:02 -9.3 C 1.96 g/m*3 -9.3 C 0 km/h
286 06-01-2010 09:10:02 -9.2 C 1.98 g/m*3 -9.2 C 0 km/h
287 06-01-2010 09:22:01 -9.1 C 1.97 g/m*3 -9.1 C 0 km/h
288 06-01-2010 09:34:02 -8.9 C 2 g/m*3 -8.9 C 0 km/h
289 06-01-2010 09:46:03 -8.7 C 2.03 g/m*3 -8.7 C 0 km/h
290 06-01-2010 09:58:03 -8.6 C 2.01 g/m*3 -8.6 C 0 km/h
291 06-01-2010 10:10:02 -8.3 C 2.06 g/m*3 -8.3 C 0 km/h
292 06-01-2010 10:22:02 -8.2 C 2.05 g/m*3 -8.2 C 0 km/h
293 06-01-2010 10:34:02 -8 C 2.08 g/m*3 -8 C 0 km/h
294 06-01-2010 10:46:02 -7.6 C 2.11 g/m*3 -7.6 C 0 km/h
295 06-01-2010 10:58:02 -7.3 C 2.13 g/m*3 -7.3 C 0 km/h
296 06-01-2010 11:10:02 -7.1 C 2.13 g/m*3 -7.1 C 0 km/h
297 06-01-2010 11:22:02 -6.8 C 2.18 g/m*3 -6.8 C 0 km/h
298 06-01-2010 11:34:01 -6.8 C 2.18 g/m*3 -6.8 C 0 km/h
299 06-01-2010 11:46:02 -6.6 C 2.21 g/m*3 -6.6 C 0 km/h
300 06-01-2010 11:58:02 -6.5 C 2.23 g/m*3 -6.5 C 0 km/h
Sensor: Nr:Datum:Temp:Abs-Feuchte:Windchill:Wind:
Aussen-T/F 301 06-01-2010 12:10:01 -6.3 C 2.26 g/m*3 -6.3 C 0 km/h
302 06-01-2010 12:22:02 -6.4 C 2.21 g/m*3 -6.4 C 0 km/h
303 06-01-2010 12:34:01 -6.3 C 2.26 g/m*3 -6.3 C 0 km/h
304 06-01-2010 12:46:02 -6 C 2.31 g/m*3 -6 C 0 km/h
305 06-01-2010 12:58:02 -5.8 C 2.35 g/m*3 -5.8 C 0 km/h
306 06-01-2010 13:10:02 -5.6 C 2.35 g/m*3 -5.6 C 0 km/h
307 06-01-2010 13:22:02 -5.4 C 2.38 g/m*3 -5.4 C 0 km/h
308 06-01-2010 13:34:02 -5.3 C 2.4 g/m*3 -5.3 C 0 km/h
309 06-01-2010 13:46:02 -4.9 C 2.43 g/m*3 -4.9 C 0 km/h
310 06-01-2010 13:58:02 -4.8 C 2.45 g/m*3 -4.8 C 0 km/h
311 06-01-2010 14:10:01 -4.5 C 2.54 g/m*3 -4.5 C 0 km/h
312 06-01-2010 14:22:02 -4.5 C 2.51 g/m*3 -4.5 C 0 km/h
313 06-01-2010 14:34:01 -4.4 C 2.49 g/m*3 -4.4 C 0 km/h
314 06-01-2010 14:46:01 -4.2 C 2.52 g/m*3 -4.2 C 0 km/h
315 06-01-2010 14:58:01 -4.1 C 2.51 g/m*3 -4.1 C 0 km/h
316 06-01-2010 15:10:02 -3.9 C 2.54 g/m*3 -3.9 C 0 km/h
317 06-01-2010 15:22:01 -4 C 2.52 g/m*3 -4 C 0 km/h
318 06-01-2010 15:34:01 -4 C 2.52 g/m*3 -4 C 0 km/h
319 06-01-2010 15:46:01 -4 C 2.56 g/m*3 -4 C 0 km/h
320 06-01-2010 15:58:01 -4 C 2.6 g/m*3 -4 C 0 km/h
321 06-01-2010 16:10:02 -4 C 2.6 g/m*3 -4 C 0 km/h
322 06-01-2010 16:22:01 -4.1 C 2.58 g/m*3 -4.1 C 0 km/h
323 06-01-2010 16:34:02 -4.1 C 2.62 g/m*3 -4.1 C 0 km/h
324 06-01-2010 16:46:01 -4.2 C 2.6 g/m*3 -4.2 C 0 km/h
325 06-01-2010 16:58:01 -4.2 C 2.63 g/m*3 -4.2 C 0 km/h
Sensor: Nr:Datum:Temp:Abs-Feuchte:Windchill:Wind:
Aussen-T/F 326 06-01-2010 17:10:02 -4.2 C 2.63 g/m*3 -4.2 C 0 km/h
327 06-01-2010 17:22:01 -4.3 C 2.61 g/m*3 -4.3 C 0 km/h
328 06-01-2010 17:34:02 -4.3 C 2.65 g/m*3 -4.3 C 0 km/h
329 06-01-2010 17:46:01 -4.3 C 2.65 g/m*3 -4.3 C 0 km/h
330 06-01-2010 17:58:01 -4.3 C 2.69 g/m*3 -4.3 C 0 km/h
331 06-01-2010 18:10:02 -4.3 C 2.69 g/m*3 -4.3 C 0 km/h
332 06-01-2010 18:22:01 -4.3 C 2.69 g/m*3 -4.3 C 0 km/h
333 06-01-2010 18:34:02 -4.4 C 2.67 g/m*3 -4.4 C 0 km/h
334 06-01-2010 18:46:01 -4.4 C 2.67 g/m*3 -4.4 C 0 km/h
335 06-01-2010 18:58:01 -4.4 C 2.67 g/m*3 -4.4 C 0 km/h
336 06-01-2010 19:10:02 -4.4 C 2.67 g/m*3 -4.4 C 0 km/h
337 06-01-2010 19:22:01 -4.4 C 2.7 g/m*3 -4.4 C 0 km/h
338 06-01-2010 19:34:02 -4.4 C 2.7 g/m*3 -4.4 C 0 km/h
339 06-01-2010 19:46:01 -4.4 C 2.7 g/m*3 -4.4 C 0 km/h
340 06-01-2010 19:58:01 -4.5 C 2.68 g/m*3 -4.5 C 0 km/h
341 06-01-2010 20:10:02 -4.4 C 2.74 g/m*3 -4.4 C 0 km/h
342 06-01-2010 20:22:02 -4.4 C 2.7 g/m*3 -4.4 C 0 km/h
343 06-01-2010 20:34:01 -4.2 C 2.67 g/m*3 -4.2 C 0 km/h
344 06-01-2010 20:46:01 -4.2 C 2.63 g/m*3 -4.2 C 0 km/h
345 06-01-2010 20:58:01 -4.2 C 2.6 g/m*3 -4.2 C 0 km/h
346 06-01-2010 21:10:01 -4.2 C 2.52 g/m*3 -4.2 C 0 km/h
347 06-01-2010 21:22:02 -4.3 C 2.47 g/m*3 -4.3 C 0 km/h
348 06-01-2010 21:34:01 -4.5 C 2.36 g/m*3 -4.5 C 0 km/h
349 06-01-2010 21:46:03 -4.7 C 2.3 g/m*3 -4.7 C 0 km/h
350 06-01-2010 21:58:03 -4.8 C 2.28 g/m*3 -4.8 C 0 km/h
Sensor: Nr:Datum:Temp:Abs-Feuchte:Windchill:Wind:
Aussen-T/F 351 06-01-2010 22:10:02 -4.8 C 2.25 g/m*3 -4.8 C 0 km/h
352 06-01-2010 22:22:02 -4.9 C 2.23 g/m*3 -4.9 C 0 km/h
353 06-01-2010 22:35:04 -5 C 2.21 g/m*3 -5 C 0 km/h
354 06-01-2010 22:47:04 -5 C 2.21 g/m*3 -5 C 0 km/h
355 06-01-2010 22:59:04 -5.2 C 2.22 g/m*3 -5.2 C 0 km/h
356 06-01-2010 23:11:04 -5.3 C 2.23 g/m*3 -5.3 C 0 km/h
357 06-01-2010 23:23:04 -5.3 C 2.27 g/m*3 -5.3 C 0 km/h
358 06-01-2010 23:35:04 -5.3 C 2.3 g/m*3 -5.3 C 0 km/h
359 06-01-2010 23:47:04 -5.3 C 2.3 g/m*3 -5.3 C 0 km/h
360 06-01-2010 23:59:04 -5.2 C 2.35 g/m*3 -5.2 C 0 km/h
361 07-01-2010 00:11:04 -5.2 C 2.35 g/m*3 -5.2 C 0 km/h
362 07-01-2010 00:23:04 -5.3 C 2.37 g/m*3 -5.3 C 0 km/h
363 07-01-2010 00:35:04 -5.3 C 2.37 g/m*3 -5.3 C 0 km/h
364 07-01-2010 00:47:04 -5.3 C 2.37 g/m*3 -5.3 C 0 km/h
365 07-01-2010 00:59:04 -5.2 C 2.38 g/m*3 -5.2 C 0 km/h
366 07-01-2010 01:11:04 -5.1 C 2.4 g/m*3 -5.1 C 0 km/h
367 07-01-2010 01:23:04 -5.2 C 2.42 g/m*3 -5.2 C 0 km/h
368 07-01-2010 01:35:04 -5.2 C 2.38 g/m*3 -5.2 C 0 km/h
369 07-01-2010 01:47:04 -5.1 C 2.4 g/m*3 -5.1 C 0 km/h
370 07-01-2010 01:59:05 -5.4 C 2.32 g/m*3 -5.4 C 0 km/h
371 07-01-2010 02:11:05 -5.9 C 2.23 g/m*3 -5.9 C 0 km/h
372 07-01-2010 02:23:05 -5.8 C 2.31 g/m*3 -5.8 C 0 km/h
373 07-01-2010 02:35:05 -5.7 C 2.33 g/m*3 -5.7 C 0 km/h
374 07-01-2010 02:47:05 -5.7 C 2.36 g/m*3 -5.7 C 0 km/h
375 07-01-2010 02:59:05 -5.9 C 2.3 g/m*3 -5.9 C 0 km/h
Sensor: Nr:Datum:Temp:Abs-Feuchte:Windchill:Wind:
Aussen-T/F 376 07-01-2010 03:11:05 -6.1 C 2.3 g/m*3 -6.1 C 0 km/h
377 07-01-2010 03:23:05 -6.1 C 2.3 g/m*3 -6.1 C 0 km/h
378 07-01-2010 03:35:05 -6 C 2.34 g/m*3 -6 C 0 km/h
379 07-01-2010 03:47:05 -5.8 C 2.41 g/m*3 -5.8 C 0 km/h
380 07-01-2010 03:59:05 -5.6 C 2.45 g/m*3 -5.6 C 0 km/h
381 07-01-2010 04:11:05 -5.6 C 2.45 g/m*3 -5.6 C 0 km/h
382 07-01-2010 04:23:05 -5.6 C 2.45 g/m*3 -5.6 C 0 km/h
383 07-01-2010 04:35:05 -5.4 C 2.48 g/m*3 -5.4 C 0 km/h
384 07-01-2010 04:47:05 -5.3 C 2.53 g/m*3 -5.3 C 0 km/h
385 07-01-2010 04:59:05 -5.2 C 2.55 g/m*3 -5.2 C 0 km/h
386 07-01-2010 05:11:05 -5.2 C 2.55 g/m*3 -5.2 C 0 km/h
387 07-01-2010 05:23:05 -5.2 C 2.55 g/m*3 -5.2 C 0 km/h
388 07-01-2010 05:35:05 -5.1 C 2.57 g/m*3 -5.1 C 0 km/h
389 07-01-2010 05:47:05 -5 C 2.59 g/m*3 -5 C 0 km/h
390 07-01-2010 05:59:05 -5 C 2.59 g/m*3 -5 C 0 km/h
391 07-01-2010 06:11:05 -5 C 2.59 g/m*3 -5 C 0 km/h
392 07-01-2010 06:23:06 -4.9 C 2.61 g/m*3 -4.9 C 0 km/h
393 07-01-2010 06:35:06 -5 C 2.59 g/m*3 -5 C 0 km/h
394 07-01-2010 06:47:06 -4.9 C 2.61 g/m*3 -4.9 C 0 km/h
395 07-01-2010 06:59:06 -5 C 2.59 g/m*3 -5 C 0 km/h
396 07-01-2010 07:11:06 -4.9 C 2.64 g/m*3 -4.9 C 0 km/h
397 07-01-2010 07:23:06 -5 C 2.62 g/m*3 -5 C 0 km/h
398 07-01-2010 07:35:06 -5 C 2.62 g/m*3 -5 C 0 km/h
399 07-01-2010 07:47:06 -5 C 2.62 g/m*3 -5 C 0 km/h
400 07-01-2010 07:59:06 -4.9 C 2.64 g/m*3 -4.9 C 0 km/h
Sensor: Nr:Datum:Temp:Abs-Feuchte:Windchill:Wind:
Aussen-T/F 401 07-01-2010 08:11:06 -4.8 C 2.69 g/m*3 -4.8 C 0 km/h
402 07-01-2010 08:23:03 -4.8 C 2.69 g/m*3 -4.8 C 0 km/h
403 07-01-2010 08:35:04 -4.8 C 2.69 g/m*3 -4.8 C 0 km/h
404 07-01-2010 08:47:02 -4.7 C 2.71 g/m*3 -4.7 C 0 km/h
405 07-01-2010 08:59:02 -4.8 C 2.69 g/m*3 -4.8 C 0 km/h
406 07-01-2010 09:11:02 -4.8 C 2.69 g/m*3 -4.8 C 0 km/h
407 07-01-2010 09:23:02 -4.6 C 2.77 g/m*3 -4.6 C 0 km/h
408 07-01-2010 09:35:02 -4.5 C 2.75 g/m*3 -4.5 C 0 km/h
409 07-01-2010 09:47:02 -4.3 C 2.79 g/m*3 -4.3 C 0 km/h
410 07-01-2010 09:59:02 -4.1 C 2.83 g/m*3 -4.1 C 0 km/h
411 07-01-2010 10:11:02 -3.9 C 2.87 g/m*3 -3.9 C 0 km/h
412 07-01-2010 10:23:01 -3.7 C 2.92 g/m*3 -3.7 C 0 km/h
413 07-01-2010 10:35:02 -3.4 C 2.94 g/m*3 -3.4 C 0 km/h
414 07-01-2010 10:47:02 -3.3 C 2.92 g/m*3 -3.3 C 0 km/h
415 07-01-2010 10:59:02 -3.2 C 2.87 g/m*3 -3.2 C 0 km/h
416 07-01-2010 11:11:02 -2.9 C 2.93 g/m*3 -2.9 C 0 km/h
417 07-01-2010 11:23:01 -2.8 C 2.91 g/m*3 -2.8 C 0 km/h
418 07-01-2010 11:35:02 -3.1 C 2.81 g/m*3 -3.1 C 0 km/h
419 07-01-2010 11:47:02 -2.9 C 2.85 g/m*3 -2.9 C 0 km/h
420 07-01-2010 11:59:02 -2.6 C 2.91 g/m*3 -2.6 C 0 km/h
421 07-01-2010 12:11:02 -2 C 3.03 g/m*3 -2 C 0 km/h
422 07-01-2010 12:23:01 -1.6 C 3.08 g/m*3 -1.6 C 0 km/h
423 07-01-2010 12:35:02 -1.9 C 2.97 g/m*3 -1.9 C 0 km/h
424 07-01-2010 12:47:01 -2.3 C 2.89 g/m*3 -2.3 C 0 km/h
425 07-01-2010 12:59:01 -2.1 C 2.97 g/m*3 -2.1 C 0 km/h
Sensor: Nr:Datum:Temp:Abs-Feuchte:Windchill:Wind:
Aussen-T/F 426 07-01-2010 13:11:02 -1.6 C 3.08 g/m*3 -1.6 C 0 km/h
427 07-01-2010 13:23:02 -1.4 C 3.08 g/m*3 -1.4 C 0 km/h
428 07-01-2010 13:35:02 -1.2 C 3.12 g/m*3 -1.2 C 0 km/h
429 07-01-2010 13:47:01 -1.1 C 3.1 g/m*3 -1.1 C 0 km/h
430 07-01-2010 13:59:01 -1.1 C 3.1 g/m*3 -1.1 C 0 km/h
431 07-01-2010 14:11:02 -1.1 C 3.05 g/m*3 -1.1 C 0 km/h
432 07-01-2010 14:23:01 -1.3 C 3.01 g/m*3 -1.3 C 0 km/h
433 07-01-2010 14:35:02 -1.3 C 3.01 g/m*3 -1.3 C 0 km/h
434 07-01-2010 14:47:02 -1.4 C 3.03 g/m*3 -1.4 C 0 km/h
435 07-01-2010 14:59:02 -1.4 C 3.03 g/m*3 -1.4 C 0 km/h
436 07-01-2010 15:11:02 -1.4 C 3.03 g/m*3 -1.4 C 0 km/h
437 07-01-2010 15:23:02 -1.6 C 3.03 g/m*3 -1.6 C 0 km/h
438 07-01-2010 15:35:02 -1.8 C 2.95 g/m*3 -1.8 C 0 km/h
439 07-01-2010 15:47:02 -1.8 C 3.04 g/m*3 -1.8 C 0 km/h
440 07-01-2010 15:59:02 -1.9 C 3.06 g/m*3 -1.9 C 0 km/h
441 07-01-2010 16:11:03 -2 C 3.03 g/m*3 -2 C 0 km/h
442 07-01-2010 16:23:02 -2.1 C 3.06 g/m*3 -2.1 C 0 km/h
443 07-01-2010 16:35:02 -2.2 C 3.08 g/m*3 -2.2 C 0 km/h
444 07-01-2010 16:47:02 -2.2 C 3.12 g/m*3 -2.2 C 0 km/h
445 07-01-2010 16:59:02 -2.3 C 3.1 g/m*3 -2.3 C 0 km/h
446 07-01-2010 17:11:02 -2.4 C 3.11 g/m*3 -2.4 C 0 km/h
447 07-01-2010 17:23:02 -2.5 C 3.13 g/m*3 -2.5 C 0 km/h
448 07-01-2010 17:35:02 -2.6 C 3.11 g/m*3 -2.6 C 0 km/h
449 07-01-2010 17:47:02 -2.7 C 3.13 g/m*3 -2.7 C 0 km/h
450 07-01-2010 17:59:02 -2.8 C 3.11 g/m*3 -2.8 C 0 km/h
Sensor: Nr:Datum:Temp:Abs-Feuchte:Windchill:Wind:
Aussen-T/F 451 07-01-2010 18:11:02 -3 C 3.06 g/m*3 -3 C 0 km/h
452 07-01-2010 18:23:01 -3.1 C 3.08 g/m*3 -3.1 C 0 km/h
453 07-01-2010 18:35:02 -3.1 C 3.08 g/m*3 -3.1 C 0 km/h
454 07-01-2010 18:47:02 -3.1 C 3.08 g/m*3 -3.1 C 0 km/h
455 07-01-2010 18:59:02 -3.1 C 3.04 g/m*3 -3.1 C 0 km/h
456 07-01-2010 19:11:02 -3.1 C 3.04 g/m*3 -3.1 C 0 km/h
457 07-01-2010 19:23:02 -3.2 C 3.02 g/m*3 -3.2 C 0 km/h
458 07-01-2010 19:35:02 -3.3 C 3 g/m*3 -3.3 C 0 km/h
459 07-01-2010 19:47:02 -3.3 C 3.04 g/m*3 -3.3 C 0 km/h
460 07-01-2010 19:59:02 -3.3 C 3.04 g/m*3 -3.3 C 0 km/h
461 07-01-2010 20:11:02 -3.5 C 2.99 g/m*3 -3.5 C 0 km/h
462 07-01-2010 20:23:02 -3.7 C 2.99 g/m*3 -3.7 C 0 km/h
463 07-01-2010 20:35:02 -3.5 C 3.03 g/m*3 -3.5 C 0 km/h
464 07-01-2010 20:47:01 -3.5 C 3.03 g/m*3 -3.5 C 0 km/h
465 07-01-2010 20:59:01 -3.4 C 3.05 g/m*3 -3.4 C 0 km/h
466 07-01-2010 21:11:02 -3.3 C 3.08 g/m*3 -3.3 C 0 km/h
467 07-01-2010 21:23:01 -3.3 C 3.08 g/m*3 -3.3 C 0 km/h
468 07-01-2010 21:35:01 -3.3 C 3.08 g/m*3 -3.3 C 0 km/h
469 07-01-2010 21:47:01 -3.3 C 3.04 g/m*3 -3.3 C 0 km/h
470 07-01-2010 21:59:01 -3.4 C 3.02 g/m*3 -3.4 C 0 km/h
471 07-01-2010 22:11:01 -3.4 C 3.02 g/m*3 -3.4 C 0 km/h
472 07-01-2010 22:23:02 -3.4 C 2.98 g/m*3 -3.4 C 0 km/h
473 07-01-2010 22:35:01 -3.6 C 2.94 g/m*3 -3.6 C 0 km/h
474 07-01-2010 22:47:02 -3.8 C 2.89 g/m*3 -3.8 C 0 km/h
475 07-01-2010 22:59:02 -4.1 C 2.83 g/m*3 -4.1 C 0 km/h
Sensor: Nr:Datum:Temp:Abs-Feuchte:Windchill:Wind:
Aussen-T/F 476 07-01-2010 23:11:02 -4.2 C 2.81 g/m*3 -4.2 C 0 km/h
477 07-01-2010 23:23:02 -4.2 C 2.85 g/m*3 -4.2 C 0 km/h
478 07-01-2010 23:36:03 -4.3 C 2.83 g/m*3 -4.3 C 0 km/h
479 07-01-2010 23:48:03 -4.4 C 2.81 g/m*3 -4.4 C 0 km/h
480 08-01-2010 00:00:03 -4.4 C 2.81 g/m*3 -4.4 C 0 km/h
481 08-01-2010 00:12:03 -4.2 C 2.89 g/m*3 -4.2 C 0 km/h
482 08-01-2010 00:24:03 -4.1 C 2.91 g/m*3 -4.1 C 0 km/h
483 08-01-2010 00:36:03 -4.2 C 2.89 g/m*3 -4.2 C 0 km/h
484 08-01-2010 00:48:03 -4.3 C 2.86 g/m*3 -4.3 C 0 km/h
485 08-01-2010 01:00:03 -4.4 C 2.84 g/m*3 -4.4 C 0 km/h
486 08-01-2010 01:12:03 -4.6 C 2.8 g/m*3 -4.6 C 0 km/h
487 08-01-2010 01:24:03 -4.6 C 2.8 g/m*3 -4.6 C 0 km/h
488 08-01-2010 01:36:04 -4.7 C 2.78 g/m*3 -4.7 C 0 km/h
489 08-01-2010 01:48:04 -4.8 C 2.76 g/m*3 -4.8 C 0 km/h
490 08-01-2010 02:00:04 -5 C 2.72 g/m*3 -5 C 0 km/h
491 08-01-2010 02:12:04 -5.2 C 2.68 g/m*3 -5.2 C 0 km/h
492 08-01-2010 02:24:04 -5.4 C 2.65 g/m*3 -5.4 C 0 km/h
493 08-01-2010 02:36:04 -5.5 C 2.63 g/m*3 -5.5 C 0 km/h
494 08-01-2010 02:48:04 -5.5 C 2.66 g/m*3 -5.5 C 0 km/h
495 08-01-2010 03:00:04 -5.6 C 2.64 g/m*3 -5.6 C 0 km/h
496 08-01-2010 03:12:04 -5.6 C 2.67 g/m*3 -5.6 C 0 km/h
497 08-01-2010 03:24:04 -5.5 C 2.69 g/m*3 -5.5 C 0 km/h
498 08-01-2010 03:36:04 -5.6 C 2.67 g/m*3 -5.6 C 0 km/h
499 08-01-2010 03:48:04 -5.5 C 2.69 g/m*3 -5.5 C 0 km/h
500 08-01-2010 04:00:04 -5.4 C 2.75 g/m*3 -5.4 C 0 km/h
Sensor: Nr:Datum:Temp:Abs-Feuchte:Windchill:Wind:
Aussen-T/F 501 08-01-2010 04:12:04 -5.5 C 2.69 g/m*3 -5.5 C 0 km/h
502 08-01-2010 04:24:04 -5.5 C 2.69 g/m*3 -5.5 C 0 km/h
503 08-01-2010 04:36:04 -5.5 C 2.69 g/m*3 -5.5 C 0 km/h
504 08-01-2010 04:48:04 -5.6 C 2.67 g/m*3 -5.6 C 0 km/h
505 08-01-2010 05:00:04 -5.8 C 2.64 g/m*3 -5.8 C 0 km/h
506 08-01-2010 05:12:04 -6 C 2.57 g/m*3 -6 C 0 km/h
507 08-01-2010 05:24:04 -6.2 C 2.53 g/m*3 -6.2 C 0 km/h
508 08-01-2010 05:36:04 -6.5 C 2.47 g/m*3 -6.5 C 0 km/h
509 08-01-2010 05:48:05 -6.6 C 2.49 g/m*3 -6.6 C 0 km/h
510 08-01-2010 06:00:05 -6.5 C 2.5 g/m*3 -6.5 C 0 km/h
511 08-01-2010 06:12:05 -6.5 C 2.5 g/m*3 -6.5 C 0 km/h
512 08-01-2010 06:24:05 -6.8 C 2.45 g/m*3 -6.8 C 0 km/h
513 08-01-2010 06:36:05 -7 C 2.41 g/m*3 -7 C 0 km/h
514 08-01-2010 06:48:05 -7.2 C 2.35 g/m*3 -7.2 C 0 km/h
515 08-01-2010 07:00:05 -7.5 C 2.3 g/m*3 -7.5 C 0 km/h
516 08-01-2010 07:12:05 -7.6 C 2.28 g/m*3 -7.6 C 0 km/h
517 08-01-2010 07:24:05 -7.7 C 2.26 g/m*3 -7.7 C 0 km/h
518 08-01-2010 07:36:05 -7.6 C 2.31 g/m*3 -7.6 C 0 km/h
519 08-01-2010 07:48:05 -7.6 C 2.31 g/m*3 -7.6 C 0 km/h
520 08-01-2010 08:00:05 -7.7 C 2.29 g/m*3 -7.7 C 0 km/h
521 08-01-2010 08:12:05 -7.9 C 2.23 g/m*3 -7.9 C 0 km/h
522 08-01-2010 08:24:05 -8 C 2.22 g/m*3 -8 C 0 km/h
523 08-01-2010 08:36:05 -8.2 C 2.18 g/m*3 -8.2 C 0 km/h
524 08-01-2010 08:48:05 -8.2 C 2.18 g/m*3 -8.2 C 0 km/h
525 08-01-2010 09:00:05 -8.2 C 2.18 g/m*3 -8.2 C 0 km/h
Sensor: Nr:Datum:Temp:Abs-Feuchte:Windchill:Wind:
Aussen-T/F 526 08-01-2010 09:12:05 -8.2 C 2.18 g/m*3 -8.2 C 0 km/h
527 08-01-2010 09:24:05 -8.2 C 2.18 g/m*3 -8.2 C 0 km/h
528 08-01-2010 09:36:05 -8.2 C 2.18 g/m*3 -8.2 C 0 km/h
529 08-01-2010 09:48:01 -7.9 C 2.23 g/m*3 -7.9 C 0 km/h
530 08-01-2010 10:00:01 -7.3 C 2.36 g/m*3 -7.3 C 0 km/h
531 08-01-2010 10:12:01 -6.7 C 2.47 g/m*3 -6.7 C 0 km/h
532 08-01-2010 10:24:02 -6.2 C 2.56 g/m*3 -6.2 C 0 km/h
533 08-01-2010 10:36:01 -6 C 2.53 g/m*3 -6 C 0 km/h
534 08-01-2010 10:48:02 -5.6 C 2.58 g/m*3 -5.6 C 0 km/h
535 08-01-2010 11:00:02 -5.6 C 2.48 g/m*3 -5.6 C 0 km/h
536 08-01-2010 11:12:02 -5.5 C 2.46 g/m*3 -5.5 C 0 km/h
537 08-01-2010 11:24:02 -5.2 C 2.48 g/m*3 -5.2 C 0 km/h
538 08-01-2010 11:36:03 -5 C 2.49 g/m*3 -5 C 0 km/h
539 08-01-2010 11:48:02 -5 C 2.45 g/m*3 -5 C 0 km/h
540 08-01-2010 12:00:02 -4.6 C 2.52 g/m*3 -4.6 C 0 km/h
541 08-01-2010 12:12:01 -4.8 C 2.42 g/m*3 -4.8 C 0 km/h
542 08-01-2010 12:24:02 -5 C 2.35 g/m*3 -5 C 0 km/h
543 08-01-2010 12:36:02 -4.9 C 2.37 g/m*3 -4.9 C 0 km/h
544 08-01-2010 12:48:02 -4.4 C 2.49 g/m*3 -4.4 C 0 km/h
545 08-01-2010 13:00:02 -4.7 C 2.37 g/m*3 -4.7 C 0 km/h
546 08-01-2010 13:12:03 -4.8 C 2.35 g/m*3 -4.8 C 0 km/h
547 08-01-2010 13:24:02 -4.9 C 2.37 g/m*3 -4.9 C 0 km/h
548 08-01-2010 13:36:02 -4.9 C 2.37 g/m*3 -4.9 C 0 km/h
549 08-01-2010 13:48:01 -4.9 C 2.4 g/m*3 -4.9 C 0 km/h
550 08-01-2010 14:00:01 -4.6 C 2.49 g/m*3 -4.6 C 0 km/h
Sensor: Nr:Datum:Temp:Abs-Feuchte:Windchill:Wind:
Aussen-T/F 551 08-01-2010 14:12:02 -4 C 2.6 g/m*3 -4 C 0 km/h
552 08-01-2010 14:24:01 -3.5 C 2.65 g/m*3 -3.5 C 0 km/h
553 08-01-2010 14:36:02 -3.3 C 2.65 g/m*3 -3.3 C 0 km/h
554 08-01-2010 14:48:02 -3.2 C 2.63 g/m*3 -3.2 C 0 km/h
555 08-01-2010 15:00:02 -3.2 C 2.63 g/m*3 -3.2 C 0 km/h
556 08-01-2010 15:12:02 -3.2 C 2.63 g/m*3 -3.2 C 0 km/h
557 08-01-2010 15:24:01 -3.2 C 2.63 g/m*3 -3.2 C 0 km/h
558 08-01-2010 15:36:02 -3 C 2.71 g/m*3 -3 C 0 km/h
559 08-01-2010 15:48:02 -2.8 C 2.71 g/m*3 -2.8 C 0 km/h
560 08-01-2010 16:00:02 -2.7 C 2.65 g/m*3 -2.7 C 0 km/h
561 08-01-2010 16:12:02 -2.7 C 2.57 g/m*3 -2.7 C 0 km/h
562 08-01-2010 16:24:02 -2.7 C 2.53 g/m*3 -2.7 C 0 km/h
563 08-01-2010 16:36:02 -2.8 C 2.55 g/m*3 -2.8 C 0 km/h
564 08-01-2010 16:48:02 -2.8 C 2.55 g/m*3 -2.8 C 0 km/h
565 08-01-2010 17:00:02 -2.8 C 2.55 g/m*3 -2.8 C 0 km/h
566 08-01-2010 17:12:02 -2.8 C 2.59 g/m*3 -2.8 C 0 km/h
567 08-01-2010 17:24:02 -2.8 C 2.55 g/m*3 -2.8 C 0 km/h
568 08-01-2010 17:36:02 -2.8 C 2.55 g/m*3 -2.8 C 0 km/h
569 08-01-2010 17:48:02 -2.9 C 2.49 g/m*3 -2.9 C 0 km/h
570 08-01-2010 18:00:02 -3 C 2.51 g/m*3 -3 C 0 km/h
571 08-01-2010 18:12:02 -3 C 2.51 g/m*3 -3 C 0 km/h
572 08-01-2010 18:24:02 -3 C 2.47 g/m*3 -3 C 0 km/h
573 08-01-2010 18:36:01 -3 C 2.44 g/m*3 -3 C 0 km/h
574 08-01-2010 18:48:02 -3.1 C 2.42 g/m*3 -3.1 C 0 km/h
575 08-01-2010 19:00:02 -3.1 C 2.42 g/m*3 -3.1 C 0 km/h
Sensor: Nr:Datum:Temp:Abs-Feuchte:Windchill:Wind:
Aussen-T/F 576 08-01-2010 19:12:01 -3.1 C 2.46 g/m*3 -3.1 C 0 km/h
577 08-01-2010 19:24:02 -3.2 C 2.44 g/m*3 -3.2 C 0 km/h
578 08-01-2010 19:36:02 -3.3 C 2.38 g/m*3 -3.3 C 0 km/h
579 08-01-2010 19:48:02 -3.3 C 2.38 g/m*3 -3.3 C 0 km/h
580 08-01-2010 20:00:03 -3.3 C 2.38 g/m*3 -3.3 C 0 km/h
581 08-01-2010 20:12:02 -3.3 C 2.38 g/m*3 -3.3 C 0 km/h
582 08-01-2010 20:24:02 -3.3 C 2.38 g/m*3 -3.3 C 0 km/h
583 08-01-2010 20:36:03 -3.3 C 2.42 g/m*3 -3.3 C 0 km/h
584 08-01-2010 20:48:02 -3.3 C 2.42 g/m*3 -3.3 C 0 km/h
585 08-01-2010 21:00:02 -3.4 C 2.44 g/m*3 -3.4 C 0 km/h
586 08-01-2010 21:12:02 -3.4 C 2.48 g/m*3 -3.4 C 0 km/h
587 08-01-2010 21:24:01 -3.4 C 2.52 g/m*3 -3.4 C 0 km/h
588 08-01-2010 21:36:02 -3.4 C 2.56 g/m*3 -3.4 C 0 km/h
589 08-01-2010 21:48:02 -3.5 C 2.62 g/m*3 -3.5 C 0 km/h
590 08-01-2010 22:00:02 -3.5 C 2.62 g/m*3 -3.5 C 0 km/h
591 08-01-2010 22:12:02 -3.4 C 2.6 g/m*3 -3.4 C 0 km/h
592 08-01-2010 22:25:03 -3.4 C 2.56 g/m*3 -3.4 C 0 km/h
593 08-01-2010 22:37:03 -3.5 C 2.58 g/m*3 -3.5 C 0 km/h
594 08-01-2010 22:49:03 -3.5 C 2.62 g/m*3 -3.5 C 0 km/h
595 08-01-2010 23:01:03 -3.6 C 2.63 g/m*3 -3.6 C 0 km/h
596 08-01-2010 23:13:03 -3.7 C 2.73 g/m*3 -3.7 C 0 km/h
597 08-01-2010 23:25:03 -3.8 C 2.78 g/m*3 -3.8 C 0 km/h
598 08-01-2010 23:37:03 -3.8 C 2.82 g/m*3 -3.8 C 0 km/h
599 08-01-2010 23:49:03 -3.9 C 2.84 g/m*3 -3.9 C 0 km/h
600 09-01-2010 00:01:03 -3.9 C 2.87 g/m*3 -3.9 C 0 km/h
Sensor: Nr:Datum:Temp:Abs-Feuchte:Windchill:Wind:
Aussen-T/F 601 09-01-2010 00:13:03 -3.9 C 2.87 g/m*3 -3.9 C 0 km/h
602 09-01-2010 00:25:03 -3.9 C 2.91 g/m*3 -3.9 C 0 km/h
603 09-01-2010 00:37:03 -3.9 C 2.91 g/m*3 -3.9 C 0 km/h
604 09-01-2010 00:49:03 -4 C 2.89 g/m*3 -4 C 0 km/h
605 09-01-2010 01:01:03 -4 C 2.89 g/m*3 -4 C 0 km/h
606 09-01-2010 01:13:03 -4 C 2.89 g/m*3 -4 C 0 km/h
607 09-01-2010 01:25:04 -3.9 C 2.91 g/m*3 -3.9 C 0 km/h
608 09-01-2010 01:37:04 -3.9 C 2.87 g/m*3 -3.9 C 0 km/h
609 09-01-2010 01:49:04 -3.9 C 2.84 g/m*3 -3.9 C 0 km/h
610 09-01-2010 02:01:04 -3.9 C 2.76 g/m*3 -3.9 C 0 km/h
611 09-01-2010 02:13:04 -3.8 C 2.71 g/m*3 -3.8 C 0 km/h
612 09-01-2010 02:25:04 -3.8 C 2.63 g/m*3 -3.8 C 0 km/h
613 09-01-2010 02:37:04 -3.7 C 2.62 g/m*3 -3.7 C 0 km/h
614 09-01-2010 02:49:04 -3.7 C 2.62 g/m*3 -3.7 C 0 km/h
615 09-01-2010 03:01:04 -3.7 C 2.58 g/m*3 -3.7 C 0 km/h
616 09-01-2010 03:13:04 -3.6 C 2.56 g/m*3 -3.6 C 0 km/h
617 09-01-2010 03:25:04 -3.7 C 2.54 g/m*3 -3.7 C 0 km/h
618 09-01-2010 03:37:04 -3.8 C 2.56 g/m*3 -3.8 C 0 km/h
619 09-01-2010 03:49:04 -3.8 C 2.6 g/m*3 -3.8 C 0 km/h
620 09-01-2010 04:01:04 -3.9 C 2.62 g/m*3 -3.9 C 0 km/h
621 09-01-2010 04:13:04 -4 C 2.63 g/m*3 -4 C 0 km/h
622 09-01-2010 04:25:04 -4 C 2.71 g/m*3 -4 C 0 km/h
623 09-01-2010 04:37:04 -4.1 C 2.76 g/m*3 -4.1 C 0 km/h
624 09-01-2010 04:49:04 -4.1 C 2.83 g/m*3 -4.1 C 0 km/h
625 09-01-2010 05:01:04 -4.1 C 2.87 g/m*3 -4.1 C 0 km/h
Sensor: Nr:Datum:Temp:Abs-Feuchte:Windchill:Wind:
Aussen-T/F 626 09-01-2010 05:13:04 -4.1 C 2.91 g/m*3 -4.1 C 0 km/h
627 09-01-2010 05:25:05 -4.1 C 2.94 g/m*3 -4.1 C 0 km/h
628 09-01-2010 05:37:05 -4.1 C 2.98 g/m*3 -4.1 C 0 km/h
629 09-01-2010 05:49:05 -4.1 C 2.98 g/m*3 -4.1 C 0 km/h
630 09-01-2010 06:01:05 -4.1 C 3.01 g/m*3 -4.1 C 0 km/h
631 09-01-2010 06:13:05 -4.1 C 3.01 g/m*3 -4.1 C 0 km/h
632 09-01-2010 06:25:05 -4.1 C 3.05 g/m*3 -4.1 C 0 km/h
633 09-01-2010 06:37:05 -4 C 3.07 g/m*3 -4 C 0 km/h
634 09-01-2010 06:49:05 -3.9 C 3.13 g/m*3 -3.9 C 0 km/h
635 09-01-2010 07:01:05 -3.9 C 3.13 g/m*3 -3.9 C 0 km/h
636 09-01-2010 07:13:05 -3.8 C 3.15 g/m*3 -3.8 C 0 km/h
637 09-01-2010 07:25:03 -3.8 C 3.19 g/m*3 -3.8 C 0 km/h
638 09-01-2010 07:37:02 -3.7 C 3.21 g/m*3 -3.7 C 0 km/h
639 09-01-2010 07:49:02 -3.7 C 3.21 g/m*3 -3.7 C 0 km/h
640 09-01-2010 08:01:01 -3.5 C 3.26 g/m*3 -3.5 C 0 km/h
641 09-01-2010 08:13:01 -3.5 C 3.26 g/m*3 -3.5 C 0 km/h
642 09-01-2010 08:25:02 -3.4 C 3.32 g/m*3 -3.4 C 0 km/h
643 09-01-2010 08:37:01 -3.4 C 3.32 g/m*3 -3.4 C 0 km/h
644 09-01-2010 08:49:02 -3.3 C 3.35 g/m*3 -3.3 C 0 km/h
645 09-01-2010 09:01:01 -3.2 C 3.37 g/m*3 -3.2 C 0 km/h
646 09-01-2010 09:13:01 -3.1 C 3.39 g/m*3 -3.1 C 0 km/h
647 09-01-2010 09:25:01 -2.9 C 3.48 g/m*3 -2.9 C 0 km/h
648 09-01-2010 09:37:02 -2.7 C 3.53 g/m*3 -2.7 C 0 km/h
649 09-01-2010 09:49:02 -2.6 C 3.52 g/m*3 -2.6 C 0 km/h
650 09-01-2010 10:01:02 -2.5 C 3.54 g/m*3 -2.5 C 0 km/h
Sensor: Nr:Datum:Temp:Abs-Feuchte:Windchill:Wind:
Aussen-T/F 651 09-01-2010 10:13:02 -2.3 C 3.59 g/m*3 -2.3 C 0 km/h
652 09-01-2010 10:25:02 -2 C 3.67 g/m*3 -2 C 0 km/h
653 09-01-2010 10:37:02 -1.8 C 3.68 g/m*3 -1.8 C 0 km/h
654 09-01-2010 10:49:02 -1.7 C 3.66 g/m*3 -1.7 C 0 km/h
655 09-01-2010 11:01:02 -1.7 C 3.62 g/m*3 -1.7 C 0 km/h
656 09-01-2010 11:13:02 -1.8 C 3.59 g/m*3 -1.8 C 0 km/h
657 09-01-2010 11:25:02 -1.8 C 3.59 g/m*3 -1.8 C 0 km/h
658 09-01-2010 11:37:02 -1.9 C 3.52 g/m*3 -1.9 C 0 km/h
659 09-01-2010 11:49:01 -2 C 3.41 g/m*3 -2 C 0 km/h
660 09-01-2010 12:01:01 -1.9 C 3.44 g/m*3 -1.9 C 0 km/h
661 09-01-2010 12:13:01 -1.9 C 3.44 g/m*3 -1.9 C 0 km/h
662 09-01-2010 12:25:01 -2 C 3.37 g/m*3 -2 C 0 km/h
663 09-01-2010 12:37:01 -2 C 3.29 g/m*3 -2 C 0 km/h
664 09-01-2010 12:49:01 -1.9 C 3.23 g/m*3 -1.9 C 0 km/h
665 09-01-2010 13:01:01 -1.9 C 3.14 g/m*3 -1.9 C 0 km/h
666 09-01-2010 13:13:01 -1.8 C 3.12 g/m*3 -1.8 C 0 km/h
667 09-01-2010 13:25:02 -1.8 C 3.08 g/m*3 -1.8 C 0 km/h
668 09-01-2010 13:37:01 -1.7 C 3.06 g/m*3 -1.7 C 0 km/h
669 09-01-2010 13:49:03 -1.7 C 3.06 g/m*3 -1.7 C 0 km/h
670 09-01-2010 14:01:02 -1.7 C 3.06 g/m*3 -1.7 C 0 km/h
671 09-01-2010 14:13:02 -1.7 C 3.06 g/m*3 -1.7 C 0 km/h
672 09-01-2010 14:25:02 -1.7 C 3.01 g/m*3 -1.7 C 0 km/h
673 09-01-2010 14:37:02 -1.6 C 3.03 g/m*3 -1.6 C 0 km/h
674 09-01-2010 14:49:02 -1.7 C 3.01 g/m*3 -1.7 C 0 km/h
675 09-01-2010 15:01:02 -1.7 C 3.01 g/m*3 -1.7 C 0 km/h
Sensor: Nr:Datum:Temp:Abs-Feuchte:Windchill:Wind:
Aussen-T/F 676 09-01-2010 15:13:02 -1.7 C 2.97 g/m*3 -1.7 C 0 km/h
677 09-01-2010 15:25:02 -1.7 C 2.97 g/m*3 -1.7 C 0 km/h
678 09-01-2010 15:37:01 -1.7 C 2.97 g/m*3 -1.7 C 0 km/h
679 09-01-2010 15:49:02 -1.7 C 2.97 g/m*3 -1.7 C 0 km/h
680 09-01-2010 16:01:01 -1.7 C 3.01 g/m*3 -1.7 C 0 km/h
681 09-01-2010 16:13:01 -1.7 C 2.97 g/m*3 -1.7 C 0 km/h
682 09-01-2010 16:25:02 -1.7 C 2.97 g/m*3 -1.7 C 0 km/h
683 09-01-2010 16:37:02 -1.8 C 2.99 g/m*3 -1.8 C 0 km/h
684 09-01-2010 16:49:02 -1.8 C 2.95 g/m*3 -1.8 C 0 km/h
685 09-01-2010 17:01:02 -1.8 C 2.95 g/m*3 -1.8 C 0 km/h
686 09-01-2010 17:13:02 -1.8 C 2.95 g/m*3 -1.8 C 0 km/h
687 09-01-2010 17:25:02 -1.8 C 2.95 g/m*3 -1.8 C 0 km/h
688 09-01-2010 17:37:02 -1.8 C 2.95 g/m*3 -1.8 C 0 km/h
689 09-01-2010 17:49:01 -1.8 C 2.95 g/m*3 -1.8 C 0 km/h
690 09-01-2010 18:01:02 -1.8 C 2.99 g/m*3 -1.8 C 0 km/h
691 09-01-2010 18:13:02 -1.9 C 2.97 g/m*3 -1.9 C 0 km/h
692 09-01-2010 18:25:01 -1.8 C 2.99 g/m*3 -1.8 C 0 km/h
693 09-01-2010 18:37:01 -1.9 C 3.01 g/m*3 -1.9 C 0 km/h
694 09-01-2010 18:49:01 -1.9 C 2.97 g/m*3 -1.9 C 0 km/h
695 09-01-2010 19:01:02 -1.9 C 2.97 g/m*3 -1.9 C 0 km/h
696 09-01-2010 19:13:02 -1.8 C 2.99 g/m*3 -1.8 C 0 km/h
697 09-01-2010 19:25:01 -1.9 C 2.97 g/m*3 -1.9 C 0 km/h
698 09-01-2010 19:37:01 -1.9 C 2.97 g/m*3 -1.9 C 0 km/h
699 09-01-2010 19:49:01 -1.8 C 2.95 g/m*3 -1.8 C 0 km/h
700 09-01-2010 20:01:02 -1.8 C 2.95 g/m*3 -1.8 C 0 km/h
Sensor: Nr:Datum:Temp:Abs-Feuchte:Windchill:Wind:
Aussen-T/F 701 09-01-2010 20:13:02 -1.9 C 2.97 g/m*3 -1.9 C 0 km/h
702 09-01-2010 20:25:02 -1.9 C 2.97 g/m*3 -1.9 C 0 km/h
703 09-01-2010 20:37:01 -1.9 C 2.97 g/m*3 -1.9 C 0 km/h
704 09-01-2010 20:49:02 -1.9 C 2.97 g/m*3 -1.9 C 0 km/h
705 09-01-2010 21:01:01 -1.9 C 2.97 g/m*3 -1.9 C 0 km/h
706 09-01-2010 21:13:01 -1.9 C 2.97 g/m*3 -1.9 C 0 km/h
707 09-01-2010 21:25:02 -1.9 C 2.93 g/m*3 -1.9 C 0 km/h
708 09-01-2010 21:37:01 -2 C 2.95 g/m*3 -2 C 0 km/h
709 09-01-2010 21:49:03 -1.9 C 2.97 g/m*3 -1.9 C 0 km/h
710 09-01-2010 22:01:02 -2 C 2.95 g/m*3 -2 C 0 km/h
711 09-01-2010 22:13:02 -2 C 2.99 g/m*3 -2 C 0 km/h
712 09-01-2010 22:26:02 -2 C 2.99 g/m*3 -2 C 0 km/h
713 09-01-2010 22:38:02 -2 C 2.99 g/m*3 -2 C 0 km/h
714 09-01-2010 22:50:02 -2 C 3.03 g/m*3 -2 C 0 km/h
715 09-01-2010 23:02:03 -2 C 3.03 g/m*3 -2 C 0 km/h
716 09-01-2010 23:14:03 -2 C 3.03 g/m*3 -2 C 0 km/h
717 09-01-2010 23:26:03 -2 C 3.03 g/m*3 -2 C 0 km/h
718 09-01-2010 23:38:03 -2.1 C 3.01 g/m*3 -2.1 C 0 km/h
719 09-01-2010 23:50:03 -2.1 C 3.01 g/m*3 -2.1 C 0 km/h
720 10-01-2010 00:02:03 -2.1 C 3.01 g/m*3 -2.1 C 0 km/h
721 10-01-2010 00:14:03 -2.1 C 3.01 g/m*3 -2.1 C 0 km/h
722 10-01-2010 00:26:03 -2.1 C 3.01 g/m*3 -2.1 C 0 km/h
723 10-01-2010 00:38:03 -2.1 C 3.01 g/m*3 -2.1 C 0 km/h
724 10-01-2010 00:50:03 -2.1 C 3.01 g/m*3 -2.1 C 0 km/h
725 10-01-2010 01:02:03 -2.1 C 3.01 g/m*3 -2.1 C 0 km/h
Sensor: Nr:Datum:Temp:Abs-Feuchte:Windchill:Wind:
Aussen-T/F 726 10-01-2010 01:14:03 -2.2 C 2.99 g/m*3 -2.2 C 0 km/h
727 10-01-2010 01:26:03 -2.2 C 2.99 g/m*3 -2.2 C 0 km/h
728 10-01-2010 01:38:03 -2.2 C 2.99 g/m*3 -2.2 C 0 km/h
729 10-01-2010 01:50:03 -2.2 C 2.99 g/m*3 -2.2 C 0 km/h
730 10-01-2010 02:02:03 -2.3 C 2.97 g/m*3 -2.3 C 0 km/h
731 10-01-2010 02:14:03 -2.3 C 3.01 g/m*3 -2.3 C 0 km/h
732 10-01-2010 02:26:03 -2.4 C 2.99 g/m*3 -2.4 C 0 km/h
733 10-01-2010 02:38:03 -2.4 C 2.99 g/m*3 -2.4 C 0 km/h
734 10-01-2010 02:50:03 -2.5 C 3.01 g/m*3 -2.5 C 0 km/h
735 10-01-2010 03:02:04 -2.4 C 3.03 g/m*3 -2.4 C 0 km/h
736 10-01-2010 03:14:04 -2.4 C 3.03 g/m*3 -2.4 C 0 km/h
737 10-01-2010 03:26:04 -2.5 C 3.01 g/m*3 -2.5 C 0 km/h
738 10-01-2010 03:38:04 -2.5 C 3.05 g/m*3 -2.5 C 0 km/h
739 10-01-2010 03:50:04 -2.6 C 3.03 g/m*3 -2.6 C 0 km/h
740 10-01-2010 04:02:04 -2.6 C 3.03 g/m*3 -2.6 C 0 km/h
741 10-01-2010 04:14:04 -2.6 C 3.03 g/m*3 -2.6 C 0 km/h
742 10-01-2010 04:26:04 -2.6 C 3.03 g/m*3 -2.6 C 0 km/h
743 10-01-2010 04:38:04 -2.6 C 3.07 g/m*3 -2.6 C 0 km/h
744 10-01-2010 04:50:04 -2.6 C 3.07 g/m*3 -2.6 C 0 km/h
745 10-01-2010 05:02:04 -2.6 C 3.11 g/m*3 -2.6 C 0 km/h
746 10-01-2010 05:14:04 -2.6 C 3.15 g/m*3 -2.6 C 0 km/h
747 10-01-2010 05:26:04 -2.6 C 3.15 g/m*3 -2.6 C 0 km/h
748 10-01-2010 05:38:04 -2.8 C 3.11 g/m*3 -2.8 C 0 km/h
749 10-01-2010 05:50:04 -2.8 C 3.15 g/m*3 -2.8 C 0 km/h
750 10-01-2010 06:02:04 -2.8 C 3.15 g/m*3 -2.8 C 0 km/h
Sensor: Nr:Datum:Temp:Abs-Feuchte:Windchill:Wind:
Aussen-T/F 751 10-01-2010 06:14:04 -2.8 C 3.15 g/m*3 -2.8 C 0 km/h
752 10-01-2010 06:26:04 -2.8 C 3.19 g/m*3 -2.8 C 0 km/h
753 10-01-2010 06:38:04 -2.7 C 3.21 g/m*3 -2.7 C 0 km/h
754 10-01-2010 06:50:04 -2.7 C 3.21 g/m*3 -2.7 C 0 km/h
755 10-01-2010 07:02:04 -2.8 C 3.19 g/m*3 -2.8 C 0 km/h
756 10-01-2010 07:14:05 -2.7 C 3.21 g/m*3 -2.7 C 0 km/h
757 10-01-2010 07:26:05 -2.8 C 3.19 g/m*3 -2.8 C 0 km/h
758 10-01-2010 07:38:05 -2.9 C 3.2 g/m*3 -2.9 C 0 km/h
759 10-01-2010 07:50:05 -3 C 3.18 g/m*3 -3 C 0 km/h
760 10-01-2010 08:02:05 -2.9 C 3.24 g/m*3 -2.9 C 0 km/h
761 10-01-2010 08:14:05 -2.8 C 3.27 g/m*3 -2.8 C 0 km/h
762 10-01-2010 08:26:05 -2.9 C 3.24 g/m*3 -2.9 C 0 km/h
763 10-01-2010 08:38:05 -3 C 3.22 g/m*3 -3 C 0 km/h
764 10-01-2010 08:50:05 -2.9 C 3.28 g/m*3 -2.9 C 0 km/h
765 10-01-2010 09:02:02 -2.8 C 3.31 g/m*3 -2.8 C 0 km/h
766 10-01-2010 09:14:02 -2.7 C 3.33 g/m*3 -2.7 C 0 km/h
767 10-01-2010 09:26:02 -2.6 C 3.35 g/m*3 -2.6 C 0 km/h
768 10-01-2010 09:38:02 -2.6 C 3.35 g/m*3 -2.6 C 0 km/h
769 10-01-2010 09:50:02 -2.6 C 3.35 g/m*3 -2.6 C 0 km/h
770 10-01-2010 10:02:02 -2.6 C 3.35 g/m*3 -2.6 C 0 km/h
771 10-01-2010 10:14:02 -2.4 C 3.4 g/m*3 -2.4 C 0 km/h
772 10-01-2010 10:26:01 -2.1 C 3.52 g/m*3 -2.1 C 0 km/h
773 10-01-2010 10:38:02 -1.9 C 3.52 g/m*3 -1.9 C 0 km/h
774 10-01-2010 10:50:02 -1.8 C 3.55 g/m*3 -1.8 C 0 km/h
775 10-01-2010 11:02:02 -1.8 C 3.51 g/m*3 -1.8 C 0 km/h
Sensor: Nr:Datum:Temp:Abs-Feuchte:Windchill:Wind:
Aussen-T/F 776 10-01-2010 11:14:02 -1.6 C 3.55 g/m*3 -1.6 C 0 km/h
777 10-01-2010 11:26:02 -1.7 C 3.49 g/m*3 -1.7 C 0 km/h
778 10-01-2010 11:38:02 -1.3 C 3.59 g/m*3 -1.3 C 0 km/h
779 10-01-2010 11:50:02 -1 C 3.62 g/m*3 -1 C 0 km/h
780 10-01-2010 12:02:02 -0.7 C 3.69 g/m*3 -0.7 C 0 km/h
781 10-01-2010 12:14:02 -0.6 C 3.67 g/m*3 -0.6 C 0 km/h
782 10-01-2010 12:26:02 -0.8 C 3.53 g/m*3 -0.8 C 0 km/h
783 10-01-2010 12:38:02 -0.7 C 3.51 g/m*3 -0.7 C 0 km/h
784 10-01-2010 12:50:02 -0.6 C 3.49 g/m*3 -0.6 C 0 km/h
785 10-01-2010 13:02:03 -0.5 C 3.37 g/m*3 -0.5 C 0 km/h
786 10-01-2010 13:14:03 -0.6 C 3.21 g/m*3 -0.6 C 0 km/h
787 10-01-2010 13:26:02 -0.5 C 3.23 g/m*3 -0.5 C 0 km/h
788 10-01-2010 13:38:03 -0.4 C 3.3 g/m*3 -0.4 C 0 km/h
789 10-01-2010 13:50:02 -0.4 C 3.3 g/m*3 -0.4 C 0 km/h
790 10-01-2010 14:02:01 -0.5 C 3.28 g/m*3 -0.5 C 0 km/h
791 10-01-2010 14:14:01 -0.4 C 3.3 g/m*3 -0.4 C 0 km/h
792 10-01-2010 14:26:02 -0.4 C 3.35 g/m*3 -0.4 C 0 km/h
793 10-01-2010 14:38:01 -0.5 C 3.32 g/m*3 -0.5 C 0 km/h
794 10-01-2010 14:50:02 -0.4 C 3.35 g/m*3 -0.4 C 0 km/h
795 10-01-2010 15:02:01 -0.4 C 3.35 g/m*3 -0.4 C 0 km/h
796 10-01-2010 15:14:01 -0.5 C 3.28 g/m*3 -0.5 C 0 km/h
797 10-01-2010 15:26:01 -0.5 C 3.28 g/m*3 -0.5 C 0 km/h
798 10-01-2010 15:38:02 -0.6 C 3.3 g/m*3 -0.6 C 0 km/h
799 10-01-2010 15:50:02 -0.6 C 3.3 g/m*3 -0.6 C 0 km/h
800 10-01-2010 16:02:01 -0.6 C 3.3 g/m*3 -0.6 C 0 km/h
Sensor: Nr:Datum:Temp:Abs-Feuchte:Windchill:Wind:
Aussen-T/F 801 10-01-2010 16:14:01 -0.8 C 3.3 g/m*3 -0.8 C 0 km/h
802 10-01-2010 16:26:02 -1 C 3.3 g/m*3 -1 C 0 km/h
803 10-01-2010 16:38:02 -1.2 C 3.25 g/m*3 -1.2 C 0 km/h
804 10-01-2010 16:50:02 -1.3 C 3.28 g/m*3 -1.3 C 0 km/h
805 10-01-2010 17:02:02 -1.5 C 3.23 g/m*3 -1.5 C 0 km/h
806 10-01-2010 17:14:02 -1.6 C 3.25 g/m*3 -1.6 C 0 km/h
807 10-01-2010 17:26:01 -1.7 C 3.27 g/m*3 -1.7 C 0 km/h
808 10-01-2010 17:38:02 -1.8 C 3.25 g/m*3 -1.8 C 0 km/h
809 10-01-2010 17:50:02 -1.9 C 3.23 g/m*3 -1.9 C 0 km/h
810 10-01-2010 18:02:02 -1.9 C 3.27 g/m*3 -1.9 C 0 km/h
811 10-01-2010 18:14:02 -1.8 C 3.29 g/m*3 -1.8 C 0 km/h
812 10-01-2010 18:26:02 -1.8 C 3.33 g/m*3 -1.8 C 0 km/h
813 10-01-2010 18:38:02 -1.8 C 3.33 g/m*3 -1.8 C 0 km/h
814 10-01-2010 18:50:02 -1.9 C 3.31 g/m*3 -1.9 C 0 km/h
815 10-01-2010 19:02:02 -1.9 C 3.31 g/m*3 -1.9 C 0 km/h
816 10-01-2010 19:14:02 -1.8 C 3.38 g/m*3 -1.8 C 0 km/h
817 10-01-2010 19:26:02 -1.8 C 3.38 g/m*3 -1.8 C 0 km/h
818 10-01-2010 19:38:02 -1.9 C 3.35 g/m*3 -1.9 C 0 km/h
819 10-01-2010 19:50:02 -1.9 C 3.35 g/m*3 -1.9 C 0 km/h
820 10-01-2010 20:02:02 -1.8 C 3.38 g/m*3 -1.8 C 0 km/h
821 10-01-2010 20:14:02 -1.8 C 3.42 g/m*3 -1.8 C 0 km/h
822 10-01-2010 20:26:02 -1.8 C 3.42 g/m*3 -1.8 C 0 km/h
823 10-01-2010 20:38:02 -1.8 C 3.38 g/m*3 -1.8 C 0 km/h
824 10-01-2010 20:50:01 -1.8 C 3.42 g/m*3 -1.8 C 0 km/h
825 10-01-2010 21:02:01 -1.8 C 3.42 g/m*3 -1.8 C 0 km/h
Sensor: Nr:Datum:Temp:Abs-Feuchte:Windchill:Wind:
Aussen-T/F 826 10-01-2010 21:14:01 -1.8 C 3.42 g/m*3 -1.8 C 0 km/h
827 10-01-2010 21:26:02 -1.8 C 3.42 g/m*3 -1.8 C 0 km/h
828 10-01-2010 21:38:01 -1.8 C 3.42 g/m*3 -1.8 C 0 km/h
829 10-01-2010 21:50:03 -1.7 C 3.44 g/m*3 -1.7 C 0 km/h
830 10-01-2010 22:02:02 -1.8 C 3.42 g/m*3 -1.8 C 0 km/h
831 10-01-2010 22:14:02 -1.8 C 3.42 g/m*3 -1.8 C 0 km/h
832 10-01-2010 22:26:02 -1.8 C 3.42 g/m*3 -1.8 C 0 km/h
833 10-01-2010 22:39:03 -1.8 C 3.42 g/m*3 -1.8 C 0 km/h
834 10-01-2010 22:51:03 -1.8 C 3.42 g/m*3 -1.8 C 0 km/h
835 10-01-2010 23:03:03 -1.8 C 3.42 g/m*3 -1.8 C 0 km/h
836 10-01-2010 23:15:03 -1.8 C 3.42 g/m*3 -1.8 C 0 km/h
837 10-01-2010 23:27:03 -1.8 C 3.42 g/m*3 -1.8 C 0 km/h
838 10-01-2010 23:39:03 -1.8 C 3.42 g/m*3 -1.8 C 0 km/h
839 10-01-2010 23:51:03 -1.8 C 3.42 g/m*3 -1.8 C 0 km/h
840 11-01-2010 00:03:03 -1.8 C 3.42 g/m*3 -1.8 C 0 km/h
841 11-01-2010 00:15:03 -1.8 C 3.42 g/m*3 -1.8 C 0 km/h
842 11-01-2010 00:27:03 -1.8 C 3.42 g/m*3 -1.8 C 0 km/h
843 11-01-2010 00:39:03 -1.9 C 3.4 g/m*3 -1.9 C 0 km/h
844 11-01-2010 00:51:03 -1.9 C 3.4 g/m*3 -1.9 C 0 km/h
845 11-01-2010 01:03:03 -2.1 C 3.35 g/m*3 -2.1 C 0 km/h
846 11-01-2010 01:15:03 -2.2 C 3.33 g/m*3 -2.2 C 0 km/h
847 11-01-2010 01:27:03 -2.3 C 3.34 g/m*3 -2.3 C 0 km/h
848 11-01-2010 01:39:03 -2.2 C 3.37 g/m*3 -2.2 C 0 km/h
849 11-01-2010 01:51:03 -2.1 C 3.39 g/m*3 -2.1 C 0 km/h
850 11-01-2010 02:03:03 -2.1 C 3.43 g/m*3 -2.1 C 0 km/h
Sensor: Nr:Datum:Temp:Abs-Feuchte:Windchill:Wind:
Aussen-T/F 851 11-01-2010 02:15:03 -2.1 C 3.43 g/m*3 -2.1 C 0 km/h
852 11-01-2010 02:27:03 -2.1 C 3.43 g/m*3 -2.1 C 0 km/h
853 11-01-2010 02:39:04 -2.1 C 3.43 g/m*3 -2.1 C 0 km/h
854 11-01-2010 02:51:04 -2.1 C 3.47 g/m*3 -2.1 C 0 km/h
855 11-01-2010 03:03:04 -2.1 C 3.47 g/m*3 -2.1 C 0 km/h
856 11-01-2010 03:15:04 -2.1 C 3.47 g/m*3 -2.1 C 0 km/h
857 11-01-2010 03:27:04 -2.1 C 3.52 g/m*3 -2.1 C 0 km/h
858 11-01-2010 03:39:04 -2.1 C 3.52 g/m*3 -2.1 C 0 km/h
859 11-01-2010 03:51:04 -2.1 C 3.52 g/m*3 -2.1 C 0 km/h
860 11-01-2010 04:03:04 -2.1 C 3.52 g/m*3 -2.1 C 0 km/h
861 11-01-2010 04:15:04 -2 C 3.54 g/m*3 -2 C 0 km/h
862 11-01-2010 04:27:04 -2 C 3.54 g/m*3 -2 C 0 km/h
863 11-01-2010 04:39:04 -2 C 3.5 g/m*3 -2 C 0 km/h
864 11-01-2010 04:51:04 -2 C 3.5 g/m*3 -2 C 0 km/h
865 11-01-2010 05:03:04 -2 C 3.5 g/m*3 -2 C 0 km/h
866 11-01-2010 05:15:04 -2 C 3.5 g/m*3 -2 C 0 km/h
867 11-01-2010 05:27:04 -2 C 3.5 g/m*3 -2 C 0 km/h
868 11-01-2010 05:39:04 -2 C 3.5 g/m*3 -2 C 0 km/h
869 11-01-2010 05:51:04 -1.9 C 3.52 g/m*3 -1.9 C 0 km/h
870 11-01-2010 06:03:04 -1.9 C 3.52 g/m*3 -1.9 C 0 km/h
871 11-01-2010 06:15:04 -1.9 C 3.52 g/m*3 -1.9 C 0 km/h
872 11-01-2010 06:27:04 -1.9 C 3.52 g/m*3 -1.9 C 0 km/h
873 11-01-2010 06:39:04 -1.9 C 3.52 g/m*3 -1.9 C 0 km/h
874 11-01-2010 06:51:05 -2 C 3.5 g/m*3 -2 C 0 km/h
875 11-01-2010 07:03:05 -2 C 3.5 g/m*3 -2 C 0 km/h
Sensor: Nr:Datum:Temp:Abs-Feuchte:Windchill:Wind:
Aussen-T/F 876 11-01-2010 07:15:03 -2 C 3.5 g/m*3 -2 C 0 km/h
877 11-01-2010 07:27:03 -2 C 3.5 g/m*3 -2 C 0 km/h
878 11-01-2010 07:39:03 -1.9 C 3.52 g/m*3 -1.9 C 0 km/h
879 11-01-2010 07:51:02 -1.9 C 3.52 g/m*3 -1.9 C 0 km/h
880 11-01-2010 08:03:02 -2 C 3.5 g/m*3 -2 C 0 km/h
881 11-01-2010 08:15:01 -2.1 C 3.47 g/m*3 -2.1 C 0 km/h
882 11-01-2010 08:27:01 -2.1 C 3.52 g/m*3 -2.1 C 0 km/h
883 11-01-2010 08:39:02 -2.1 C 3.52 g/m*3 -2.1 C 0 km/h
884 11-01-2010 08:51:02 -2 C 3.54 g/m*3 -2 C 0 km/h
885 11-01-2010 09:03:02 -2.1 C 3.52 g/m*3 -2.1 C 0 km/h
886 11-01-2010 09:15:02 -1.9 C 3.57 g/m*3 -1.9 C 0 km/h
887 11-01-2010 09:27:02 -1.9 C 3.57 g/m*3 -1.9 C 0 km/h
888 11-01-2010 09:39:02 -1.8 C 3.59 g/m*3 -1.8 C 0 km/h
889 11-01-2010 09:51:02 -1.7 C 3.62 g/m*3 -1.7 C 0 km/h
890 11-01-2010 10:03:03 -1.5 C 3.67 g/m*3 -1.5 C 0 km/h
891 11-01-2010 10:15:02 -1.3 C 3.72 g/m*3 -1.3 C 0 km/h
892 11-01-2010 10:27:02 -1.3 C 3.67 g/m*3 -1.3 C 0 km/h
893 11-01-2010 10:39:02 -1.2 C 3.7 g/m*3 -1.2 C 0 km/h
894 11-01-2010 10:51:02 -1 C 3.71 g/m*3 -1 C 0 km/h
895 11-01-2010 11:03:02 -0.9 C 3.73 g/m*3 -0.9 C 0 km/h
896 11-01-2010 11:15:02 -0.8 C 3.71 g/m*3 -0.8 C 0 km/h
897 11-01-2010 11:27:02 -0.6 C 3.72 g/m*3 -0.6 C 0 km/h
898 11-01-2010 11:39:02 -0.6 C 3.67 g/m*3 -0.6 C 0 km/h
899 11-01-2010 11:51:02 -0.8 C 3.53 g/m*3 -0.8 C 0 km/h
900 11-01-2010 12:03:02 -0.6 C 3.53 g/m*3 -0.6 C 0 km/h
Sensor: Nr:Datum:Temp:Abs-Feuchte:Windchill:Wind:
Aussen-T/F 901 11-01-2010 12:15:02 -0.6 C 3.49 g/m*3 -0.6 C 0 km/h
902 11-01-2010 12:27:02 -0.5 C 3.51 g/m*3 -0.5 C 0 km/h
903 11-01-2010 12:39:02 -0.6 C 3.44 g/m*3 -0.6 C 0 km/h
904 11-01-2010 12:51:02 -0.6 C 3.49 g/m*3 -0.6 C 0 km/h
905 11-01-2010 13:03:02 -0.5 C 3.46 g/m*3 -0.5 C 0 km/h
906 11-01-2010 13:15:02 -0.4 C 3.49 g/m*3 -0.4 C 0 km/h
907 11-01-2010 13:27:02 -0.5 C 3.46 g/m*3 -0.5 C 0 km/h
908 11-01-2010 13:39:01 -0.6 C 3.49 g/m*3 -0.6 C 0 km/h
909 11-01-2010 13:51:02 -0.6 C 3.49 g/m*3 -0.6 C 0 km/h
910 11-01-2010 14:03:01 -0.6 C 3.49 g/m*3 -0.6 C 0 km/h
911 11-01-2010 14:15:02 -0.6 C 3.53 g/m*3 -0.6 C 0 km/h
912 11-01-2010 14:27:02 -0.5 C 3.56 g/m*3 -0.5 C 0 km/h
913 11-01-2010 14:39:01 -0.6 C 3.49 g/m*3 -0.6 C 0 km/h
914 11-01-2010 14:51:02 -0.7 C 3.51 g/m*3 -0.7 C 0 km/h
915 11-01-2010 15:03:02 -0.7 C 3.55 g/m*3 -0.7 C 0 km/h
916 11-01-2010 15:15:02 -0.7 C 3.55 g/m*3 -0.7 C 0 km/h
917 11-01-2010 15:27:02 -0.8 C 3.58 g/m*3 -0.8 C 0 km/h
918 11-01-2010 15:39:03 -0.8 C 3.62 g/m*3 -0.8 C 0 km/h
919 11-01-2010 15:51:02 -0.8 C 3.67 g/m*3 -0.8 C 0 km/h
920 11-01-2010 16:03:01 -0.8 C 3.71 g/m*3 -0.8 C 0 km/h
921 11-01-2010 16:15:02 -0.8 C 3.76 g/m*3 -0.8 C 0 km/h
922 11-01-2010 16:27:02 -0.8 C 3.8 g/m*3 -0.8 C 0 km/h
923 11-01-2010 16:39:02 -1 C 3.75 g/m*3 -1 C 0 km/h
924 11-01-2010 16:51:01 -1.1 C 3.77 g/m*3 -1.1 C 0 km/h
925 11-01-2010 17:03:02 -1.2 C 3.74 g/m*3 -1.2 C 0 km/h
Sensor: Nr:Datum:Temp:Abs-Feuchte:Windchill:Wind:
Aussen-T/F 926 11-01-2010 17:15:01 -1.2 C 3.79 g/m*3 -1.2 C 0 km/h
927 11-01-2010 17:27:01 -1.1 C 3.82 g/m*3 -1.1 C 0 km/h
928 11-01-2010 17:39:02 -1.2 C 3.79 g/m*3 -1.2 C 0 km/h
929 11-01-2010 17:51:02 -1.3 C 3.81 g/m*3 -1.3 C 0 km/h
930 11-01-2010 18:03:02 -1.3 C 3.81 g/m*3 -1.3 C 0 km/h
931 11-01-2010 18:15:01 -1.3 C 3.85 g/m*3 -1.3 C 0 km/h
932 11-01-2010 18:27:01 -1.2 C 3.88 g/m*3 -1.2 C 0 km/h
933 11-01-2010 18:39:02 -1.3 C 3.85 g/m*3 -1.3 C 0 km/h
934 11-01-2010 18:51:02 -1.4 C 3.82 g/m*3 -1.4 C 0 km/h
935 11-01-2010 19:03:02 -1.4 C 3.82 g/m*3 -1.4 C 0 km/h
936 11-01-2010 19:15:01 -1.4 C 3.82 g/m*3 -1.4 C 0 km/h
937 11-01-2010 19:27:01 -1.3 C 3.85 g/m*3 -1.3 C 0 km/h
938 11-01-2010 19:39:02 -1.4 C 3.82 g/m*3 -1.4 C 0 km/h
939 11-01-2010 19:51:02 -1.3 C 3.85 g/m*3 -1.3 C 0 km/h
940 11-01-2010 20:03:02 -1.3 C 3.85 g/m*3 -1.3 C 0 km/h
941 11-01-2010 20:15:01 -1.3 C 3.85 g/m*3 -1.3 C 0 km/h
942 11-01-2010 20:27:01 -1.3 C 3.85 g/m*3 -1.3 C 0 km/h
943 11-01-2010 20:39:02 -1.3 C 3.85 g/m*3 -1.3 C 0 km/h
944 11-01-2010 20:51:02 -1.3 C 3.85 g/m*3 -1.3 C 0 km/h
945 11-01-2010 21:03:02 -1.3 C 3.85 g/m*3 -1.3 C 0 km/h
946 11-01-2010 21:15:02 -1.3 C 3.81 g/m*3 -1.3 C 0 km/h
947 11-01-2010 21:27:02 -1.3 C 3.81 g/m*3 -1.3 C 0 km/h
948 11-01-2010 21:39:02 -1.3 C 3.81 g/m*3 -1.3 C 0 km/h
949 11-01-2010 21:51:02 -1.3 C 3.81 g/m*3 -1.3 C 0 km/h
950 11-01-2010 22:03:02 -1.3 C 3.81 g/m*3 -1.3 C 0 km/h
Sensor: Nr:Datum:Temp:Abs-Feuchte:Windchill:Wind:
Aussen-T/F 951 11-01-2010 22:15:02 -1.3 C 3.81 g/m*3 -1.3 C 0 km/h
952 11-01-2010 22:27:02 -1.2 C 3.83 g/m*3 -1.2 C 0 km/h
953 11-01-2010 22:40:04 -1.2 C 3.83 g/m*3 -1.2 C 0 km/h
954 11-01-2010 22:52:04 -1.1 C 3.86 g/m*3 -1.1 C 0 km/h
955 11-01-2010 23:04:04 -1.1 C 3.86 g/m*3 -1.1 C 0 km/h
956 11-01-2010 23:16:04 -1.2 C 3.83 g/m*3 -1.2 C 0 km/h
957 11-01-2010 23:28:04 -1.2 C 3.83 g/m*3 -1.2 C 0 km/h
958 11-01-2010 23:40:04 -1.2 C 3.83 g/m*3 -1.2 C 0 km/h
959 11-01-2010 23:52:04 -1.3 C 3.76 g/m*3 -1.3 C 0 km/h
960 12-01-2010 00:04:04 -1.3 C 3.76 g/m*3 -1.3 C 0 km/h
961 12-01-2010 00:16:04 -1.3 C 3.76 g/m*3 -1.3 C 0 km/h
962 12-01-2010 00:28:04 -1.3 C 3.76 g/m*3 -1.3 C 0 km/h
963 12-01-2010 00:40:04 -1.3 C 3.72 g/m*3 -1.3 C 0 km/h
964 12-01-2010 00:52:04 -1.3 C 3.72 g/m*3 -1.3 C 0 km/h
965 12-01-2010 01:04:04 -1.3 C 3.72 g/m*3 -1.3 C 0 km/h
966 12-01-2010 01:16:04 -1.3 C 3.67 g/m*3 -1.3 C 0 km/h
967 12-01-2010 01:28:05 -1.3 C 3.67 g/m*3 -1.3 C 0 km/h
968 12-01-2010 01:40:05 -1.3 C 3.67 g/m*3 -1.3 C 0 km/h
969 12-01-2010 01:52:05 -1.3 C 3.67 g/m*3 -1.3 C 0 km/h
970 12-01-2010 02:04:05 -1.3 C 3.67 g/m*3 -1.3 C 0 km/h
971 12-01-2010 02:16:05 -1.4 C 3.65 g/m*3 -1.4 C 0 km/h
972 12-01-2010 02:28:05 -1.4 C 3.65 g/m*3 -1.4 C 0 km/h
973 12-01-2010 02:40:05 -1.3 C 3.67 g/m*3 -1.3 C 0 km/h
974 12-01-2010 02:52:05 -1.4 C 3.65 g/m*3 -1.4 C 0 km/h
975 12-01-2010 03:04:05 -1.4 C 3.65 g/m*3 -1.4 C 0 km/h
Sensor: Nr:Datum:Temp:Abs-Feuchte:Windchill:Wind:
Aussen-T/F 976 12-01-2010 03:16:05 -1.4 C 3.65 g/m*3 -1.4 C 0 km/h
977 12-01-2010 03:28:05 -1.5 C 3.62 g/m*3 -1.5 C 0 km/h
978 12-01-2010 03:40:05 -1.5 C 3.62 g/m*3 -1.5 C 0 km/h
979 12-01-2010 03:52:05 -1.6 C 3.64 g/m*3 -1.6 C 0 km/h
980 12-01-2010 04:04:05 -1.6 C 3.64 g/m*3 -1.6 C 0 km/h
981 12-01-2010 04:16:05 -1.6 C 3.64 g/m*3 -1.6 C 0 km/h
982 12-01-2010 04:28:05 -1.8 C 3.59 g/m*3 -1.8 C 0 km/h
983 12-01-2010 04:40:05 -1.8 C 3.63 g/m*3 -1.8 C 0 km/h
984 12-01-2010 04:52:05 -1.8 C 3.63 g/m*3 -1.8 C 0 km/h
985 12-01-2010 05:04:05 -1.9 C 3.61 g/m*3 -1.9 C 0 km/h
986 12-01-2010 05:16:05 -1.9 C 3.61 g/m*3 -1.9 C 0 km/h
987 12-01-2010 05:28:05 -1.9 C 3.61 g/m*3 -1.9 C 0 km/h
988 12-01-2010 05:40:06 -2 C 3.58 g/m*3 -2 C 0 km/h
989 12-01-2010 05:52:06 -2 C 3.58 g/m*3 -2 C 0 km/h
990 12-01-2010 06:04:06 -2 C 3.58 g/m*3 -2 C 0 km/h
991 12-01-2010 06:16:06 -2 C 3.58 g/m*3 -2 C 0 km/h
992 12-01-2010 06:28:06 -2.1 C 3.56 g/m*3 -2.1 C 0 km/h
993 12-01-2010 06:40:06 -2.1 C 3.56 g/m*3 -2.1 C 0 km/h
994 12-01-2010 06:52:03 -2.1 C 3.56 g/m*3 -2.1 C 0 km/h
995 12-01-2010 07:04:02 -2.1 C 3.56 g/m*3 -2.1 C 0 km/h
996 12-01-2010 07:16:02 -2.2 C 3.49 g/m*3 -2.2 C 0 km/h
997 12-01-2010 07:28:02 -2.2 C 3.49 g/m*3 -2.2 C 0 km/h
998 12-01-2010 07:40:02 -2.2 C 3.45 g/m*3 -2.2 C 0 km/h
999 12-01-2010 07:52:02 -2.3 C 3.43 g/m*3 -2.3 C 0 km/h
1000 12-01-2010 08:04:02 -2.4 C 3.36 g/m*3 -2.4 C 0 km/h
Sensor: Nr:Datum:Temp:Abs-Feuchte:Windchill:Wind:
Aussen-T/F 1001 12-01-2010 08:16:02 -2.3 C 3.38 g/m*3 -2.3 C 0 km/h
1002 12-01-2010 08:28:02 -2.4 C 3.36 g/m*3 -2.4 C 0 km/h
1003 12-01-2010 08:40:01 -2.4 C 3.36 g/m*3 -2.4 C 0 km/h
1004 12-01-2010 08:52:02 -2.4 C 3.36 g/m*3 -2.4 C 0 km/h
1005 12-01-2010 09:04:01 -2.3 C 3.34 g/m*3 -2.3 C 0 km/h
1006 12-01-2010 09:16:01 -2.3 C 3.34 g/m*3 -2.3 C 0 km/h
1007 12-01-2010 09:28:01 -2.1 C 3.35 g/m*3 -2.1 C 0 km/h
1008 12-01-2010 09:40:02 -2.1 C 3.31 g/m*3 -2.1 C 0 km/h
1009 12-01-2010 09:52:02 -2.1 C 3.26 g/m*3 -2.1 C 0 km/h
1010 12-01-2010 10:04:01 -1.9 C 3.31 g/m*3 -1.9 C 0 km/h
1011 12-01-2010 10:16:02 -1.8 C 3.29 g/m*3 -1.8 C 0 km/h
1012 12-01-2010 10:28:02 -1.7 C 3.31 g/m*3 -1.7 C 0 km/h
1013 12-01-2010 10:40:02 -1.6 C 3.29 g/m*3 -1.6 C 0 km/h
1014 12-01-2010 10:52:01 -1.4 C 3.34 g/m*3 -1.4 C 0 km/h
1015 12-01-2010 11:04:02 -1.3 C 3.32 g/m*3 -1.3 C 0 km/h
1016 12-01-2010 11:16:01 -1.3 C 3.28 g/m*3 -1.3 C 0 km/h
1017 12-01-2010 11:28:01 -1.1 C 3.32 g/m*3 -1.1 C 0 km/h
1018 12-01-2010 11:40:02 -1 C 3.35 g/m*3 -1 C 0 km/h
1019 12-01-2010 11:52:02 -1 C 3.35 g/m*3 -1 C 0 km/h
1020 12-01-2010 12:04:02 -1 C 3.3 g/m*3 -1 C 0 km/h
1021 12-01-2010 12:16:01 -1 C 3.3 g/m*3 -1 C 0 km/h
1022 12-01-2010 12:28:01 -1 C 3.3 g/m*3 -1 C 0 km/h
1023 12-01-2010 12:40:02 -1.2 C 3.21 g/m*3 -1.2 C 0 km/h
1024 12-01-2010 12:52:02 -1.2 C 3.25 g/m*3 -1.2 C 0 km/h
1025 12-01-2010 13:04:02 -1.2 C 3.21 g/m*3 -1.2 C 0 km/h
Sensor: Nr:Datum:Temp:Abs-Feuchte:Windchill:Wind:
Aussen-T/F 1026 12-01-2010 13:16:01 -1.2 C 3.21 g/m*3 -1.2 C 0 km/h
1027 12-01-2010 13:28:01 -1.2 C 3.21 g/m*3 -1.2 C 0 km/h
1028 12-01-2010 13:40:02 -1.2 C 3.21 g/m*3 -1.2 C 0 km/h
1029 12-01-2010 13:52:02 -1.2 C 3.25 g/m*3 -1.2 C 0 km/h
1030 12-01-2010 14:04:02 -1.2 C 3.25 g/m*3 -1.2 C 0 km/h
1031 12-01-2010 14:16:02 -1 C 3.3 g/m*3 -1 C 0 km/h
1032 12-01-2010 14:28:02 -1.1 C 3.28 g/m*3 -1.1 C 0 km/h
1033 12-01-2010 14:40:02 -1 C 3.3 g/m*3 -1 C 0 km/h
1034 12-01-2010 14:52:02 -1.2 C 3.25 g/m*3 -1.2 C 0 km/h
1035 12-01-2010 15:04:02 -1.3 C 3.28 g/m*3 -1.3 C 0 km/h
1036 12-01-2010 15:16:02 -1.4 C 3.3 g/m*3 -1.4 C 0 km/h
1037 12-01-2010 15:28:02 -1.4 C 3.3 g/m*3 -1.4 C 0 km/h
1038 12-01-2010 15:40:02 -1.3 C 3.36 g/m*3 -1.3 C 0 km/h
1039 12-01-2010 15:52:02 -1.4 C 3.34 g/m*3 -1.4 C 0 km/h
1040 12-01-2010 16:04:02 -1.3 C 3.36 g/m*3 -1.3 C 0 km/h
1041 12-01-2010 16:16:02 -1.5 C 3.36 g/m*3 -1.5 C 0 km/h
1042 12-01-2010 16:28:02 -1.6 C 3.34 g/m*3 -1.6 C 0 km/h
1043 12-01-2010 16:40:01 -1.7 C 3.31 g/m*3 -1.7 C 0 km/h
1044 12-01-2010 16:52:02 -1.8 C 3.33 g/m*3 -1.8 C 0 km/h
1045 12-01-2010 17:04:01 -1.9 C 3.31 g/m*3 -1.9 C 0 km/h
1046 12-01-2010 17:16:02 -1.9 C 3.31 g/m*3 -1.9 C 0 km/h
1047 12-01-2010 17:28:02 -1.9 C 3.31 g/m*3 -1.9 C 0 km/h
1048 12-01-2010 17:40:02 -1.9 C 3.31 g/m*3 -1.9 C 0 km/h
1049 12-01-2010 17:52:02 -1.9 C 3.31 g/m*3 -1.9 C 0 km/h
1050 12-01-2010 18:04:02 -1.9 C 3.35 g/m*3 -1.9 C 0 km/h
Sensor: Nr:Datum:Temp:Abs-Feuchte:Windchill:Wind:
Aussen-T/F 1051 12-01-2010 18:16:02 -1.8 C 3.38 g/m*3 -1.8 C 0 km/h
1052 12-01-2010 18:28:02 -1.8 C 3.33 g/m*3 -1.8 C 0 km/h
1053 12-01-2010 18:40:03 -1.8 C 3.33 g/m*3 -1.8 C 0 km/h
1054 12-01-2010 18:52:02 -1.8 C 3.33 g/m*3 -1.8 C 0 km/h
1055 12-01-2010 19:04:02 -1.9 C 3.27 g/m*3 -1.9 C 0 km/h
1056 12-01-2010 19:16:02 -1.9 C 3.27 g/m*3 -1.9 C 0 km/h
1057 12-01-2010 19:28:02 -1.9 C 3.27 g/m*3 -1.9 C 0 km/h
1058 12-01-2010 19:40:02 -2 C 3.2 g/m*3 -2 C 0 km/h
1059 12-01-2010 19:52:02 -2 C 3.2 g/m*3 -2 C 0 km/h
1060 12-01-2010 20:04:02 -2 C 3.2 g/m*3 -2 C 0 km/h
1061 12-01-2010 20:16:02 -1.9 C 3.27 g/m*3 -1.9 C 0 km/h
1062 12-01-2010 20:28:02 -1.9 C 3.27 g/m*3 -1.9 C 0 km/h
1063 12-01-2010 20:40:02 -1.9 C 3.27 g/m*3 -1.9 C 0 km/h
1064 12-01-2010 20:52:02 -1.8 C 3.25 g/m*3 -1.8 C 0 km/h
1065 12-01-2010 21:04:02 -1.7 C 3.27 g/m*3 -1.7 C 0 km/h
1066 12-01-2010 21:16:02 -1.7 C 3.27 g/m*3 -1.7 C 0 km/h
1067 12-01-2010 21:28:02 -1.7 C 3.27 g/m*3 -1.7 C 0 km/h
1068 12-01-2010 21:40:02 -1.6 C 3.29 g/m*3 -1.6 C 0 km/h
1069 12-01-2010 21:53:01 -1.7 C 3.27 g/m*3 -1.7 C 0 km/h
1070 12-01-2010 22:05:01 -1.7 C 3.27 g/m*3 -1.7 C 0 km/h
1071 12-01-2010 22:17:01 -1.7 C 3.23 g/m*3 -1.7 C 0 km/h
1072 12-01-2010 22:29:01 -1.6 C 3.25 g/m*3 -1.6 C 0 km/h
1073 12-01-2010 22:41:01 -1.7 C 3.19 g/m*3 -1.7 C 0 km/h
1074 12-01-2010 22:53:01 -1.8 C 3.16 g/m*3 -1.8 C 0 km/h
1075 12-01-2010 23:05:01 -1.8 C 3.16 g/m*3 -1.8 C 0 km/h
Sensor: Nr:Datum:Temp:Abs-Feuchte:Windchill:Wind:
Aussen-T/F 1076 12-01-2010 23:17:01 -1.9 C 3.14 g/m*3 -1.9 C 0 km/h
1077 12-01-2010 23:29:01 -1.8 C 3.21 g/m*3 -1.8 C 0 km/h
1078 12-01-2010 23:41:01 -1.8 C 3.21 g/m*3 -1.8 C 0 km/h
1079 12-01-2010 23:53:01 -1.7 C 3.23 g/m*3 -1.7 C 0 km/h
1080 13-01-2010 00:05:01 -1.7 C 3.19 g/m*3 -1.7 C 0 km/h
1081 13-01-2010 00:17:02 -1.7 C 3.19 g/m*3 -1.7 C 0 km/h
1082 13-01-2010 00:29:02 -1.7 C 3.19 g/m*3 -1.7 C 0 km/h
1083 13-01-2010 00:41:02 -1.8 C 3.16 g/m*3 -1.8 C 0 km/h
1084 13-01-2010 00:53:02 -2 C 3.16 g/m*3 -2 C 0 km/h
1085 13-01-2010 01:05:02 -2.1 C 3.14 g/m*3 -2.1 C 0 km/h
1086 13-01-2010 01:17:02 -2.5 C 3.05 g/m*3 -2.5 C 0 km/h
1087 13-01-2010 01:29:02 -2.8 C 3.03 g/m*3 -2.8 C 0 km/h
1088 13-01-2010 01:41:02 -2.7 C 3.09 g/m*3 -2.7 C 0 km/h
1089 13-01-2010 01:53:02 -2.6 C 3.11 g/m*3 -2.6 C 0 km/h
1090 13-01-2010 02:05:02 -2.7 C 3.13 g/m*3 -2.7 C 0 km/h
1091 13-01-2010 02:17:02 -2.7 C 3.13 g/m*3 -2.7 C 0 km/h
1092 13-01-2010 02:29:02 -2.8 C 3.11 g/m*3 -2.8 C 0 km/h
1093 13-01-2010 02:41:02 -2.9 C 3.09 g/m*3 -2.9 C 0 km/h
1094 13-01-2010 02:53:02 -2.9 C 3.09 g/m*3 -2.9 C 0 km/h
1095 13-01-2010 03:05:02 -2.9 C 3.13 g/m*3 -2.9 C 0 km/h
1096 13-01-2010 03:17:02 -2.9 C 3.13 g/m*3 -2.9 C 0 km/h
1097 13-01-2010 03:29:02 -3.2 C 3.06 g/m*3 -3.2 C 0 km/h
1098 13-01-2010 03:41:02 -3.5 C 2.96 g/m*3 -3.5 C 0 km/h
1099 13-01-2010 03:53:02 -3.4 C 3.02 g/m*3 -3.4 C 0 km/h
1100 13-01-2010 04:05:02 -3.2 C 3.1 g/m*3 -3.2 C 0 km/h
Sensor: Nr:Datum:Temp:Abs-Feuchte:Windchill:Wind:
Aussen-T/F 1101 13-01-2010 04:17:02 -3.1 C 3.12 g/m*3 -3.1 C 0 km/h
1102 13-01-2010 04:29:02 -3 C 3.1 g/m*3 -3 C 0 km/h
1103 13-01-2010 04:41:03 -2.9 C 3.09 g/m*3 -2.9 C 0 km/h
1104 13-01-2010 04:53:03 -3.1 C 3 g/m*3 -3.1 C 0 km/h
1105 13-01-2010 05:05:03 -3.1 C 3 g/m*3 -3.1 C 0 km/h
1106 13-01-2010 05:17:03 -2.9 C 3.05 g/m*3 -2.9 C 0 km/h
1107 13-01-2010 05:29:03 -3 C 3.02 g/m*3 -3 C 0 km/h
1108 13-01-2010 05:41:03 -2.9 C 3.01 g/m*3 -2.9 C 0 km/h
1109 13-01-2010 05:53:03 -2.9 C 3.01 g/m*3 -2.9 C 0 km/h
1110 13-01-2010 06:05:03 -2.8 C 2.99 g/m*3 -2.8 C 0 km/h
1111 13-01-2010 06:17:03 -2.7 C 3.01 g/m*3 -2.7 C 0 km/h
1112 13-01-2010 06:29:03 -2.7 C 2.93 g/m*3 -2.7 C 0 km/h
1113 13-01-2010 06:41:03 -2.8 C 2.95 g/m*3 -2.8 C 0 km/h
1114 13-01-2010 06:53:03 -2.8 C 2.91 g/m*3 -2.8 C 0 km/h
1115 13-01-2010 07:05:02 -2.9 C 2.89 g/m*3 -2.9 C 0 km/h
1116 13-01-2010 07:17:01 -2.9 C 2.89 g/m*3 -2.9 C 0 km/h
1117 13-01-2010 07:29:01 -2.8 C 2.91 g/m*3 -2.8 C 0 km/h
1118 13-01-2010 07:41:02 -3 C 2.83 g/m*3 -3 C 0 km/h
1119 13-01-2010 07:53:01 -3 C 2.87 g/m*3 -3 C 0 km/h
1120 13-01-2010 08:05:02 -3.1 C 2.81 g/m*3 -3.1 C 0 km/h
1121 13-01-2010 08:17:01 -3.2 C 2.79 g/m*3 -3.2 C 0 km/h
1122 13-01-2010 08:29:01 -3.2 C 2.75 g/m*3 -3.2 C 0 km/h
1123 13-01-2010 08:41:02 -3.1 C 2.77 g/m*3 -3.1 C 0 km/h
1124 13-01-2010 08:53:01 -3 C 2.79 g/m*3 -3 C 0 km/h
1125 13-01-2010 09:05:02 -2.9 C 2.77 g/m*3 -2.9 C 0 km/h
Sensor: Nr:Datum:Temp:Abs-Feuchte:Windchill:Wind:
Aussen-T/F 1126 13-01-2010 09:17:02 -3 C 2.71 g/m*3 -3 C 0 km/h
1127 13-01-2010 09:29:02 -2.9 C 2.73 g/m*3 -2.9 C 0 km/h
1128 13-01-2010 09:41:02 -3 C 2.71 g/m*3 -3 C 0 km/h
1129 13-01-2010 09:53:02 -3 C 2.67 g/m*3 -3 C 0 km/h
1130 13-01-2010 10:05:01 -2.9 C 2.65 g/m*3 -2.9 C 0 km/h
1131 13-01-2010 10:17:02 -2.6 C 2.71 g/m*3 -2.6 C 0 km/h
1132 13-01-2010 10:29:03 -2.5 C 2.65 g/m*3 -2.5 C 0 km/h
1133 13-01-2010 10:41:01 -2.3 C 2.68 g/m*3 -2.3 C 0 km/h
1134 13-01-2010 10:53:02 -2.1 C 2.68 g/m*3 -2.1 C 0 km/h
1135 13-01-2010 11:05:01 -2 C 2.61 g/m*3 -2 C 0 km/h
1136 13-01-2010 11:17:01 -2 C 2.61 g/m*3 -2 C 0 km/h
1137 13-01-2010 11:29:01 -1.8 C 2.69 g/m*3 -1.8 C 0 km/h
1138 13-01-2010 11:41:02 -1.6 C 2.73 g/m*3 -1.6 C 0 km/h
1139 13-01-2010 11:53:02 -1.9 C 2.59 g/m*3 -1.9 C 0 km/h
1140 13-01-2010 12:05:01 -1.6 C 2.69 g/m*3 -1.6 C 0 km/h
1141 13-01-2010 12:17:02 -1.2 C 2.72 g/m*3 -1.2 C 0 km/h
1142 13-01-2010 12:29:02 -1.1 C 2.74 g/m*3 -1.1 C 0 km/h
1143 13-01-2010 12:41:02 -1 C 2.76 g/m*3 -1 C 0 km/h
1144 13-01-2010 12:53:01 -0.9 C 2.78 g/m*3 -0.9 C 0 km/h
1145 13-01-2010 13:05:02 -0.7 C 2.82 g/m*3 -0.7 C 0 km/h
1146 13-01-2010 13:17:01 -0.8 C 2.84 g/m*3 -0.8 C 0 km/h
1147 13-01-2010 13:29:01 -1.3 C 2.79 g/m*3 -1.3 C 0 km/h
1148 13-01-2010 13:41:02 -1.3 C 2.97 g/m*3 -1.3 C 0 km/h
1149 13-01-2010 13:53:02 -1.2 C 3.08 g/m*3 -1.2 C 0 km/h
1150 13-01-2010 14:05:02 -1.2 C 3.08 g/m*3 -1.2 C 0 km/h
Sensor: Nr:Datum:Temp:Abs-Feuchte:Windchill:Wind:
Aussen-T/F 1151 13-01-2010 14:17:01 -1.2 C 3.08 g/m*3 -1.2 C 0 km/h
1152 13-01-2010 14:29:01 -1.4 C 3.03 g/m*3 -1.4 C 0 km/h
1153 13-01-2010 14:41:02 -1.6 C 2.99 g/m*3 -1.6 C 0 km/h
1154 13-01-2010 14:53:02 -1.6 C 3.03 g/m*3 -1.6 C 0 km/h
1155 13-01-2010 15:05:02 -1.5 C 3.06 g/m*3 -1.5 C 0 km/h
1156 13-01-2010 15:17:02 -1.4 C 3.12 g/m*3 -1.4 C 0 km/h
1157 13-01-2010 15:29:02 -1.6 C 2.99 g/m*3 -1.6 C 0 km/h
1158 13-01-2010 15:41:02 -1.7 C 3.01 g/m*3 -1.7 C 0 km/h
1159 13-01-2010 15:53:02 -1.8 C 3.04 g/m*3 -1.8 C 0 km/h
1160 13-01-2010 16:05:02 -1.8 C 3.04 g/m*3 -1.8 C 0 km/h
1161 13-01-2010 16:17:03 -1.8 C 3.08 g/m*3 -1.8 C 0 km/h
1162 13-01-2010 16:29:03 -1.9 C 3.01 g/m*3 -1.9 C 0 km/h
1163 13-01-2010 16:41:02 -2 C 2.99 g/m*3 -2 C 0 km/h
1164 13-01-2010 16:53:02 -2.1 C 3.01 g/m*3 -2.1 C 0 km/h
1165 13-01-2010 17:05:02 -2.2 C 2.95 g/m*3 -2.2 C 0 km/h
1166 13-01-2010 17:17:02 -2.3 C 2.93 g/m*3 -2.3 C 0 km/h
1167 13-01-2010 17:29:02 -2.2 C 2.99 g/m*3 -2.2 C 0 km/h
1168 13-01-2010 17:41:02 -2.3 C 2.93 g/m*3 -2.3 C 0 km/h
1169 13-01-2010 17:53:02 -2.3 C 2.97 g/m*3 -2.3 C 0 km/h
1170 13-01-2010 18:05:02 -2.2 C 2.95 g/m*3 -2.2 C 0 km/h
1171 13-01-2010 18:17:02 -2.3 C 2.93 g/m*3 -2.3 C 0 km/h
1172 13-01-2010 18:29:02 -2.3 C 2.93 g/m*3 -2.3 C 0 km/h
1173 13-01-2010 18:41:02 -2.4 C 2.91 g/m*3 -2.4 C 0 km/h
1174 13-01-2010 18:53:02 -2.4 C 2.95 g/m*3 -2.4 C 0 km/h
1175 13-01-2010 19:05:01 -2.3 C 2.97 g/m*3 -2.3 C 0 km/h
Sensor: Nr:Datum:Temp:Abs-Feuchte:Windchill:Wind:
Aussen-T/F 1176 13-01-2010 19:17:02 -2.3 C 2.97 g/m*3 -2.3 C 0 km/h
1177 13-01-2010 19:29:02 -2.3 C 2.97 g/m*3 -2.3 C 0 km/h
1178 13-01-2010 19:41:01 -2.3 C 2.97 g/m*3 -2.3 C 0 km/h
1179 13-01-2010 19:53:02 -2.3 C 3.01 g/m*3 -2.3 C 0 km/h
1180 13-01-2010 20:05:01 -2.2 C 3.03 g/m*3 -2.2 C 0 km/h
1181 13-01-2010 20:17:01 -2.1 C 3.06 g/m*3 -2.1 C 0 km/h
1182 13-01-2010 20:29:01 -2.2 C 3.03 g/m*3 -2.2 C 0 km/h
1183 13-01-2010 20:41:02 -2.1 C 3.06 g/m*3 -2.1 C 0 km/h
1184 13-01-2010 20:53:02 -2 C 3.12 g/m*3 -2 C 0 km/h
1185 13-01-2010 21:05:02 -2 C 3.12 g/m*3 -2 C 0 km/h
1186 13-01-2010 21:17:02 -1.9 C 3.18 g/m*3 -1.9 C 0 km/h
1187 13-01-2010 21:29:02 -1.9 C 3.18 g/m*3 -1.9 C 0 km/h
1188 13-01-2010 21:41:02 -1.8 C 3.21 g/m*3 -1.8 C 0 km/h
1189 13-01-2010 21:53:02 -1.8 C 3.21 g/m*3 -1.8 C 0 km/h
1190 13-01-2010 22:05:01 -1.7 C 3.27 g/m*3 -1.7 C 0 km/h
1191 13-01-2010 22:18:03 -1.6 C 3.29 g/m*3 -1.6 C 0 km/h
1192 13-01-2010 22:30:03 -1.7 C 3.27 g/m*3 -1.7 C 0 km/h
1193 13-01-2010 22:42:03 -1.6 C 3.34 g/m*3 -1.6 C 0 km/h
1194 13-01-2010 22:54:03 -1.6 C 3.34 g/m*3 -1.6 C 0 km/h
1195 13-01-2010 23:06:03 -1.6 C 3.34 g/m*3 -1.6 C 0 km/h
1196 13-01-2010 23:18:03 -1.5 C 3.36 g/m*3 -1.5 C 0 km/h
1197 13-01-2010 23:30:03 -1.5 C 3.36 g/m*3 -1.5 C 0 km/h
1198 13-01-2010 23:42:03 -1.5 C 3.36 g/m*3 -1.5 C 0 km/h
1199 13-01-2010 23:54:03 -1.4 C 3.43 g/m*3 -1.4 C 0 km/h
1200 14-01-2010 00:06:03 -1.4 C 3.43 g/m*3 -1.4 C 0 km/h
Sensor: Nr:Datum:Temp:Abs-Feuchte:Windchill:Wind:
Aussen-T/F 1201 14-01-2010 00:18:04 -1.4 C 3.43 g/m*3 -1.4 C 0 km/h
1202 14-01-2010 00:30:04 -1.4 C 3.43 g/m*3 -1.4 C 0 km/h
1203 14-01-2010 00:42:04 -1.5 C 3.41 g/m*3 -1.5 C 0 km/h
1204 14-01-2010 00:54:04 -1.4 C 3.47 g/m*3 -1.4 C 0 km/h
1205 14-01-2010 01:06:04 -1.4 C 3.47 g/m*3 -1.4 C 0 km/h
1206 14-01-2010 01:18:04 -1.5 C 3.45 g/m*3 -1.5 C 0 km/h
1207 14-01-2010 01:30:04 -1.4 C 3.52 g/m*3 -1.4 C 0 km/h
1208 14-01-2010 01:42:04 -1.3 C 3.54 g/m*3 -1.3 C 0 km/h
1209 14-01-2010 01:54:04 -1.4 C 3.52 g/m*3 -1.4 C 0 km/h
1210 14-01-2010 02:06:04 -1.4 C 3.52 g/m*3 -1.4 C 0 km/h
1211 14-01-2010 02:18:04 -1.2 C 3.61 g/m*3 -1.2 C 0 km/h
1212 14-01-2010 02:30:04 -1.1 C 3.64 g/m*3 -1.1 C 0 km/h
1213 14-01-2010 02:42:04 -1.2 C 3.61 g/m*3 -1.2 C 0 km/h
1214 14-01-2010 02:54:04 -1.1 C 3.64 g/m*3 -1.1 C 0 km/h
1215 14-01-2010 03:06:04 -1 C 3.71 g/m*3 -1 C 0 km/h
1216 14-01-2010 03:18:04 -1 C 3.71 g/m*3 -1 C 0 km/h
1217 14-01-2010 03:30:04 -1.1 C 3.68 g/m*3 -1.1 C 0 km/h
1218 14-01-2010 03:42:04 -1 C 3.71 g/m*3 -1 C 0 km/h
1219 14-01-2010 03:54:04 -1.1 C 3.68 g/m*3 -1.1 C 0 km/h
1220 14-01-2010 04:06:04 -0.9 C 3.78 g/m*3 -0.9 C 0 km/h
1221 14-01-2010 04:18:04 -0.9 C 3.78 g/m*3 -0.9 C 0 km/h
1222 14-01-2010 04:30:04 -0.9 C 3.78 g/m*3 -0.9 C 0 km/h
1223 14-01-2010 04:42:05 -0.9 C 3.78 g/m*3 -0.9 C 0 km/h
1224 14-01-2010 04:54:05 -0.8 C 3.8 g/m*3 -0.8 C 0 km/h
1225 14-01-2010 05:06:05 -0.7 C 3.83 g/m*3 -0.7 C 0 km/h
Sensor: Nr:Datum:Temp:Abs-Feuchte:Windchill:Wind:
Aussen-T/F 1226 14-01-2010 05:18:05 -0.8 C 3.8 g/m*3 -0.8 C 0 km/h
1227 14-01-2010 05:30:05 -0.7 C 3.83 g/m*3 -0.7 C 0 km/h
1228 14-01-2010 05:42:05 -0.7 C 3.83 g/m*3 -0.7 C 0 km/h
1229 14-01-2010 05:54:05 -0.6 C 3.9 g/m*3 -0.6 C 0 km/h
1230 14-01-2010 06:06:05 -0.6 C 3.86 g/m*3 -0.6 C 0 km/h
1231 14-01-2010 06:18:05 -0.6 C 3.9 g/m*3 -0.6 C 0 km/h
1232 14-01-2010 06:30:05 -0.8 C 3.8 g/m*3 -0.8 C 0 km/h
1233 14-01-2010 06:42:05 -0.6 C 3.9 g/m*3 -0.6 C 0 km/h
1234 14-01-2010 06:54:05 -0.6 C 3.9 g/m*3 -0.6 C 0 km/h
1235 14-01-2010 07:06:05 -0.6 C 3.9 g/m*3 -0.6 C 0 km/h
1236 14-01-2010 07:18:03 -0.8 C 3.85 g/m*3 -0.8 C 0 km/h
1237 14-01-2010 07:30:03 -0.6 C 3.9 g/m*3 -0.6 C 0 km/h
1238 14-01-2010 07:42:02 -0.6 C 3.9 g/m*3 -0.6 C 0 km/h
1239 14-01-2010 07:54:01 -0.6 C 3.9 g/m*3 -0.6 C 0 km/h
1240 14-01-2010 08:06:01 -0.6 C 3.9 g/m*3 -0.6 C 0 km/h
1241 14-01-2010 08:18:02 -0.6 C 3.86 g/m*3 -0.6 C 0 km/h
1242 14-01-2010 08:30:02 -0.6 C 3.86 g/m*3 -0.6 C 0 km/h
1243 14-01-2010 08:42:01 -0.8 C 3.8 g/m*3 -0.8 C 0 km/h
1244 14-01-2010 08:54:02 -1.1 C 3.73 g/m*3 -1.1 C 0 km/h
1245 14-01-2010 09:06:01 -1.1 C 3.73 g/m*3 -1.1 C 0 km/h
1246 14-01-2010 09:18:02 -0.9 C 3.82 g/m*3 -0.9 C 0 km/h
1247 14-01-2010 09:30:02 -0.6 C 3.9 g/m*3 -0.6 C 0 km/h
1248 14-01-2010 09:42:01 -0.4 C 3.96 g/m*3 -0.4 C 0 km/h
1249 14-01-2010 09:54:02 0 C 4.07 g/m*3 0 C 0 km/h
1250 14-01-2010 10:06:02 0.3 C 4.11 g/m*3 0.3 C 0 km/h
Sensor: Nr:Datum:Temp:Abs-Feuchte:Windchill:Wind:
Aussen-T/F 1251 14-01-2010 10:18:02 0.6 C 4.19 g/m*3 0.6 C 0 km/h
1252 14-01-2010 10:30:02 0.7 C 4.12 g/m*3 0.7 C 0 km/h
1253 14-01-2010 10:42:02 0.8 C 4.1 g/m*3 0.8 C 0 km/h
1254 14-01-2010 10:54:01 1 C 4.05 g/m*3 1 C 0 km/h
1255 14-01-2010 11:06:02 1.3 C 4.08 g/m*3 1.3 C 0 km/h
1256 14-01-2010 11:18:01 1.4 C 4.11 g/m*3 1.4 C 0 km/h
1257 14-01-2010 11:30:01 1.5 C 4.08 g/m*3 1.5 C 0 km/h
1258 14-01-2010 11:42:02 1.6 C 4.11 g/m*3 1.6 C 0 km/h
1259 14-01-2010 11:54:02 1.7 C 4.08 g/m*3 1.7 C 0 km/h
1260 14-01-2010 12:06:02 1.7 C 4.08 g/m*3 1.7 C 0 km/h
1261 14-01-2010 12:18:01 1.8 C 4.11 g/m*3 1.8 C 0 km/h
1262 14-01-2010 12:30:01 2 C 4.11 g/m*3 2 C 0 km/h
1263 14-01-2010 12:42:02 2 C 4.06 g/m*3 2 C 0 km/h
1264 14-01-2010 12:54:02 1.9 C 4.08 g/m*3 1.9 C 0 km/h
1265 14-01-2010 13:06:02 2 C 4.06 g/m*3 2 C 0 km/h
1266 14-01-2010 13:18:02 2 C 4.06 g/m*3 2 C 0 km/h
1267 14-01-2010 13:30:02 2 C 4.06 g/m*3 2 C 0 km/h
1268 14-01-2010 13:42:02 2 C 4.06 g/m*3 2 C 0 km/h
1269 14-01-2010 13:54:02 2 C 4.06 g/m*3 2 C 0 km/h
1270 14-01-2010 14:06:02 2 C 4.06 g/m*3 2 C 0 km/h
1271 14-01-2010 14:18:02 2.1 C 4.08 g/m*3 2.1 C 0 km/h
1272 14-01-2010 14:30:02 2.1 C 4.08 g/m*3 2.1 C 0 km/h
1273 14-01-2010 14:42:02 2 C 4.06 g/m*3 2 C 0 km/h
1274 14-01-2010 14:54:02 2 C 4.06 g/m*3 2 C 0 km/h
1275 14-01-2010 15:06:02 2 C 4.11 g/m*3 2 C 0 km/h
Sensor: Nr:Datum:Temp:Abs-Feuchte:Windchill:Wind:
Aussen-T/F 1276 14-01-2010 15:18:03 1.8 C 4.11 g/m*3 1.8 C 0 km/h
1277 14-01-2010 15:30:03 1.7 C 4.14 g/m*3 1.7 C 0 km/h
1278 14-01-2010 15:42:02 1.6 C 4.11 g/m*3 1.6 C 0 km/h
1279 14-01-2010 15:54:02 1.6 C 4.16 g/m*3 1.6 C 0 km/h
1280 14-01-2010 16:06:02 1.5 C 4.14 g/m*3 1.5 C 0 km/h
1281 14-01-2010 16:18:03 1.5 C 4.19 g/m*3 1.5 C 0 km/h
1282 14-01-2010 16:30:03 1.4 C 4.16 g/m*3 1.4 C 0 km/h
1283 14-01-2010 16:42:02 1.4 C 4.16 g/m*3 1.4 C 0 km/h
1284 14-01-2010 16:54:03 1.3 C 4.19 g/m*3 1.3 C 0 km/h
1285 14-01-2010 17:06:02 1.2 C 4.16 g/m*3 1.2 C 0 km/h
1286 14-01-2010 17:18:02 1.2 C 4.21 g/m*3 1.2 C 0 km/h
1287 14-01-2010 17:30:02 1.2 C 4.21 g/m*3 1.2 C 0 km/h
1288 14-01-2010 17:42:02 1.2 C 4.21 g/m*3 1.2 C 0 km/h
1289 14-01-2010 17:54:01 1.1 C 4.18 g/m*3 1.1 C 0 km/h
1290 14-01-2010 18:06:02 1.1 C 4.23 g/m*3 1.1 C 0 km/h
1291 14-01-2010 18:18:01 1.1 C 4.23 g/m*3 1.1 C 0 km/h
1292 14-01-2010 18:30:01 1.1 C 4.23 g/m*3 1.1 C 0 km/h
1293 14-01-2010 18:42:02 1.1 C 4.23 g/m*3 1.1 C 0 km/h
1294 14-01-2010 18:54:02 1 C 4.2 g/m*3 1 C 0 km/h
1295 14-01-2010 19:06:02 1 C 4.2 g/m*3 1 C 0 km/h
1296 14-01-2010 19:18:02 0.9 C 4.23 g/m*3 0.9 C 0 km/h
1297 14-01-2010 19:30:02 1 C 4.2 g/m*3 1 C 0 km/h
1298 14-01-2010 19:42:02 1 C 4.2 g/m*3 1 C 0 km/h
1299 14-01-2010 19:54:02 1 C 4.26 g/m*3 1 C 0 km/h
1300 14-01-2010 20:06:03 1 C 4.26 g/m*3 1 C 0 km/h
Sensor: Nr:Datum:Temp:Abs-Feuchte:Windchill:Wind:
Aussen-T/F 1301 14-01-2010 20:18:02 1 C 4.26 g/m*3 1 C 0 km/h
1302 14-01-2010 20:30:02 1 C 4.26 g/m*3 1 C 0 km/h
1303 14-01-2010 20:42:02 0.9 C 4.23 g/m*3 0.9 C 0 km/h
1304 14-01-2010 20:54:01 0.9 C 4.28 g/m*3 0.9 C 0 km/h
1305 14-01-2010 21:06:02 0.9 C 4.28 g/m*3 0.9 C 0 km/h
1306 14-01-2010 21:18:01 0.8 C 4.25 g/m*3 0.8 C 0 km/h
1307 14-01-2010 21:30:01 0.8 C 4.25 g/m*3 0.8 C 0 km/h
1308 14-01-2010 21:42:02 0.8 C 4.25 g/m*3 0.8 C 0 km/h
1309 14-01-2010 21:54:02 0.8 C 4.25 g/m*3 0.8 C 0 km/h
1310 14-01-2010 22:06:02 0.8 C 4.25 g/m*3 0.8 C 0 km/h
1311 14-01-2010 22:19:04 0.8 C 4.2 g/m*3 0.8 C 0 km/h
1312 14-01-2010 22:31:04 0.9 C 4.23 g/m*3 0.9 C 0 km/h
1313 14-01-2010 22:43:04 0.8 C 4.2 g/m*3 0.8 C 0 km/h
1314 14-01-2010 22:55:04 0.7 C 4.12 g/m*3 0.7 C 0 km/h
1315 14-01-2010 23:07:04 0.7 C 4.12 g/m*3 0.7 C 0 km/h
1316 14-01-2010 23:19:05 0.7 C 4.07 g/m*3 0.7 C 0 km/h
1317 14-01-2010 23:31:05 0.6 C 4.09 g/m*3 0.6 C 0 km/h
1318 14-01-2010 23:43:05 0.7 C 4.12 g/m*3 0.7 C 0 km/h
1319 14-01-2010 23:55:05 0.7 C 4.12 g/m*3 0.7 C 0 km/h
1320 15-01-2010 00:07:05 0.7 C 4.12 g/m*3 0.7 C 0 km/h
1321 15-01-2010 00:19:05 0.6 C 4.09 g/m*3 0.6 C 0 km/h
1322 15-01-2010 00:31:05 0.6 C 4.09 g/m*3 0.6 C 0 km/h
1323 15-01-2010 00:43:05 0.6 C 4.09 g/m*3 0.6 C 0 km/h
1324 15-01-2010 00:55:05 0.6 C 4.14 g/m*3 0.6 C 0 km/h
1325 15-01-2010 01:07:05 0.7 C 4.17 g/m*3 0.7 C 0 km/h
Sensor: Nr:Datum:Temp:Abs-Feuchte:Windchill:Wind:
Aussen-T/F 1326 15-01-2010 01:19:05 0.7 C 4.17 g/m*3 0.7 C 0 km/h
1327 15-01-2010 01:31:05 0.6 C 4.14 g/m*3 0.6 C 0 km/h
1328 15-01-2010 01:43:05 0.6 C 4.14 g/m*3 0.6 C 0 km/h
1329 15-01-2010 01:55:05 0.6 C 4.14 g/m*3 0.6 C 0 km/h
1330 15-01-2010 02:07:05 0.7 C 4.22 g/m*3 0.7 C 0 km/h
1331 15-01-2010 02:19:05 0.7 C 4.22 g/m*3 0.7 C 0 km/h
1332 15-01-2010 02:31:05 0.7 C 4.22 g/m*3 0.7 C 0 km/h
1333 15-01-2010 02:43:05 0.7 C 4.17 g/m*3 0.7 C 0 km/h
1334 15-01-2010 02:55:05 0.7 C 4.22 g/m*3 0.7 C 0 km/h
1335 15-01-2010 03:07:05 0.6 C 4.14 g/m*3 0.6 C 0 km/h
1336 15-01-2010 03:19:05 0.6 C 4.19 g/m*3 0.6 C 0 km/h
1337 15-01-2010 03:31:05 0.6 C 4.19 g/m*3 0.6 C 0 km/h
1338 15-01-2010 03:43:06 0.7 C 4.22 g/m*3 0.7 C 0 km/h
1339 15-01-2010 03:55:06 0.7 C 4.17 g/m*3 0.7 C 0 km/h
1340 15-01-2010 04:07:06 0.7 C 4.17 g/m*3 0.7 C 0 km/h
1341 15-01-2010 04:19:06 0.7 C 4.17 g/m*3 0.7 C 0 km/h
1342 15-01-2010 04:31:06 0.7 C 4.12 g/m*3 0.7 C 0 km/h
1343 15-01-2010 04:43:06 0.7 C 4.12 g/m*3 0.7 C 0 km/h
1344 15-01-2010 04:55:06 0.7 C 4.07 g/m*3 0.7 C 0 km/h
1345 15-01-2010 05:07:06 0.7 C 4.12 g/m*3 0.7 C 0 km/h
1346 15-01-2010 05:19:06 0.6 C 4.09 g/m*3 0.6 C 0 km/h
1347 15-01-2010 05:31:06 0.7 C 4.12 g/m*3 0.7 C 0 km/h
1348 15-01-2010 05:43:06 0.7 C 4.12 g/m*3 0.7 C 0 km/h
1349 15-01-2010 05:55:01 0.7 C 4.12 g/m*3 0.7 C 0 km/h
1350 15-01-2010 06:07:02 0.7 C 4.12 g/m*3 0.7 C 0 km/h
Sensor: Nr:Datum:Temp:Abs-Feuchte:Windchill:Wind:
Aussen-T/F 1351 15-01-2010 06:19:01 0.6 C 4.09 g/m*3 0.6 C 0 km/h
1352 15-01-2010 06:31:01 0.6 C 4.14 g/m*3 0.6 C 0 km/h
1353 15-01-2010 06:43:01 0.6 C 4.14 g/m*3 0.6 C 0 km/h
1354 15-01-2010 06:55:01 0.6 C 4.14 g/m*3 0.6 C 0 km/h
1355 15-01-2010 07:07:02 0.7 C 4.17 g/m*3 0.7 C 0 km/h
1356 15-01-2010 07:19:01 0.7 C 4.12 g/m*3 0.7 C 0 km/h
1357 15-01-2010 07:31:02 0.7 C 4.12 g/m*3 0.7 C 0 km/h
1358 15-01-2010 07:43:02 0.7 C 4.12 g/m*3 0.7 C 0 km/h
1359 15-01-2010 07:55:01 0.7 C 4.12 g/m*3 0.7 C 0 km/h
1360 15-01-2010 08:07:02 0.6 C 4.09 g/m*3 0.6 C 0 km/h
1361 15-01-2010 08:19:02 0.6 C 4.09 g/m*3 0.6 C 0 km/h
1362 15-01-2010 08:31:01 0.6 C 4.09 g/m*3 0.6 C 0 km/h
1363 15-01-2010 08:43:01 0.6 C 4.09 g/m*3 0.6 C 0 km/h
1364 15-01-2010 08:55:01 0.6 C 4.09 g/m*3 0.6 C 0 km/h
1365 15-01-2010 09:07:02 0.6 C 4.04 g/m*3 0.6 C 0 km/h
1366 15-01-2010 09:19:02 0.6 C 4.04 g/m*3 0.6 C 0 km/h
1367 15-01-2010 09:31:01 0.6 C 4.04 g/m*3 0.6 C 0 km/h
1368 15-01-2010 09:43:01 0.7 C 4.07 g/m*3 0.7 C 0 km/h
1369 15-01-2010 09:55:02 0.7 C 4.07 g/m*3 0.7 C 0 km/h
1370 15-01-2010 10:07:03 0.7 C 4.07 g/m*3 0.7 C 0 km/h
1371 15-01-2010 10:19:01 0.9 C 4.12 g/m*3 0.9 C 0 km/h
1372 15-01-2010 10:31:02 0.9 C 4.07 g/m*3 0.9 C 0 km/h
1373 15-01-2010 10:43:02 0.9 C 4.02 g/m*3 0.9 C 0 km/h
1374 15-01-2010 10:55:02 0.9 C 4.02 g/m*3 0.9 C 0 km/h
1375 15-01-2010 11:07:02 0.8 C 3.99 g/m*3 0.8 C 0 km/h
Sensor: Nr:Datum:Temp:Abs-Feuchte:Windchill:Wind:
Aussen-T/F 1376 15-01-2010 11:19:01 0.7 C 3.92 g/m*3 0.7 C 0 km/h
1377 15-01-2010 11:31:01 0.8 C 3.94 g/m*3 0.8 C 0 km/h
1378 15-01-2010 11:43:01 0.8 C 3.94 g/m*3 0.8 C 0 km/h
1379 15-01-2010 11:55:01 0.9 C 3.97 g/m*3 0.9 C 0 km/h
1380 15-01-2010 12:07:01 1 C 3.94 g/m*3 1 C 0 km/h
1381 15-01-2010 12:19:01 1.1 C 3.92 g/m*3 1.1 C 0 km/h
1382 15-01-2010 12:31:01 1.1 C 3.87 g/m*3 1.1 C 0 km/h
1383 15-01-2010 12:43:01 1.1 C 3.87 g/m*3 1.1 C 0 km/h
1384 15-01-2010 12:55:02 1.1 C 3.87 g/m*3 1.1 C 0 km/h
1385 15-01-2010 13:07:02 1.2 C 3.95 g/m*3 1.2 C 0 km/h
1386 15-01-2010 13:19:02 1.3 C 3.92 g/m*3 1.3 C 0 km/h
1387 15-01-2010 13:31:01 1.5 C 3.97 g/m*3 1.5 C 0 km/h
1388 15-01-2010 13:43:01 1.6 C 3.95 g/m*3 1.6 C 0 km/h
1389 15-01-2010 13:55:03 1.8 C 4 g/m*3 1.8 C 0 km/h
1390 15-01-2010 14:07:02 2.2 C 4.06 g/m*3 2.2 C 0 km/h
1391 15-01-2010 14:19:03 2.3 C 4.03 g/m*3 2.3 C 0 km/h
1392 15-01-2010 14:31:02 2.1 C 3.92 g/m*3 2.1 C 0 km/h
1393 15-01-2010 14:43:02 2 C 3.89 g/m*3 2 C 0 km/h
1394 15-01-2010 14:55:03 2.2 C 3.94 g/m*3 2.2 C 0 km/h
1395 15-01-2010 15:07:02 2.2 C 3.94 g/m*3 2.2 C 0 km/h
1396 15-01-2010 15:19:02 2.1 C 3.92 g/m*3 2.1 C 0 km/h
1397 15-01-2010 15:31:03 1.8 C 3.95 g/m*3 1.8 C 0 km/h
1398 15-01-2010 15:43:03 1.8 C 4 g/m*3 1.8 C 0 km/h
1399 15-01-2010 15:55:02 1.8 C 4 g/m*3 1.8 C 0 km/h
1400 15-01-2010 16:07:03 1.8 C 4 g/m*3 1.8 C 0 km/h
Sensor: Nr:Datum:Temp:Abs-Feuchte:Windchill:Wind:
Aussen-T/F 1401 15-01-2010 16:19:02 1.6 C 4 g/m*3 1.6 C 0 km/h
1402 15-01-2010 16:31:02 1.4 C 4 g/m*3 1.4 C 0 km/h
1403 15-01-2010 16:43:02 1.3 C 4.03 g/m*3 1.3 C 0 km/h
1404 15-01-2010 16:55:02 1.2 C 4 g/m*3 1.2 C 0 km/h
1405 15-01-2010 17:07:02 1.2 C 4.05 g/m*3 1.2 C 0 km/h
1406 15-01-2010 17:19:01 1.1 C 4.08 g/m*3 1.1 C 0 km/h
1407 15-01-2010 17:31:02 1 C 4.05 g/m*3 1 C 0 km/h
1408 15-01-2010 17:43:02 1 C 4.05 g/m*3 1 C 0 km/h
1409 15-01-2010 17:55:02 0.9 C 4.07 g/m*3 0.9 C 0 km/h
1410 15-01-2010 18:07:02 0.9 C 4.12 g/m*3 0.9 C 0 km/h
1411 15-01-2010 18:19:01 0.8 C 4.1 g/m*3 0.8 C 0 km/h
1412 15-01-2010 18:31:02 0.8 C 4.1 g/m*3 0.8 C 0 km/h
1413 15-01-2010 18:43:02 0.8 C 4.1 g/m*3 0.8 C 0 km/h
1414 15-01-2010 18:55:02 0.7 C 4.07 g/m*3 0.7 C 0 km/h
1415 15-01-2010 19:07:02 0.7 C 4.12 g/m*3 0.7 C 0 km/h
1416 15-01-2010 19:19:02 0.6 C 4.09 g/m*3 0.6 C 0 km/h
1417 15-01-2010 19:31:02 0.6 C 4.14 g/m*3 0.6 C 0 km/h
1418 15-01-2010 19:43:02 0.6 C 4.14 g/m*3 0.6 C 0 km/h
1419 15-01-2010 19:55:02 0.6 C 4.14 g/m*3 0.6 C 0 km/h
1420 15-01-2010 20:07:02 0.7 C 4.17 g/m*3 0.7 C 0 km/h
1421 15-01-2010 20:19:02 0.7 C 4.17 g/m*3 0.7 C 0 km/h
1422 15-01-2010 20:31:02 0.7 C 4.17 g/m*3 0.7 C 0 km/h
1423 15-01-2010 20:43:02 0.7 C 4.17 g/m*3 0.7 C 0 km/h
1424 15-01-2010 20:55:02 0.5 C 4.06 g/m*3 0.5 C 0 km/h
1425 15-01-2010 21:07:02 0.5 C 4.11 g/m*3 0.5 C 0 km/h
Sensor: Nr:Datum:Temp:Abs-Feuchte:Windchill:Wind:
Aussen-T/F 1426 15-01-2010 21:19:02 0.6 C 4.14 g/m*3 0.6 C 0 km/h
1427 15-01-2010 21:31:01 0.6 C 4.09 g/m*3 0.6 C 0 km/h
1428 15-01-2010 21:43:01 0.6 C 4.09 g/m*3 0.6 C 0 km/h
1429 15-01-2010 21:55:02 0.5 C 4.06 g/m*3 0.5 C 0 km/h
1430 15-01-2010 22:07:01 0.5 C 4.06 g/m*3 0.5 C 0 km/h
1431 15-01-2010 22:20:03 0.5 C 4.06 g/m*3 0.5 C 0 km/h
1432 15-01-2010 22:32:03 0.5 C 4.06 g/m*3 0.5 C 0 km/h
1433 15-01-2010 22:44:03 0.5 C 4.06 g/m*3 0.5 C 0 km/h
1434 15-01-2010 22:56:03 0.5 C 4.06 g/m*3 0.5 C 0 km/h
1435 15-01-2010 23:08:03 0.4 C 3.98 g/m*3 0.4 C 0 km/h
1436 15-01-2010 23:20:03 0.5 C 4.06 g/m*3 0.5 C 0 km/h
1437 15-01-2010 23:32:03 0.5 C 4.06 g/m*3 0.5 C 0 km/h
1438 15-01-2010 23:44:03 0.5 C 4.01 g/m*3 0.5 C 0 km/h
1439 15-01-2010 23:56:03 0.4 C 3.98 g/m*3 0.4 C 0 km/h
1440 16-01-2010 00:08:03 0.4 C 3.93 g/m*3 0.4 C 0 km/h
1441 16-01-2010 00:20:03 0.4 C 3.93 g/m*3 0.4 C 0 km/h
1442 16-01-2010 00:32:03 0.5 C 3.96 g/m*3 0.5 C 0 km/h
1443 16-01-2010 00:44:03 0.4 C 3.93 g/m*3 0.4 C 0 km/h
1444 16-01-2010 00:56:03 0.3 C 3.91 g/m*3 0.3 C 0 km/h
1445 16-01-2010 01:08:03 0.3 C 3.91 g/m*3 0.3 C 0 km/h
1446 16-01-2010 01:20:03 0.2 C 3.88 g/m*3 0.2 C 0 km/h
1447 16-01-2010 01:32:04 0.2 C 3.88 g/m*3 0.2 C 0 km/h
1448 16-01-2010 01:44:04 0.2 C 3.88 g/m*3 0.2 C 0 km/h
1449 16-01-2010 01:56:04 0.2 C 3.88 g/m*3 0.2 C 0 km/h
1450 16-01-2010 02:08:04 0.1 C 3.85 g/m*3 0.1 C 0 km/h
Sensor: Nr:Datum:Temp:Abs-Feuchte:Windchill:Wind:
Aussen-T/F 1451 16-01-2010 02:20:04 0.1 C 3.85 g/m*3 0.1 C 0 km/h
1452 16-01-2010 02:32:04 0.1 C 3.85 g/m*3 0.1 C 0 km/h
1453 16-01-2010 02:44:04 0.1 C 3.85 g/m*3 0.1 C 0 km/h
1454 16-01-2010 02:56:04 0.1 C 3.85 g/m*3 0.1 C 0 km/h
1455 16-01-2010 03:08:04 0.1 C 3.85 g/m*3 0.1 C 0 km/h
1456 16-01-2010 03:20:04 0.1 C 3.85 g/m*3 0.1 C 0 km/h
1457 16-01-2010 03:32:04 0.2 C 3.88 g/m*3 0.2 C 0 km/h
1458 16-01-2010 03:44:04 0.2 C 3.88 g/m*3 0.2 C 0 km/h
1459 16-01-2010 03:56:04 0.2 C 3.83 g/m*3 0.2 C 0 km/h
1460 16-01-2010 04:08:04 0.2 C 3.83 g/m*3 0.2 C 0 km/h
1461 16-01-2010 04:20:04 0.2 C 3.83 g/m*3 0.2 C 0 km/h
1462 16-01-2010 04:32:04 0.2 C 3.83 g/m*3 0.2 C 0 km/h
1463 16-01-2010 04:44:04 0.2 C 3.83 g/m*3 0.2 C 0 km/h
1464 16-01-2010 04:56:04 0.1 C 3.81 g/m*3 0.1 C 0 km/h
1465 16-01-2010 05:08:04 0.1 C 3.81 g/m*3 0.1 C 0 km/h
1466 16-01-2010 05:20:04 0 C 3.78 g/m*3 0 C 0 km/h
1467 16-01-2010 05:32:04 -0.1 C 3.8 g/m*3 -0.1 C 0 km/h
1468 16-01-2010 05:44:04 -0.2 C 3.78 g/m*3 -0.2 C 0 km/h
1469 16-01-2010 05:56:05 -0.2 C 3.82 g/m*3 -0.2 C 0 km/h
1470 16-01-2010 06:08:05 -0.3 C 3.8 g/m*3 -0.3 C 0 km/h
1471 16-01-2010 06:20:05 -0.3 C 3.8 g/m*3 -0.3 C 0 km/h
1472 16-01-2010 06:32:05 -0.4 C 3.77 g/m*3 -0.4 C 0 km/h
1473 16-01-2010 06:44:05 -0.4 C 3.82 g/m*3 -0.4 C 0 km/h
1474 16-01-2010 06:56:05 -0.4 C 3.82 g/m*3 -0.4 C 0 km/h
1475 16-01-2010 07:08:05 -0.4 C 3.82 g/m*3 -0.4 C 0 km/h
Sensor: Nr:Datum:Temp:Abs-Feuchte:Windchill:Wind:
Aussen-T/F 1476 16-01-2010 07:20:05 -0.5 C 3.79 g/m*3 -0.5 C 0 km/h
1477 16-01-2010 07:32:05 -0.6 C 3.72 g/m*3 -0.6 C 0 km/h
1478 16-01-2010 07:44:05 -0.7 C 3.69 g/m*3 -0.7 C 0 km/h
1479 16-01-2010 07:56:05 -0.7 C 3.74 g/m*3 -0.7 C 0 km/h
1480 16-01-2010 08:08:05 -0.7 C 3.69 g/m*3 -0.7 C 0 km/h
1481 16-01-2010 08:20:03 -0.7 C 3.69 g/m*3 -0.7 C 0 km/h
1482 16-01-2010 08:32:02 -0.7 C 3.69 g/m*3 -0.7 C 0 km/h
1483 16-01-2010 08:44:02 -0.6 C 3.72 g/m*3 -0.6 C 0 km/h
1484 16-01-2010 08:56:01 -0.5 C 3.74 g/m*3 -0.5 C 0 km/h
1485 16-01-2010 09:08:02 -0.5 C 3.74 g/m*3 -0.5 C 0 km/h
1486 16-01-2010 09:20:02 -0.4 C 3.77 g/m*3 -0.4 C 0 km/h
1487 16-01-2010 09:32:01 -0.4 C 3.77 g/m*3 -0.4 C 0 km/h
1488 16-01-2010 09:44:01 -0.4 C 3.72 g/m*3 -0.4 C 0 km/h
1489 16-01-2010 09:56:02 -0.3 C 3.75 g/m*3 -0.3 C 0 km/h
1490 16-01-2010 10:08:01 -0.5 C 3.6 g/m*3 -0.5 C 0 km/h
1491 16-01-2010 10:20:01 -0.5 C 3.6 g/m*3 -0.5 C 0 km/h
1492 16-01-2010 10:32:02 -0.3 C 3.65 g/m*3 -0.3 C 0 km/h
1493 16-01-2010 10:44:02 -0.7 C 3.51 g/m*3 -0.7 C 0 km/h
1494 16-01-2010 10:56:02 -0.5 C 3.56 g/m*3 -0.5 C 0 km/h
1495 16-01-2010 11:08:01 -0.5 C 3.51 g/m*3 -0.5 C 0 km/h
1496 16-01-2010 11:20:02 -0.3 C 3.56 g/m*3 -0.3 C 0 km/h
1497 16-01-2010 11:32:02 -0.2 C 3.58 g/m*3 -0.2 C 0 km/h
1498 16-01-2010 11:44:02 -0.1 C 3.56 g/m*3 -0.1 C 0 km/h
1499 16-01-2010 11:56:01 -0.2 C 3.49 g/m*3 -0.2 C 0 km/h
1500 16-01-2010 12:08:02 -0.2 C 3.49 g/m*3 -0.2 C 0 km/h
Sensor: Nr:Datum:Temp:Abs-Feuchte:Windchill:Wind:
Aussen-T/F 1501 16-01-2010 12:20:01 -0.1 C 3.51 g/m*3 -0.1 C 0 km/h
1502 16-01-2010 12:32:01 -0.3 C 3.46 g/m*3 -0.3 C 0 km/h
1503 16-01-2010 12:44:02 -0.2 C 3.49 g/m*3 -0.2 C 0 km/h
1504 16-01-2010 12:56:02 0 C 3.54 g/m*3 0 C 0 km/h
1505 16-01-2010 13:08:02 -0.1 C 3.51 g/m*3 -0.1 C 0 km/h
1506 16-01-2010 13:20:01 0.1 C 3.56 g/m*3 0.1 C 0 km/h
1507 16-01-2010 13:32:02 0 C 3.54 g/m*3 0 C 0 km/h
1508 16-01-2010 13:44:02 -0.2 C 3.44 g/m*3 -0.2 C 0 km/h
1509 16-01-2010 13:56:01 -0.5 C 3.42 g/m*3 -0.5 C 0 km/h
1510 16-01-2010 14:08:02 -0.4 C 3.49 g/m*3 -0.4 C 0 km/h
1511 16-01-2010 14:20:01 -0.5 C 3.46 g/m*3 -0.5 C 0 km/h
1512 16-01-2010 14:32:02 -0.4 C 3.53 g/m*3 -0.4 C 0 km/h
1513 16-01-2010 14:44:02 -0.3 C 3.56 g/m*3 -0.3 C 0 km/h
1514 16-01-2010 14:56:01 -0.2 C 3.58 g/m*3 -0.2 C 0 km/h
1515 16-01-2010 15:08:02 -0.2 C 3.58 g/m*3 -0.2 C 0 km/h
1516 16-01-2010 15:20:02 -0.2 C 3.58 g/m*3 -0.2 C 0 km/h
1517 16-01-2010 15:32:01 -0.2 C 3.58 g/m*3 -0.2 C 0 km/h
1518 16-01-2010 15:44:01 0 C 3.63 g/m*3 0 C 0 km/h
1519 16-01-2010 15:56:01 0 C 3.63 g/m*3 0 C 0 km/h
1520 16-01-2010 16:08:02 -0.2 C 3.63 g/m*3 -0.2 C 0 km/h
1521 16-01-2010 16:20:02 -0.2 C 3.63 g/m*3 -0.2 C 0 km/h
1522 16-01-2010 16:32:01 -0.2 C 3.63 g/m*3 -0.2 C 0 km/h
1523 16-01-2010 16:44:01 -0.2 C 3.68 g/m*3 -0.2 C 0 km/h
1524 16-01-2010 16:56:02 -0.2 C 3.68 g/m*3 -0.2 C 0 km/h
1525 16-01-2010 17:08:01 -0.2 C 3.68 g/m*3 -0.2 C 0 km/h
Sensor: Nr:Datum:Temp:Abs-Feuchte:Windchill:Wind:
Aussen-T/F 1526 16-01-2010 17:20:02 -0.1 C 3.71 g/m*3 -0.1 C 0 km/h
1527 16-01-2010 17:32:01 -0.1 C 3.71 g/m*3 -0.1 C 0 km/h
1528 16-01-2010 17:44:01 -0.1 C 3.71 g/m*3 -0.1 C 0 km/h
1529 16-01-2010 17:56:02 0 C 3.73 g/m*3 0 C 0 km/h
1530 16-01-2010 18:08:01 0 C 3.73 g/m*3 0 C 0 km/h
1531 16-01-2010 18:20:02 0 C 3.73 g/m*3 0 C 0 km/h
1532 16-01-2010 18:32:01 0 C 3.73 g/m*3 0 C 0 km/h
1533 16-01-2010 18:44:01 0.1 C 3.71 g/m*3 0.1 C 0 km/h
1534 16-01-2010 18:56:02 0.1 C 3.76 g/m*3 0.1 C 0 km/h
1535 16-01-2010 19:08:02 0.2 C 3.73 g/m*3 0.2 C 0 km/h
1536 16-01-2010 19:20:02 0.2 C 3.73 g/m*3 0.2 C 0 km/h
1537 16-01-2010 19:32:02 0.2 C 3.73 g/m*3 0.2 C 0 km/h
1538 16-01-2010 19:44:02 0.2 C 3.73 g/m*3 0.2 C 0 km/h
1539 16-01-2010 19:56:02 0.2 C 3.78 g/m*3 0.2 C 0 km/h
1540 16-01-2010 20:08:01 0.2 C 3.78 g/m*3 0.2 C 0 km/h
1541 16-01-2010 20:20:02 0.1 C 3.71 g/m*3 0.1 C 0 km/h
1542 16-01-2010 20:32:02 0.1 C 3.71 g/m*3 0.1 C 0 km/h
1543 16-01-2010 20:44:02 0.1 C 3.71 g/m*3 0.1 C 0 km/h
1544 16-01-2010 20:56:02 0.1 C 3.76 g/m*3 0.1 C 0 km/h
1545 16-01-2010 21:08:03 0.1 C 3.71 g/m*3 0.1 C 0 km/h
1546 16-01-2010 21:20:02 0 C 3.78 g/m*3 0 C 0 km/h
1547 16-01-2010 21:32:02 -0.1 C 3.85 g/m*3 -0.1 C 0 km/h
1548 16-01-2010 21:44:02 -0.3 C 3.94 g/m*3 -0.3 C 0 km/h
1549 16-01-2010 21:56:01 -0.3 C 3.99 g/m*3 -0.3 C 0 km/h
1550 16-01-2010 22:08:02 -0.3 C 3.99 g/m*3 -0.3 C 0 km/h
Sensor: Nr:Datum:Temp:Abs-Feuchte:Windchill:Wind:
Aussen-T/F 1551 16-01-2010 22:20:01 -0.2 C 4.01 g/m*3 -0.2 C 0 km/h
1552 16-01-2010 22:32:33 -0.2 C 4.01 g/m*3 -0.2 C 0 km/h
1553 16-01-2010 22:44:33 -0.1 C 4.04 g/m*3 -0.1 C 0 km/h
1554 16-01-2010 22:56:33 -0.1 C 4.09 g/m*3 -0.1 C 0 km/h
1555 16-01-2010 23:08:34 -0.1 C 4.09 g/m*3 -0.1 C 0 km/h
1556 16-01-2010 23:20:34 -0.1 C 4.09 g/m*3 -0.1 C 0 km/h
1557 16-01-2010 23:32:34 -0.1 C 4.09 g/m*3 -0.1 C 0 km/h
1558 16-01-2010 23:44:34 0 C 4.12 g/m*3 0 C 0 km/h
1559 16-01-2010 23:56:34 0 C 4.17 g/m*3 0 C 0 km/h
1560 17-01-2010 00:08:34 0 C 4.17 g/m*3 0 C 0 km/h
1561 17-01-2010 00:20:34 0 C 4.17 g/m*3 0 C 0 km/h
1562 17-01-2010 00:32:34 0.2 C 4.27 g/m*3 0.2 C 0 km/h
1563 17-01-2010 00:44:34 0.2 C 4.32 g/m*3 0.2 C 0 km/h
1564 17-01-2010 00:56:34 0.2 C 4.32 g/m*3 0.2 C 0 km/h
1565 17-01-2010 01:08:34 0.3 C 4.4 g/m*3 0.3 C 0 km/h
1566 17-01-2010 01:20:34 0.3 C 4.4 g/m*3 0.3 C 0 km/h
1567 17-01-2010 01:32:34 0.3 C 4.45 g/m*3 0.3 C 0 km/h
1568 17-01-2010 01:44:34 0.4 C 4.48 g/m*3 0.4 C 0 km/h
1569 17-01-2010 01:56:34 0.4 C 4.53 g/m*3 0.4 C 0 km/h
1570 17-01-2010 02:08:34 0.4 C 4.53 g/m*3 0.4 C 0 km/h
1571 17-01-2010 02:20:34 0.5 C 4.56 g/m*3 0.5 C 0 km/h
1572 17-01-2010 02:32:34 0.5 C 4.56 g/m*3 0.5 C 0 km/h
1573 17-01-2010 02:44:34 0.6 C 4.65 g/m*3 0.6 C 0 km/h
1574 17-01-2010 02:56:34 0.6 C 4.65 g/m*3 0.6 C 0 km/h
1575 17-01-2010 03:08:34 0.6 C 4.65 g/m*3 0.6 C 0 km/h
Sensor: Nr:Datum:Temp:Abs-Feuchte:Windchill:Wind:
Aussen-T/F 1576 17-01-2010 03:20:35 0.5 C 4.61 g/m*3 0.5 C 0 km/h
1577 17-01-2010 03:32:35 0.6 C 4.7 g/m*3 0.6 C 0 km/h
1578 17-01-2010 03:44:35 0.7 C 4.73 g/m*3 0.7 C 0 km/h
1579 17-01-2010 03:56:35 0.7 C 4.73 g/m*3 0.7 C 0 km/h
1580 17-01-2010 04:08:35 0.9 C 4.79 g/m*3 0.9 C 0 km/h
1581 17-01-2010 04:20:35 0.9 C 4.85 g/m*3 0.9 C 0 km/h
1582 17-01-2010 04:32:35 0.9 C 4.85 g/m*3 0.9 C 0 km/h
1583 17-01-2010 04:44:35 1 C 4.83 g/m*3 1 C 0 km/h
1584 17-01-2010 04:56:35 1.1 C 4.91 g/m*3 1.1 C 0 km/h
1585 17-01-2010 05:08:35 1.2 C 4.95 g/m*3 1.2 C 0 km/h
1586 17-01-2010 05:20:35 1.2 C 4.95 g/m*3 1.2 C 0 km/h
1587 17-01-2010 05:32:35 1.1 C 4.91 g/m*3 1.1 C 0 km/h
1588 17-01-2010 05:44:35 1.1 C 4.91 g/m*3 1.1 C 0 km/h
1589 17-01-2010 05:56:35 1.1 C 4.91 g/m*3 1.1 C 0 km/h
1590 17-01-2010 06:08:35 1.1 C 4.91 g/m*3 1.1 C 0 km/h
1591 17-01-2010 06:20:35 1.1 C 4.91 g/m*3 1.1 C 0 km/h
1592 17-01-2010 06:32:35 1.1 C 4.91 g/m*3 1.1 C 0 km/h
1593 17-01-2010 06:44:35 1 C 4.93 g/m*3 1 C 0 km/h
1594 17-01-2010 06:56:35 1.1 C 4.96 g/m*3 1.1 C 0 km/h
1595 17-01-2010 07:08:35 1.1 C 4.96 g/m*3 1.1 C 0 km/h
1596 17-01-2010 07:20:35 1.2 C 5 g/m*3 1.2 C 0 km/h
1597 17-01-2010 07:32:36 1.2 C 5 g/m*3 1.2 C 0 km/h
1598 17-01-2010 07:44:36 1.2 C 5 g/m*3 1.2 C 0 km/h
1599 17-01-2010 07:56:01 1.2 C 5 g/m*3 1.2 C 0 km/h
1600 17-01-2010 08:08:01 1.3 C 5.03 g/m*3 1.3 C 0 km/h
Sensor: Nr:Datum:Temp:Abs-Feuchte:Windchill:Wind:
Aussen-T/F 1601 17-01-2010 08:20:01 1.2 C 5 g/m*3 1.2 C 0 km/h
1602 17-01-2010 08:32:02 1.2 C 5 g/m*3 1.2 C 0 km/h
1603 17-01-2010 08:44:02 1.4 C 5.07 g/m*3 1.4 C 0 km/h
1604 17-01-2010 08:56:01 1.4 C 5.07 g/m*3 1.4 C 0 km/h
1605 17-01-2010 09:08:02 1.4 C 5.07 g/m*3 1.4 C 0 km/h
1606 17-01-2010 09:20:01 1.4 C 5.07 g/m*3 1.4 C 0 km/h
1607 17-01-2010 09:32:01 1.5 C 5.1 g/m*3 1.5 C 0 km/h
1608 17-01-2010 09:44:02 1.5 C 5.1 g/m*3 1.5 C 0 km/h
1609 17-01-2010 09:56:01 1.6 C 5.14 g/m*3 1.6 C 0 km/h
1610 17-01-2010 10:08:01 1.7 C 5.17 g/m*3 1.7 C 0 km/h
1611 17-01-2010 10:20:01 1.8 C 5.21 g/m*3 1.8 C 0 km/h
1612 17-01-2010 10:32:02 2 C 5.28 g/m*3 2 C 0 km/h
1613 17-01-2010 10:44:02 2.1 C 5.31 g/m*3 2.1 C 0 km/h
1614 17-01-2010 10:56:01 2.1 C 5.31 g/m*3 2.1 C 0 km/h
1615 17-01-2010 11:08:02 2 C 5.28 g/m*3 2 C 0 km/h
1616 17-01-2010 11:20:01 2.1 C 5.31 g/m*3 2.1 C 0 km/h
1617 17-01-2010 11:32:01 2.3 C 5.39 g/m*3 2.3 C 0 km/h
1618 17-01-2010 11:44:02 2.4 C 5.42 g/m*3 2.4 C 0 km/h
1619 17-01-2010 11:56:01 2.4 C 5.42 g/m*3 2.4 C 0 km/h
1620 17-01-2010 12:08:02 2.5 C 5.46 g/m*3 2.5 C 0 km/h
1621 17-01-2010 12:20:01 3.2 C 5.72 g/m*3 3.2 C 0 km/h
1622 17-01-2010 12:32:01 3.5 C 5.84 g/m*3 3.5 C 0 km/h
1623 17-01-2010 12:44:01 3.5 C 5.84 g/m*3 3.5 C 0 km/h
1624 17-01-2010 12:56:01 3.6 C 5.88 g/m*3 3.6 C 0 km/h
1625 17-01-2010 13:08:01 3.5 C 5.84 g/m*3 3.5 C 0 km/h
Sensor: Nr:Datum:Temp:Abs-Feuchte:Windchill:Wind:
Aussen-T/F 1626 17-01-2010 13:20:01 3.3 C 5.76 g/m*3 3.3 C 0 km/h
1627 17-01-2010 13:32:01 3.2 C 5.72 g/m*3 3.2 C 0 km/h
1628 17-01-2010 13:44:01 3.3 C 5.76 g/m*3 3.3 C 0 km/h
1629 17-01-2010 13:56:01 3.3 C 5.76 g/m*3 3.3 C 0 km/h
1630 17-01-2010 14:08:01 3.3 C 5.76 g/m*3 3.3 C 0 km/h
1631 17-01-2010 14:20:02 3.6 C 5.88 g/m*3 3.6 C 0 km/h
1632 17-01-2010 14:32:01 4.2 C 6.12 g/m*3 4.2 C 0 km/h
1633 17-01-2010 14:44:01 4.2 C 6.12 g/m*3 4.2 C 0 km/h
1634 17-01-2010 14:56:01 4.2 C 6.12 g/m*3 4.2 C 0 km/h
1635 17-01-2010 15:08:01 4.3 C 6.16 g/m*3 4.3 C 0 km/h
1636 17-01-2010 15:20:02 4.3 C 6.1 g/m*3 4.3 C 0 km/h
1637 17-01-2010 15:32:01 4.8 C 6.04 g/m*3 4.8 C 0 km/h
1638 17-01-2010 15:44:01 4.8 C 5.7 g/m*3 4.8 C 0 km/h
1639 17-01-2010 15:56:02 4.7 C 5.46 g/m*3 4.7 C 0 km/h
1640 17-01-2010 16:08:01 4.3 C 5.32 g/m*3 4.3 C 0 km/h
1641 17-01-2010 16:20:02 4.2 C 5.35 g/m*3 4.2 C 0 km/h
1642 17-01-2010 16:32:01 4 C 5.28 g/m*3 4 C 0 km/h
1643 17-01-2010 16:44:01 3.4 C 5.13 g/m*3 3.4 C 0 km/h
1644 17-01-2010 16:56:02 3 C 5.05 g/m*3 3 C 0 km/h
1645 17-01-2010 17:08:01 2.8 C 5.1 g/m*3 2.8 C 0 km/h
1646 17-01-2010 17:20:01 2.8 C 5.22 g/m*3 2.8 C 0 km/h
1647 17-01-2010 17:32:02 3 C 5.23 g/m*3 3 C 0 km/h
1648 17-01-2010 17:44:02 3.1 C 5.27 g/m*3 3.1 C 0 km/h
1649 17-01-2010 17:56:02 3.1 C 5.21 g/m*3 3.1 C 0 km/h
1650 17-01-2010 18:08:01 2.9 C 5.14 g/m*3 2.9 C 0 km/h
Sensor: Nr:Datum:Temp:Abs-Feuchte:Windchill:Wind:
Aussen-T/F 1651 17-01-2010 18:20:01 2.7 C 5.07 g/m*3 2.7 C 0 km/h
1652 17-01-2010 18:32:02 2.9 C 5.14 g/m*3 2.9 C 0 km/h
1653 17-01-2010 18:44:02 3 C 5.05 g/m*3 3 C 0 km/h
1654 17-01-2010 18:56:01 2.8 C 4.99 g/m*3 2.8 C 0 km/h
1655 17-01-2010 19:08:02 2.6 C 4.98 g/m*3 2.6 C 0 km/h
1656 17-01-2010 19:20:01 2.7 C 5.07 g/m*3 2.7 C 0 km/h
1657 17-01-2010 19:32:02 2.6 C 4.98 g/m*3 2.6 C 0 km/h
1658 17-01-2010 19:44:02 2.6 C 5.03 g/m*3 2.6 C 0 km/h
1659 17-01-2010 19:56:01 2.5 C 5 g/m*3 2.5 C 0 km/h
1660 17-01-2010 20:08:02 2.4 C 5.02 g/m*3 2.4 C 0 km/h
1661 17-01-2010 20:20:02 2.2 C 4.96 g/m*3 2.2 C 0 km/h
1662 17-01-2010 20:32:01 2.1 C 4.92 g/m*3 2.1 C 0 km/h
1663 17-01-2010 20:44:01 2.1 C 4.98 g/m*3 2.1 C 0 km/h
1664 17-01-2010 20:56:01 2.1 C 4.98 g/m*3 2.1 C 0 km/h
1665 17-01-2010 21:08:02 2.2 C 5.07 g/m*3 2.2 C 0 km/h
1666 17-01-2010 21:20:01 2.2 C 5.01 g/m*3 2.2 C 0 km/h
1667 17-01-2010 21:32:01 2.3 C 5.05 g/m*3 2.3 C 0 km/h
1668 17-01-2010 21:44:02 2.2 C 5.01 g/m*3 2.2 C 0 km/h
1669 17-01-2010 21:56:01 2.2 C 5.01 g/m*3 2.2 C 0 km/h
1670 17-01-2010 22:09:05 2.2 C 5.01 g/m*3 2.2 C 0 km/h
1671 17-01-2010 22:21:05 2.4 C 5.08 g/m*3 2.4 C 0 km/h
1672 17-01-2010 22:33:05 2.5 C 5.12 g/m*3 2.5 C 0 km/h
1673 17-01-2010 22:45:05 2.8 C 5.22 g/m*3 2.8 C 0 km/h
1674 17-01-2010 22:57:06 3.1 C 5.21 g/m*3 3.1 C 0 km/h
1675 17-01-2010 23:09:06 3.2 C 5.24 g/m*3 3.2 C 0 km/h
Sensor: Nr:Datum:Temp:Abs-Feuchte:Windchill:Wind:
Aussen-T/F 1676 17-01-2010 23:21:06 3.2 C 5.12 g/m*3 3.2 C 0 km/h
1677 17-01-2010 23:33:06 3.2 C 5.12 g/m*3 3.2 C 0 km/h
1678 17-01-2010 23:45:06 3.1 C 5.09 g/m*3 3.1 C 0 km/h
1679 17-01-2010 23:57:06 3 C 5.05 g/m*3 3 C 0 km/h
1680 18-01-2010 00:09:06 3.1 C 5.15 g/m*3 3.1 C 0 km/h
1681 18-01-2010 00:21:06 3.1 C 5.15 g/m*3 3.1 C 0 km/h
1682 18-01-2010 00:33:06 3.1 C 5.09 g/m*3 3.1 C 0 km/h
1683 18-01-2010 00:45:06 3 C 5.11 g/m*3 3 C 0 km/h
1684 18-01-2010 00:57:06 2.9 C 5.2 g/m*3 2.9 C 0 km/h
1685 18-01-2010 01:09:06 2.7 C 5.19 g/m*3 2.7 C 0 km/h
1686 18-01-2010 01:21:06 2.7 C 5.24 g/m*3 2.7 C 0 km/h
1687 18-01-2010 01:33:06 2.7 C 5.3 g/m*3 2.7 C 0 km/h
1688 18-01-2010 01:45:06 2.7 C 5.36 g/m*3 2.7 C 0 km/h
1689 18-01-2010 01:57:06 2.7 C 5.36 g/m*3 2.7 C 0 km/h
1690 18-01-2010 02:09:06 2.7 C 5.36 g/m*3 2.7 C 0 km/h
1691 18-01-2010 02:21:06 2.6 C 5.32 g/m*3 2.6 C 0 km/h
1692 18-01-2010 02:33:06 2.6 C 5.32 g/m*3 2.6 C 0 km/h
1693 18-01-2010 02:45:06 2.5 C 5.35 g/m*3 2.5 C 0 km/h
1694 18-01-2010 02:57:06 2.4 C 5.31 g/m*3 2.4 C 0 km/h
1695 18-01-2010 03:09:07 2.4 C 5.31 g/m*3 2.4 C 0 km/h
1696 18-01-2010 03:21:07 2.5 C 5.35 g/m*3 2.5 C 0 km/h
1697 18-01-2010 03:33:07 2.6 C 5.38 g/m*3 2.6 C 0 km/h
1698 18-01-2010 03:45:07 2.6 C 5.38 g/m*3 2.6 C 0 km/h
1699 18-01-2010 03:57:07 2.8 C 5.46 g/m*3 2.8 C 0 km/h
1700 18-01-2010 04:09:07 2.8 C 5.46 g/m*3 2.8 C 0 km/h
Sensor: Nr:Datum:Temp:Abs-Feuchte:Windchill:Wind:
Aussen-T/F 1701 18-01-2010 04:21:07 2.8 C 5.46 g/m*3 2.8 C 0 km/h
1702 18-01-2010 04:33:07 2.8 C 5.4 g/m*3 2.8 C 0 km/h
1703 18-01-2010 04:45:07 2.9 C 5.43 g/m*3 2.9 C 0 km/h
1704 18-01-2010 04:57:07 2.8 C 5.34 g/m*3 2.8 C 0 km/h
1705 18-01-2010 05:09:07 3 C 5.35 g/m*3 3 C 0 km/h
1706 18-01-2010 05:21:07 3 C 5.29 g/m*3 3 C 0 km/h
1707 18-01-2010 05:33:07 3.1 C 5.33 g/m*3 3.1 C 0 km/h
1708 18-01-2010 05:45:07 3.1 C 5.27 g/m*3 3.1 C 0 km/h
1709 18-01-2010 05:57:07 3.1 C 5.21 g/m*3 3.1 C 0 km/h
1710 18-01-2010 06:09:07 3.2 C 5.24 g/m*3 3.2 C 0 km/h
1711 18-01-2010 06:21:07 3.1 C 5.21 g/m*3 3.1 C 0 km/h
1712 18-01-2010 06:33:07 3.2 C 5.24 g/m*3 3.2 C 0 km/h
1713 18-01-2010 06:45:07 3.1 C 5.21 g/m*3 3.1 C 0 km/h
1714 18-01-2010 06:57:07 3 C 5.17 g/m*3 3 C 0 km/h
1715 18-01-2010 07:09:07 3 C 5.17 g/m*3 3 C 0 km/h
1716 18-01-2010 07:21:05 2.8 C 5.16 g/m*3 2.8 C 0 km/h
1717 18-01-2010 07:33:05 3 C 5.23 g/m*3 3 C 0 km/h
1718 18-01-2010 07:45:02 3 C 5.23 g/m*3 3 C 0 km/h
1719 18-01-2010 07:57:02 3 C 5.23 g/m*3 3 C 0 km/h
1720 18-01-2010 08:09:02 3.1 C 5.27 g/m*3 3.1 C 0 km/h
1721 18-01-2010 08:21:02 3 C 5.17 g/m*3 3 C 0 km/h
1722 18-01-2010 08:33:02 3 C 5.17 g/m*3 3 C 0 km/h
1723 18-01-2010 08:45:02 3.1 C 5.21 g/m*3 3.1 C 0 km/h
1724 18-01-2010 08:57:02 3.2 C 5.24 g/m*3 3.2 C 0 km/h
1725 18-01-2010 09:09:02 3.2 C 5.18 g/m*3 3.2 C 0 km/h
Sensor: Nr:Datum:Temp:Abs-Feuchte:Windchill:Wind:
Aussen-T/F 1726 18-01-2010 09:21:01 3.2 C 5.18 g/m*3 3.2 C 0 km/h
1727 18-01-2010 09:33:02 3.4 C 5.25 g/m*3 3.4 C 0 km/h
1728 18-01-2010 09:45:02 3.5 C 5.29 g/m*3 3.5 C 0 km/h
1729 18-01-2010 09:57:02 3.7 C 5.3 g/m*3 3.7 C 0 km/h
1730 18-01-2010 10:09:02 4 C 5.34 g/m*3 4 C 0 km/h
1731 18-01-2010 10:21:02 4.1 C 5.31 g/m*3 4.1 C 0 km/h
1732 18-01-2010 10:33:02 4.2 C 5.28 g/m*3 4.2 C 0 km/h
1733 18-01-2010 10:45:02 4.2 C 5.22 g/m*3 4.2 C 0 km/h
1734 18-01-2010 10:57:02 4.1 C 5.18 g/m*3 4.1 C 0 km/h
1735 18-01-2010 11:09:02 4 C 5.15 g/m*3 4 C 0 km/h
1736 18-01-2010 11:21:02 3.9 C 5.24 g/m*3 3.9 C 0 km/h
1737 18-01-2010 11:33:02 3.9 C 5.24 g/m*3 3.9 C 0 km/h
1738 18-01-2010 11:45:01 4 C 5.21 g/m*3 4 C 0 km/h
1739 18-01-2010 11:57:01 4 C 5.21 g/m*3 4 C 0 km/h
1740 18-01-2010 12:09:01 4.3 C 5.25 g/m*3 4.3 C 0 km/h
1741 18-01-2010 12:21:02 4.4 C 5.16 g/m*3 4.4 C 0 km/h
1742 18-01-2010 12:33:01 4.6 C 5.23 g/m*3 4.6 C 0 km/h
1743 18-01-2010 12:45:02 4.6 C 5.16 g/m*3 4.6 C 0 km/h
1744 18-01-2010 12:57:02 4.6 C 5.16 g/m*3 4.6 C 0 km/h
1745 18-01-2010 13:09:01 4.5 C 5.06 g/m*3 4.5 C 0 km/h
1746 18-01-2010 13:21:02 4.6 C 5.1 g/m*3 4.6 C 0 km/h
1747 18-01-2010 13:33:01 4.6 C 4.96 g/m*3 4.6 C 0 km/h
1748 18-01-2010 13:45:02 4.9 C 5 g/m*3 4.9 C 0 km/h
1749 18-01-2010 13:57:02 5.2 C 4.96 g/m*3 5.2 C 0 km/h
1750 18-01-2010 14:09:02 5 C 4.82 g/m*3 5 C 0 km/h
Sensor: Nr:Datum:Temp:Abs-Feuchte:Windchill:Wind:
Aussen-T/F 1751 18-01-2010 14:21:02 5 C 4.82 g/m*3 5 C 0 km/h
1752 18-01-2010 14:33:02 5 C 4.76 g/m*3 5 C 0 km/h
1753 18-01-2010 14:45:02 4.7 C 4.8 g/m*3 4.7 C 0 km/h
1754 18-01-2010 14:57:02 4.6 C 4.76 g/m*3 4.6 C 0 km/h
1755 18-01-2010 15:09:01 4.5 C 4.8 g/m*3 4.5 C 0 km/h
1756 18-01-2010 15:21:02 4.6 C 4.83 g/m*3 4.6 C 0 km/h
1757 18-01-2010 15:33:02 4.8 C 4.83 g/m*3 4.8 C 0 km/h
1758 18-01-2010 15:45:02 4.7 C 4.8 g/m*3 4.7 C 0 km/h
1759 18-01-2010 15:57:03 4.6 C 4.83 g/m*3 4.6 C 0 km/h
1760 18-01-2010 16:09:01 4.3 C 4.8 g/m*3 4.3 C 0 km/h
1761 18-01-2010 16:21:01 4.2 C 4.77 g/m*3 4.2 C 0 km/h
1762 18-01-2010 16:33:02 4.1 C 4.8 g/m*3 4.1 C 0 km/h
1763 18-01-2010 16:45:02 4 C 4.77 g/m*3 4 C 0 km/h
1764 18-01-2010 16:57:02 3.7 C 4.74 g/m*3 3.7 C 0 km/h
1765 18-01-2010 17:09:02 3.5 C 4.73 g/m*3 3.5 C 0 km/h
1766 18-01-2010 17:21:02 3.5 C 4.8 g/m*3 3.5 C 0 km/h
1767 18-01-2010 17:33:02 3.4 C 4.76 g/m*3 3.4 C 0 km/h
1768 18-01-2010 17:45:02 3.4 C 4.76 g/m*3 3.4 C 0 km/h
1769 18-01-2010 17:57:02 3.4 C 4.83 g/m*3 3.4 C 0 km/h
1770 18-01-2010 18:09:03 3.3 C 4.79 g/m*3 3.3 C 0 km/h
1771 18-01-2010 18:21:02 3.3 C 4.85 g/m*3 3.3 C 0 km/h
1772 18-01-2010 18:33:02 3.3 C 4.85 g/m*3 3.3 C 0 km/h
1773 18-01-2010 18:45:01 3.1 C 4.79 g/m*3 3.1 C 0 km/h
1774 18-01-2010 18:57:01 3.1 C 4.85 g/m*3 3.1 C 0 km/h
1775 18-01-2010 19:09:02 3 C 4.82 g/m*3 3 C 0 km/h
Sensor: Nr:Datum:Temp:Abs-Feuchte:Windchill:Wind:
Aussen-T/F 1776 18-01-2010 19:21:01 3.1 C 4.85 g/m*3 3.1 C 0 km/h
1777 18-01-2010 19:33:02 3 C 4.82 g/m*3 3 C 0 km/h
1778 18-01-2010 19:45:01 3 C 4.82 g/m*3 3 C 0 km/h
1779 18-01-2010 19:57:01 3 C 4.82 g/m*3 3 C 0 km/h
1780 18-01-2010 20:09:02 2.9 C 4.84 g/m*3 2.9 C 0 km/h
1781 18-01-2010 20:21:01 2.8 C 4.87 g/m*3 2.8 C 0 km/h
1782 18-01-2010 20:33:02 2.9 C 4.9 g/m*3 2.9 C 0 km/h
1783 18-01-2010 20:45:01 3 C 4.88 g/m*3 3 C 0 km/h
1784 18-01-2010 20:57:01 3 C 4.82 g/m*3 3 C 0 km/h
1785 18-01-2010 21:09:02 3 C 4.82 g/m*3 3 C 0 km/h
1786 18-01-2010 21:21:01 2.9 C 4.84 g/m*3 2.9 C 0 km/h
1787 18-01-2010 21:33:02 2.9 C 4.84 g/m*3 2.9 C 0 km/h
1788 18-01-2010 21:46:02 2.9 C 4.84 g/m*3 2.9 C 0 km/h
1789 18-01-2010 21:58:02 2.8 C 4.81 g/m*3 2.8 C 0 km/h
1790 18-01-2010 22:10:02 2.7 C 4.84 g/m*3 2.7 C 0 km/h
1791 18-01-2010 22:22:02 2.7 C 4.84 g/m*3 2.7 C 0 km/h
1792 18-01-2010 22:34:02 2.6 C 4.8 g/m*3 2.6 C 0 km/h
1793 18-01-2010 22:46:02 2.7 C 4.84 g/m*3 2.7 C 0 km/h
1794 18-01-2010 22:58:02 2.7 C 4.84 g/m*3 2.7 C 0 km/h
1795 18-01-2010 23:10:02 2.8 C 4.81 g/m*3 2.8 C 0 km/h
1796 18-01-2010 23:22:02 2.8 C 4.81 g/m*3 2.8 C 0 km/h
1797 18-01-2010 23:34:03 2.8 C 4.81 g/m*3 2.8 C 0 km/h
1798 18-01-2010 23:46:03 2.8 C 4.75 g/m*3 2.8 C 0 km/h
1799 18-01-2010 23:58:03 2.8 C 4.75 g/m*3 2.8 C 0 km/h
1800 19-01-2010 00:10:03 2.7 C 4.72 g/m*3 2.7 C 0 km/h
Sensor: Nr:Datum:Temp:Abs-Feuchte:Windchill:Wind:
Aussen-T/F 1801 19-01-2010 00:22:03 2.7 C 4.78 g/m*3 2.7 C 0 km/h
1802 19-01-2010 00:34:03 2.5 C 4.77 g/m*3 2.5 C 0 km/h
1803 19-01-2010 00:46:03 2.4 C 4.85 g/m*3 2.4 C 0 km/h
1804 19-01-2010 00:58:03 2.3 C 4.88 g/m*3 2.3 C 0 km/h
1805 19-01-2010 01:10:03 2.2 C 4.96 g/m*3 2.2 C 0 km/h
1806 19-01-2010 01:22:03 2.2 C 5.01 g/m*3 2.2 C 0 km/h
1807 19-01-2010 01:34:03 2.2 C 5.07 g/m*3 2.2 C 0 km/h
1808 19-01-2010 01:46:03 2.2 C 5.07 g/m*3 2.2 C 0 km/h
1809 19-01-2010 01:58:03 2.2 C 5.07 g/m*3 2.2 C 0 km/h
1810 19-01-2010 02:10:03 2.2 C 5.07 g/m*3 2.2 C 0 km/h
1811 19-01-2010 02:22:03 2.2 C 5.07 g/m*3 2.2 C 0 km/h
1812 19-01-2010 02:34:03 2.1 C 4.98 g/m*3 2.1 C 0 km/h
1813 19-01-2010 02:46:03 1.7 C 4.85 g/m*3 1.7 C 0 km/h
1814 19-01-2010 02:58:03 1.5 C 4.83 g/m*3 1.5 C 0 km/h
1815 19-01-2010 03:10:03 1.6 C 4.87 g/m*3 1.6 C 0 km/h
1816 19-01-2010 03:22:03 1.4 C 4.85 g/m*3 1.4 C 0 km/h
1817 19-01-2010 03:34:03 1.3 C 4.82 g/m*3 1.3 C 0 km/h
1818 19-01-2010 03:46:04 1.4 C 4.85 g/m*3 1.4 C 0 km/h
1819 19-01-2010 03:58:04 1.3 C 4.82 g/m*3 1.3 C 0 km/h
1820 19-01-2010 04:10:04 1.3 C 4.82 g/m*3 1.3 C 0 km/h
1821 19-01-2010 04:22:04 1.4 C 4.91 g/m*3 1.4 C 0 km/h
1822 19-01-2010 04:34:04 1.5 C 4.94 g/m*3 1.5 C 0 km/h
1823 19-01-2010 04:46:04 1.6 C 4.97 g/m*3 1.6 C 0 km/h
1824 19-01-2010 04:58:04 1.7 C 5.01 g/m*3 1.7 C 0 km/h
1825 19-01-2010 05:10:04 1.8 C 5.04 g/m*3 1.8 C 0 km/h
Sensor: Nr:Datum:Temp:Abs-Feuchte:Windchill:Wind:
Aussen-T/F 1826 19-01-2010 05:22:04 1.8 C 5.04 g/m*3 1.8 C 0 km/h
1827 19-01-2010 05:34:04 1.6 C 4.92 g/m*3 1.6 C 0 km/h
1828 19-01-2010 05:46:04 1.5 C 4.89 g/m*3 1.5 C 0 km/h
1829 19-01-2010 05:58:04 1.3 C 4.82 g/m*3 1.3 C 0 km/h
1830 19-01-2010 06:10:04 1.3 C 4.82 g/m*3 1.3 C 0 km/h
1831 19-01-2010 06:22:04 1.4 C 4.91 g/m*3 1.4 C 0 km/h
1832 19-01-2010 06:34:04 1.6 C 4.97 g/m*3 1.6 C 0 km/h
1833 19-01-2010 06:46:04 1.6 C 4.97 g/m*3 1.6 C 0 km/h
1834 19-01-2010 06:58:04 1.6 C 4.97 g/m*3 1.6 C 0 km/h
1835 19-01-2010 07:10:02 1.7 C 5.06 g/m*3 1.7 C 0 km/h
1836 19-01-2010 07:22:03 1.7 C 5.06 g/m*3 1.7 C 0 km/h
1837 19-01-2010 07:34:03 1.7 C 5.06 g/m*3 1.7 C 0 km/h
1838 19-01-2010 07:46:02 1.7 C 5.06 g/m*3 1.7 C 0 km/h
1839 19-01-2010 07:58:02 1.8 C 5.1 g/m*3 1.8 C 0 km/h
1840 19-01-2010 08:10:02 1.8 C 5.1 g/m*3 1.8 C 0 km/h
1841 19-01-2010 08:22:02 1.8 C 5.1 g/m*3 1.8 C 0 km/h
1842 19-01-2010 08:34:02 1.8 C 5.1 g/m*3 1.8 C 0 km/h
1843 19-01-2010 08:46:01 1.8 C 5.1 g/m*3 1.8 C 0 km/h
1844 19-01-2010 08:58:01 2.3 C 5.22 g/m*3 2.3 C 0 km/h
1845 19-01-2010 09:10:02 1.9 C 5.08 g/m*3 1.9 C 0 km/h
1846 19-01-2010 09:22:01 1.9 C 5.08 g/m*3 1.9 C 0 km/h
1847 19-01-2010 09:34:01 2 C 5.06 g/m*3 2 C 0 km/h
1848 19-01-2010 09:46:01 2.1 C 5.09 g/m*3 2.1 C 0 km/h
1849 19-01-2010 09:58:01 2.2 C 5.13 g/m*3 2.2 C 0 km/h
1850 19-01-2010 10:10:02 2.2 C 5.07 g/m*3 2.2 C 0 km/h
Sensor: Nr:Datum:Temp:Abs-Feuchte:Windchill:Wind:
Aussen-T/F 1851 19-01-2010 10:22:01 2.3 C 5.1 g/m*3 2.3 C 0 km/h
1852 19-01-2010 10:34:02 2.3 C 5.1 g/m*3 2.3 C 0 km/h
1853 19-01-2010 10:46:01 2.4 C 5.14 g/m*3 2.4 C 0 km/h
1854 19-01-2010 10:58:01 2.5 C 5.17 g/m*3 2.5 C 0 km/h
1855 19-01-2010 11:10:02 2.7 C 5.24 g/m*3 2.7 C 0 km/h
1856 19-01-2010 11:22:02 2.8 C 5.22 g/m*3 2.8 C 0 km/h
1857 19-01-2010 11:34:01 2.8 C 5.16 g/m*3 2.8 C 0 km/h
1858 19-01-2010 11:46:02 2.7 C 5.13 g/m*3 2.7 C 0 km/h
1859 19-01-2010 11:58:02 2.8 C 5.16 g/m*3 2.8 C 0 km/h
1860 19-01-2010 12:10:01 2.9 C 5.2 g/m*3 2.9 C 0 km/h
1861 19-01-2010 12:22:02 3 C 5.17 g/m*3 3 C 0 km/h
1862 19-01-2010 12:34:01 3.1 C 5.21 g/m*3 3.1 C 0 km/h
1863 19-01-2010 12:46:03 3.2 C 5.24 g/m*3 3.2 C 0 km/h
1864 19-01-2010 12:58:03 3.2 C 5.24 g/m*3 3.2 C 0 km/h
1865 19-01-2010 13:10:02 3.2 C 5.24 g/m*3 3.2 C 0 km/h
1866 19-01-2010 13:22:02 3.1 C 5.21 g/m*3 3.1 C 0 km/h
1867 19-01-2010 13:34:02 2.9 C 5.2 g/m*3 2.9 C 0 km/h
1868 19-01-2010 13:46:02 2.9 C 5.2 g/m*3 2.9 C 0 km/h
1869 19-01-2010 13:58:02 2.8 C 5.22 g/m*3 2.8 C 0 km/h
1870 19-01-2010 14:10:02 2.9 C 5.26 g/m*3 2.9 C 0 km/h
1871 19-01-2010 14:22:02 2.9 C 5.32 g/m*3 2.9 C 0 km/h
1872 19-01-2010 14:34:02 2.9 C 5.32 g/m*3 2.9 C 0 km/h
1873 19-01-2010 14:46:02 3 C 5.35 g/m*3 3 C 0 km/h
1874 19-01-2010 14:58:03 3.2 C 5.42 g/m*3 3.2 C 0 km/h
1875 19-01-2010 15:10:01 3.4 C 5.5 g/m*3 3.4 C 0 km/h
Sensor: Nr:Datum:Temp:Abs-Feuchte:Windchill:Wind:
Aussen-T/F 1876 19-01-2010 15:22:01 3.4 C 5.5 g/m*3 3.4 C 0 km/h
1877 19-01-2010 15:34:02 3.3 C 5.4 g/m*3 3.3 C 0 km/h
1878 19-01-2010 15:46:02 3.3 C 5.4 g/m*3 3.3 C 0 km/h
1879 19-01-2010 15:58:02 3.3 C 5.4 g/m*3 3.3 C 0 km/h
1880 19-01-2010 16:10:02 3.2 C 5.36 g/m*3 3.2 C 0 km/h
1881 19-01-2010 16:22:02 3.2 C 5.36 g/m*3 3.2 C 0 km/h
1882 19-01-2010 16:34:02 3.1 C 5.33 g/m*3 3.1 C 0 km/h
1883 19-01-2010 16:46:02 3.1 C 5.33 g/m*3 3.1 C 0 km/h
1884 19-01-2010 16:58:02 2.9 C 5.32 g/m*3 2.9 C 0 km/h
1885 19-01-2010 17:10:01 2.8 C 5.28 g/m*3 2.8 C 0 km/h
1886 19-01-2010 17:22:02 2.7 C 5.24 g/m*3 2.7 C 0 km/h
1887 19-01-2010 17:34:01 2.7 C 5.24 g/m*3 2.7 C 0 km/h
1888 19-01-2010 17:46:02 2.7 C 5.24 g/m*3 2.7 C 0 km/h
1889 19-01-2010 17:58:02 2.7 C 5.24 g/m*3 2.7 C 0 km/h
1890 19-01-2010 18:10:02 2.6 C 5.21 g/m*3 2.6 C 0 km/h
1891 19-01-2010 18:22:02 2.5 C 5.17 g/m*3 2.5 C 0 km/h
1892 19-01-2010 18:34:03 2.4 C 5.14 g/m*3 2.4 C 0 km/h
1893 19-01-2010 18:46:02 2.3 C 5.16 g/m*3 2.3 C 0 km/h
1894 19-01-2010 18:58:02 2.2 C 5.13 g/m*3 2.2 C 0 km/h
1895 19-01-2010 19:10:01 2 C 5.06 g/m*3 2 C 0 km/h
1896 19-01-2010 19:22:02 2 C 5.06 g/m*3 2 C 0 km/h
1897 19-01-2010 19:34:02 2 C 5.06 g/m*3 2 C 0 km/h
1898 19-01-2010 19:46:02 2 C 5.06 g/m*3 2 C 0 km/h
1899 19-01-2010 19:58:02 2 C 5.06 g/m*3 2 C 0 km/h
1900 19-01-2010 20:10:02 2 C 5.06 g/m*3 2 C 0 km/h
Sensor: Nr:Datum:Temp:Abs-Feuchte:Windchill:Wind:
Aussen-T/F 1901 19-01-2010 20:22:02 2 C 5.06 g/m*3 2 C 0 km/h
1902 19-01-2010 20:34:02 2 C 5.11 g/m*3 2 C 0 km/h
1903 19-01-2010 20:46:01 2 C 5.11 g/m*3 2 C 0 km/h
1904 19-01-2010 20:58:01 2 C 5.11 g/m*3 2 C 0 km/h
1905 19-01-2010 21:10:02 2.2 C 5.18 g/m*3 2.2 C 0 km/h
1906 19-01-2010 21:22:01 2 C 5.11 g/m*3 2 C 0 km/h
1907 19-01-2010 21:34:01 2 C 5.11 g/m*3 2 C 0 km/h
1908 19-01-2010 21:46:01 2 C 5.11 g/m*3 2 C 0 km/h
1909 19-01-2010 21:58:01 2 C 5.11 g/m*3 2 C 0 km/h
1910 19-01-2010 22:11:02 2 C 5.11 g/m*3 2 C 0 km/h
1911 19-01-2010 22:23:02 2 C 5.11 g/m*3 2 C 0 km/h
1912 19-01-2010 22:35:02 1.9 C 5.08 g/m*3 1.9 C 0 km/h
1913 19-01-2010 22:47:02 1.8 C 5.04 g/m*3 1.8 C 0 km/h
1914 19-01-2010 22:59:02 1.8 C 5.04 g/m*3 1.8 C 0 km/h
1915 19-01-2010 23:11:02 1.9 C 5.13 g/m*3 1.9 C 0 km/h
1916 19-01-2010 23:23:02 1.9 C 5.13 g/m*3 1.9 C 0 km/h
1917 19-01-2010 23:35:02 2 C 5.11 g/m*3 2 C 0 km/h
1918 19-01-2010 23:47:03 2 C 5.11 g/m*3 2 C 0 km/h
1919 19-01-2010 23:59:03 2 C 5.11 g/m*3 2 C 0 km/h
1920 20-01-2010 00:11:03 2 C 5.11 g/m*3 2 C 0 km/h
1921 20-01-2010 00:23:03 2 C 5.11 g/m*3 2 C 0 km/h
1922 20-01-2010 00:35:03 2 C 5.11 g/m*3 2 C 0 km/h
1923 20-01-2010 00:47:03 2 C 5.11 g/m*3 2 C 0 km/h
1924 20-01-2010 00:59:03 2.1 C 5.15 g/m*3 2.1 C 0 km/h
1925 20-01-2010 01:11:03 2.1 C 5.15 g/m*3 2.1 C 0 km/h
Sensor: Nr:Datum:Temp:Abs-Feuchte:Windchill:Wind:
Aussen-T/F 1926 20-01-2010 01:23:03 2.1 C 5.15 g/m*3 2.1 C 0 km/h
1927 20-01-2010 01:35:03 2.2 C 5.18 g/m*3 2.2 C 0 km/h
1928 20-01-2010 01:47:03 2.2 C 5.18 g/m*3 2.2 C 0 km/h
1929 20-01-2010 01:59:03 2.2 C 5.18 g/m*3 2.2 C 0 km/h
1930 20-01-2010 02:11:03 2.2 C 5.18 g/m*3 2.2 C 0 km/h
1931 20-01-2010 02:23:03 2 C 5.11 g/m*3 2 C 0 km/h
1932 20-01-2010 02:35:03 2 C 5.11 g/m*3 2 C 0 km/h
1933 20-01-2010 02:47:03 2.1 C 5.15 g/m*3 2.1 C 0 km/h
1934 20-01-2010 02:59:03 2 C 5.11 g/m*3 2 C 0 km/h
1935 20-01-2010 03:11:03 2 C 5.11 g/m*3 2 C 0 km/h
1936 20-01-2010 03:23:03 2 C 5.11 g/m*3 2 C 0 km/h
1937 20-01-2010 03:35:03 1.9 C 5.08 g/m*3 1.9 C 0 km/h
1938 20-01-2010 03:47:04 1.9 C 5.08 g/m*3 1.9 C 0 km/h
1939 20-01-2010 03:59:04 1.8 C 5.04 g/m*3 1.8 C 0 km/h
1940 20-01-2010 04:11:04 1.8 C 5.04 g/m*3 1.8 C 0 km/h
1941 20-01-2010 04:23:04 1.8 C 5.04 g/m*3 1.8 C 0 km/h
1942 20-01-2010 04:35:04 1.8 C 5.04 g/m*3 1.8 C 0 km/h
1943 20-01-2010 04:47:04 1.8 C 5.04 g/m*3 1.8 C 0 km/h
1944 20-01-2010 04:59:04 1.8 C 5.04 g/m*3 1.8 C 0 km/h
1945 20-01-2010 05:11:04 1.8 C 5.04 g/m*3 1.8 C 0 km/h
1946 20-01-2010 05:23:04 1.8 C 5.04 g/m*3 1.8 C 0 km/h
1947 20-01-2010 05:35:04 1.7 C 5.01 g/m*3 1.7 C 0 km/h
1948 20-01-2010 05:47:04 1.7 C 5.01 g/m*3 1.7 C 0 km/h
1949 20-01-2010 05:59:04 1.6 C 4.97 g/m*3 1.6 C 0 km/h
1950 20-01-2010 06:11:04 1.3 C 4.82 g/m*3 1.3 C 0 km/h
Sensor: Nr:Datum:Temp:Abs-Feuchte:Windchill:Wind:
Aussen-T/F 1951 20-01-2010 06:23:04 0.6 C 4.6 g/m*3 0.6 C 0 km/h
1952 20-01-2010 06:35:04 0.4 C 4.53 g/m*3 0.4 C 0 km/h
1953 20-01-2010 06:47:04 0.3 C 4.5 g/m*3 0.3 C 0 km/h
1954 20-01-2010 06:59:04 0.4 C 4.58 g/m*3 0.4 C 0 km/h
1955 20-01-2010 07:11:02 0.5 C 4.61 g/m*3 0.5 C 0 km/h
1956 20-01-2010 07:23:02 0.2 C 4.52 g/m*3 0.2 C 0 km/h
1957 20-01-2010 07:35:03 -0.2 C 4.4 g/m*3 -0.2 C 0 km/h
1958 20-01-2010 07:47:02 -0.4 C 4.34 g/m*3 -0.4 C 0 km/h
1959 20-01-2010 07:59:02 -0.4 C 4.34 g/m*3 -0.4 C 0 km/h
1960 20-01-2010 08:11:02 -0.6 C 4.28 g/m*3 -0.6 C 0 km/h
1961 20-01-2010 08:23:02 -0.7 C 4.25 g/m*3 -0.7 C 0 km/h
1962 20-01-2010 08:35:02 -0.8 C 4.22 g/m*3 -0.8 C 0 km/h
1963 20-01-2010 08:47:02 -0.9 C 4.19 g/m*3 -0.9 C 0 km/h
1964 20-01-2010 08:59:02 -0.9 C 4.19 g/m*3 -0.9 C 0 km/h
1965 20-01-2010 09:11:02 -0.9 C 4.23 g/m*3 -0.9 C 0 km/h
1966 20-01-2010 09:23:02 -0.8 C 4.26 g/m*3 -0.8 C 0 km/h
1967 20-01-2010 09:35:02 -0.8 C 4.26 g/m*3 -0.8 C 0 km/h
1968 20-01-2010 09:47:02 -0.6 C 4.32 g/m*3 -0.6 C 0 km/h
1969 20-01-2010 09:59:02 0 C 4.55 g/m*3 0 C 0 km/h
1970 20-01-2010 10:11:02 0.5 C 4.71 g/m*3 0.5 C 0 km/h
1971 20-01-2010 10:23:02 0.9 C 4.9 g/m*3 0.9 C 0 km/h
1972 20-01-2010 10:35:02 1.3 C 5.03 g/m*3 1.3 C 0 km/h
1973 20-01-2010 10:47:02 1.7 C 5.17 g/m*3 1.7 C 0 km/h
1974 20-01-2010 10:59:02 2 C 5.28 g/m*3 2 C 0 km/h
1975 20-01-2010 11:11:01 2.3 C 5.33 g/m*3 2.3 C 0 km/h
Sensor: Nr:Datum:Temp:Abs-Feuchte:Windchill:Wind:
Aussen-T/F 1976 20-01-2010 11:23:01 2.5 C 5.4 g/m*3 2.5 C 0 km/h
1977 20-01-2010 11:35:02 2.7 C 5.42 g/m*3 2.7 C 0 km/h
1978 20-01-2010 11:47:02 3 C 5.41 g/m*3 3 C 0 km/h
1979 20-01-2010 11:59:02 3.2 C 5.3 g/m*3 3.2 C 0 km/h
1980 20-01-2010 12:11:02 3.1 C 4.91 g/m*3 3.1 C 0 km/h
1981 20-01-2010 12:23:02 3.2 C 4.7 g/m*3 3.2 C 0 km/h
1982 20-01-2010 12:35:02 3.3 C 4.67 g/m*3 3.3 C 0 km/h
1983 20-01-2010 12:47:02 3.4 C 4.64 g/m*3 3.4 C 0 km/h
1984 20-01-2010 12:59:02 3.5 C 4.61 g/m*3 3.5 C 0 km/h
1985 20-01-2010 13:11:02 3.6 C 4.52 g/m*3 3.6 C 0 km/h
1986 20-01-2010 13:23:02 3.8 C 4.52 g/m*3 3.8 C 0 km/h
1987 20-01-2010 13:35:02 3.8 C 4.45 g/m*3 3.8 C 0 km/h
1988 20-01-2010 13:47:02 3.8 C 4.45 g/m*3 3.8 C 0 km/h
1989 20-01-2010 13:59:02 3.8 C 4.39 g/m*3 3.8 C 0 km/h
1990 20-01-2010 14:11:02 4 C 4.39 g/m*3 4 C 0 km/h
1991 20-01-2010 14:23:02 4.1 C 4.35 g/m*3 4.1 C 0 km/h
1992 20-01-2010 14:35:02 4.1 C 4.35 g/m*3 4.1 C 0 km/h
1993 20-01-2010 14:47:02 4.2 C 4.38 g/m*3 4.2 C 0 km/h
1994 20-01-2010 14:59:02 3.9 C 4.36 g/m*3 3.9 C 0 km/h
1995 20-01-2010 15:11:02 3.9 C 4.42 g/m*3 3.9 C 0 km/h
1996 20-01-2010 15:23:03 3.8 C 4.45 g/m*3 3.8 C 0 km/h
1997 20-01-2010 15:35:02 3.8 C 4.39 g/m*3 3.8 C 0 km/h
1998 20-01-2010 15:47:02 3.7 C 4.49 g/m*3 3.7 C 0 km/h
1999 20-01-2010 15:59:02 3.6 C 4.39 g/m*3 3.6 C 0 km/h
2000 20-01-2010 16:11:02 3.6 C 4.39 g/m*3 3.6 C 0 km/h
Sensor: Nr:Datum:Temp:Abs-Feuchte:Windchill:Wind:
Aussen-T/F 2001 20-01-2010 16:23:02 3.5 C 4.43 g/m*3 3.5 C 0 km/h
2002 20-01-2010 16:35:02 3.4 C 4.4 g/m*3 3.4 C 0 km/h
2003 20-01-2010 16:47:02 3.2 C 4.4 g/m*3 3.2 C 0 km/h
2004 20-01-2010 16:59:02 3 C 4.4 g/m*3 3 C 0 km/h
2005 20-01-2010 17:11:02 2.8 C 4.46 g/m*3 2.8 C 0 km/h
2006 20-01-2010 17:23:02 2.8 C 4.52 g/m*3 2.8 C 0 km/h
2007 20-01-2010 17:35:01 2.6 C 4.46 g/m*3 2.6 C 0 km/h
2008 20-01-2010 17:47:02 2.4 C 4.45 g/m*3 2.4 C 0 km/h
2009 20-01-2010 17:59:02 2.3 C 4.48 g/m*3 2.3 C 0 km/h
2010 20-01-2010 18:11:01 2.2 C 4.45 g/m*3 2.2 C 0 km/h
2011 20-01-2010 18:23:01 2.2 C 4.51 g/m*3 2.2 C 0 km/h
2012 20-01-2010 18:35:01 2 C 4.45 g/m*3 2 C 0 km/h
2013 20-01-2010 18:47:02 1.7 C 4.41 g/m*3 1.7 C 0 km/h
2014 20-01-2010 18:59:02 1.7 C 4.46 g/m*3 1.7 C 0 km/h
2015 20-01-2010 19:11:01 1.7 C 4.52 g/m*3 1.7 C 0 km/h
2016 20-01-2010 19:23:02 1.8 C 4.55 g/m*3 1.8 C 0 km/h
2017 20-01-2010 19:35:02 2 C 4.56 g/m*3 2 C 0 km/h
2018 20-01-2010 19:47:02 2.2 C 4.62 g/m*3 2.2 C 0 km/h
2019 20-01-2010 19:59:02 2.3 C 4.65 g/m*3 2.3 C 0 km/h
2020 20-01-2010 20:11:01 2.4 C 4.62 g/m*3 2.4 C 0 km/h
2021 20-01-2010 20:23:01 2.6 C 4.51 g/m*3 2.6 C 0 km/h
2022 20-01-2010 20:35:01 2.6 C 4.46 g/m*3 2.6 C 0 km/h
2023 20-01-2010 20:47:02 2.5 C 4.31 g/m*3 2.5 C 0 km/h
2024 20-01-2010 20:59:02 2.1 C 4.2 g/m*3 2.1 C 0 km/h
2025 20-01-2010 21:11:02 1.6 C 4.11 g/m*3 1.6 C 0 km/h
Sensor: Nr:Datum:Temp:Abs-Feuchte:Windchill:Wind:
Aussen-T/F 2026 20-01-2010 21:23:02 1.4 C 4.16 g/m*3 1.4 C 0 km/h
2027 20-01-2010 21:35:02 1.7 C 4.25 g/m*3 1.7 C 0 km/h
2028 20-01-2010 21:47:01 1.7 C 4.25 g/m*3 1.7 C 0 km/h
2029 20-01-2010 21:59:01 1.7 C 4.25 g/m*3 1.7 C 0 km/h
2030 20-01-2010 22:11:02 1.8 C 4.28 g/m*3 1.8 C 0 km/h
2031 20-01-2010 22:23:02 1.8 C 4.22 g/m*3 1.8 C 0 km/h
2032 20-01-2010 22:35:01 1.9 C 4.19 g/m*3 1.9 C 0 km/h
2033 20-01-2010 22:47:02 2 C 4.11 g/m*3 2 C 0 km/h
2034 20-01-2010 22:59:02 1.9 C 4.14 g/m*3 1.9 C 0 km/h
2035 20-01-2010 23:11:01 1.9 C 4.19 g/m*3 1.9 C 0 km/h
2036 20-01-2010 23:23:02 1.9 C 4.19 g/m*3 1.9 C 0 km/h
2037 20-01-2010 23:35:01 1.8 C 4.17 g/m*3 1.8 C 0 km/h
2038 20-01-2010 23:47:02 1.8 C 4.11 g/m*3 1.8 C 0 km/h
2039 20-01-2010 23:59:02 1.8 C 4.17 g/m*3 1.8 C 0 km/h
2040 21-01-2010 00:11:02 1.8 C 4.11 g/m*3 1.8 C 0 km/h
2041 21-01-2010 00:23:02 1.8 C 4.11 g/m*3 1.8 C 0 km/h
2042 21-01-2010 00:35:03 1.9 C 4.03 g/m*3 1.9 C 0 km/h
2043 21-01-2010 00:47:02 1.8 C 4 g/m*3 1.8 C 0 km/h
2044 21-01-2010 00:59:02 1.8 C 3.95 g/m*3 1.8 C 0 km/h
2045 21-01-2010 01:11:02 1.8 C 3.84 g/m*3 1.8 C 0 km/h
2046 21-01-2010 01:23:02 1.7 C 3.81 g/m*3 1.7 C 0 km/h
2047 21-01-2010 01:35:02 1.7 C 3.81 g/m*3 1.7 C 0 km/h
2048 21-01-2010 01:47:02 1.8 C 3.84 g/m*3 1.8 C 0 km/h
2049 21-01-2010 01:59:02 1.8 C 3.78 g/m*3 1.8 C 0 km/h
2050 21-01-2010 02:11:03 1.8 C 3.84 g/m*3 1.8 C 0 km/h
Sensor: Nr:Datum:Temp:Abs-Feuchte:Windchill:Wind:
Aussen-T/F 2051 21-01-2010 02:23:02 1.7 C 3.87 g/m*3 1.7 C 0 km/h
2052 21-01-2010 02:35:02 1.7 C 3.92 g/m*3 1.7 C 0 km/h
2053 21-01-2010 02:47:01 1.7 C 3.92 g/m*3 1.7 C 0 km/h
2054 21-01-2010 02:59:01 1.7 C 3.92 g/m*3 1.7 C 0 km/h
2055 21-01-2010 03:11:02 1.7 C 3.92 g/m*3 1.7 C 0 km/h
2056 21-01-2010 03:23:02 1.7 C 3.97 g/m*3 1.7 C 0 km/h
2057 21-01-2010 03:35:01 1.7 C 4.03 g/m*3 1.7 C 0 km/h
2058 21-01-2010 03:47:01 1.7 C 4.03 g/m*3 1.7 C 0 km/h
2059 21-01-2010 03:59:01 1.8 C 4 g/m*3 1.8 C 0 km/h
2060 21-01-2010 04:11:02 1.7 C 3.97 g/m*3 1.7 C 0 km/h
2061 21-01-2010 04:23:01 1.7 C 4.03 g/m*3 1.7 C 0 km/h
2062 21-01-2010 04:35:02 1.8 C 4 g/m*3 1.8 C 0 km/h
2063 21-01-2010 04:47:01 1.8 C 3.89 g/m*3 1.8 C 0 km/h
2064 21-01-2010 04:59:01 1.8 C 3.89 g/m*3 1.8 C 0 km/h
2065 21-01-2010 05:11:02 1.8 C 3.95 g/m*3 1.8 C 0 km/h
2066 21-01-2010 05:23:01 1.7 C 3.97 g/m*3 1.7 C 0 km/h
2067 21-01-2010 05:35:01 1.7 C 4.03 g/m*3 1.7 C 0 km/h
2068 21-01-2010 05:47:01 1.7 C 4.03 g/m*3 1.7 C 0 km/h
2069 21-01-2010 05:59:01 1.6 C 3.95 g/m*3 1.6 C 0 km/h
2070 21-01-2010 06:11:01 1.6 C 4 g/m*3 1.6 C 0 km/h
2071 21-01-2010 06:23:01 1.6 C 4.06 g/m*3 1.6 C 0 km/h
2072 21-01-2010 06:35:01 1.5 C 4.03 g/m*3 1.5 C 0 km/h
2073 21-01-2010 06:47:01 1.5 C 4.08 g/m*3 1.5 C 0 km/h
2074 21-01-2010 06:59:01 1.4 C 4.11 g/m*3 1.4 C 0 km/h
2075 21-01-2010 07:11:01 1.4 C 4.16 g/m*3 1.4 C 0 km/h
Sensor: Nr:Datum:Temp:Abs-Feuchte:Windchill:Wind:
Aussen-T/F 2076 21-01-2010 07:23:02 1.4 C 4.21 g/m*3 1.4 C 0 km/h
2077 21-01-2010 07:35:01 1.3 C 4.19 g/m*3 1.3 C 0 km/h
2078 21-01-2010 07:47:02 1.4 C 4.21 g/m*3 1.4 C 0 km/h
2079 21-01-2010 07:59:02 1.4 C 4.21 g/m*3 1.4 C 0 km/h
2080 21-01-2010 08:11:01 1.3 C 4.24 g/m*3 1.3 C 0 km/h
2081 21-01-2010 08:23:02 1.3 C 4.24 g/m*3 1.3 C 0 km/h
2082 21-01-2010 08:35:01 1.4 C 4.27 g/m*3 1.4 C 0 km/h
2083 21-01-2010 08:47:02 1.3 C 4.24 g/m*3 1.3 C 0 km/h
2084 21-01-2010 08:59:02 1.5 C 4.3 g/m*3 1.5 C 0 km/h
2085 21-01-2010 09:11:01 1.6 C 4.33 g/m*3 1.6 C 0 km/h
2086 21-01-2010 09:23:01 1.8 C 4.33 g/m*3 1.8 C 0 km/h
2087 21-01-2010 09:35:01 2 C 4.33 g/m*3 2 C 0 km/h
2088 21-01-2010 09:47:01 2.1 C 4.25 g/m*3 2.1 C 0 km/h
2089 21-01-2010 09:59:02 2.1 C 3.97 g/m*3 2.1 C 0 km/h
2090 21-01-2010 10:11:01 2.3 C 3.97 g/m*3 2.3 C 0 km/h
2091 21-01-2010 10:23:01 2.5 C 3.97 g/m*3 2.5 C 0 km/h
2092 21-01-2010 10:35:02 2.6 C 3.88 g/m*3 2.6 C 0 km/h
2093 21-01-2010 10:47:01 2.9 C 4.02 g/m*3 2.9 C 0 km/h
2094 21-01-2010 10:59:01 3.1 C 3.95 g/m*3 3.1 C 0 km/h
2095 21-01-2010 11:11:02 3.2 C 3.86 g/m*3 3.2 C 0 km/h
2096 21-01-2010 11:23:01 3.2 C 3.8 g/m*3 3.2 C 0 km/h
2097 21-01-2010 11:35:02 3 C 3.75 g/m*3 3 C 0 km/h
2098 21-01-2010 11:47:01 3.3 C 3.88 g/m*3 3.3 C 0 km/h
2099 21-01-2010 11:59:01 3.4 C 3.73 g/m*3 3.4 C 0 km/h
2100 21-01-2010 12:11:02 3.4 C 3.79 g/m*3 3.4 C 0 km/h
Sensor: Nr:Datum:Temp:Abs-Feuchte:Windchill:Wind:
Aussen-T/F 2101 21-01-2010 12:23:01 3.6 C 3.84 g/m*3 3.6 C 0 km/h
2102 21-01-2010 12:35:01 3.5 C 3.75 g/m*3 3.5 C 0 km/h
2103 21-01-2010 12:47:01 3.6 C 3.71 g/m*3 3.6 C 0 km/h
2104 21-01-2010 12:59:01 3.7 C 3.74 g/m*3 3.7 C 0 km/h
2105 21-01-2010 13:11:01 3.8 C 3.76 g/m*3 3.8 C 0 km/h
2106 21-01-2010 13:23:01 3.7 C 3.74 g/m*3 3.7 C 0 km/h
2107 21-01-2010 13:35:01 4 C 3.81 g/m*3 4 C 0 km/h
2108 21-01-2010 13:47:01 3.8 C 3.7 g/m*3 3.8 C 0 km/h
2109 21-01-2010 13:59:01 3.8 C 3.76 g/m*3 3.8 C 0 km/h
2110 21-01-2010 14:11:01 3.8 C 3.76 g/m*3 3.8 C 0 km/h
2111 21-01-2010 14:23:02 3.8 C 3.76 g/m*3 3.8 C 0 km/h
2112 21-01-2010 14:35:01 3.7 C 3.74 g/m*3 3.7 C 0 km/h
2113 21-01-2010 14:47:02 3.4 C 3.91 g/m*3 3.4 C 0 km/h
2114 21-01-2010 14:59:02 3.3 C 4 g/m*3 3.3 C 0 km/h
2115 21-01-2010 15:11:01 3.3 C 4.06 g/m*3 3.3 C 0 km/h
2116 21-01-2010 15:23:02 3.4 C 4.09 g/m*3 3.4 C 0 km/h
2117 21-01-2010 15:35:01 3.4 C 4.09 g/m*3 3.4 C 0 km/h
2118 21-01-2010 15:47:02 3.4 C 4.09 g/m*3 3.4 C 0 km/h
2119 21-01-2010 15:59:02 3.3 C 4.06 g/m*3 3.3 C 0 km/h
2120 21-01-2010 16:11:01 3.2 C 4.04 g/m*3 3.2 C 0 km/h
2121 21-01-2010 16:23:01 3.2 C 4.04 g/m*3 3.2 C 0 km/h
2122 21-01-2010 16:35:01 3.2 C 4.04 g/m*3 3.2 C 0 km/h
2123 21-01-2010 16:47:01 3.1 C 3.95 g/m*3 3.1 C 0 km/h
2124 21-01-2010 16:59:02 3 C 3.98 g/m*3 3 C 0 km/h
2125 21-01-2010 17:11:01 3 C 4.04 g/m*3 3 C 0 km/h
Sensor: Nr:Datum:Temp:Abs-Feuchte:Windchill:Wind:
Aussen-T/F 2126 21-01-2010 17:23:01 2.9 C 4.02 g/m*3 2.9 C 0 km/h
2127 21-01-2010 17:35:02 2.8 C 3.99 g/m*3 2.8 C 0 km/h
2128 21-01-2010 17:47:01 2.9 C 4.07 g/m*3 2.9 C 0 km/h
2129 21-01-2010 17:59:01 2.9 C 4.13 g/m*3 2.9 C 0 km/h
2130 21-01-2010 18:11:02 2.8 C 4.11 g/m*3 2.8 C 0 km/h
2131 21-01-2010 18:23:01 2.8 C 4.11 g/m*3 2.8 C 0 km/h
2132 21-01-2010 18:35:01 2.8 C 4.05 g/m*3 2.8 C 0 km/h
2133 21-01-2010 18:47:01 2.7 C 4.02 g/m*3 2.7 C 0 km/h
2134 21-01-2010 18:59:01 2.7 C 4.02 g/m*3 2.7 C 0 km/h
2135 21-01-2010 19:11:02 2.8 C 4.05 g/m*3 2.8 C 0 km/h
2136 21-01-2010 19:23:01 2.7 C 4.08 g/m*3 2.7 C 0 km/h
2137 21-01-2010 19:35:01 2.7 C 4.02 g/m*3 2.7 C 0 km/h
2138 21-01-2010 19:47:01 2.7 C 4.08 g/m*3 2.7 C 0 km/h
2139 21-01-2010 19:59:01 2.7 C 4.14 g/m*3 2.7 C 0 km/h
2140 21-01-2010 20:11:01 2.6 C 4.05 g/m*3 2.6 C 0 km/h
2141 21-01-2010 20:23:01 2.6 C 4.05 g/m*3 2.6 C 0 km/h
2142 21-01-2010 20:35:01 2.6 C 4.05 g/m*3 2.6 C 0 km/h
2143 21-01-2010 20:47:01 2.6 C 4.05 g/m*3 2.6 C 0 km/h
2144 21-01-2010 20:59:01 2.7 C 4.08 g/m*3 2.7 C 0 km/h
2145 21-01-2010 21:11:01 2.7 C 4.08 g/m*3 2.7 C 0 km/h
2146 21-01-2010 21:23:02 2.6 C 3.99 g/m*3 2.6 C 0 km/h
2147 21-01-2010 21:35:01 2.6 C 3.99 g/m*3 2.6 C 0 km/h
2148 21-01-2010 21:47:02 2.6 C 4.05 g/m*3 2.6 C 0 km/h
2149 21-01-2010 21:59:02 2.6 C 4.05 g/m*3 2.6 C 0 km/h
2150 21-01-2010 22:11:02 2.6 C 4.11 g/m*3 2.6 C 0 km/h
Sensor: Nr:Datum:Temp:Abs-Feuchte:Windchill:Wind:
Aussen-T/F 2151 21-01-2010 22:24:02 2.6 C 4.11 g/m*3 2.6 C 0 km/h
2152 21-01-2010 22:36:02 2.6 C 4.17 g/m*3 2.6 C 0 km/h
2153 21-01-2010 22:48:02 2.6 C 4.22 g/m*3 2.6 C 0 km/h
2154 21-01-2010 23:00:02 2.6 C 4.22 g/m*3 2.6 C 0 km/h
2155 21-01-2010 23:12:02 2.6 C 4.22 g/m*3 2.6 C 0 km/h
2156 21-01-2010 23:24:02 2.6 C 4.28 g/m*3 2.6 C 0 km/h
2157 21-01-2010 23:36:02 2.6 C 4.28 g/m*3 2.6 C 0 km/h
2158 21-01-2010 23:48:02 2.6 C 4.28 g/m*3 2.6 C 0 km/h
2159 22-01-2010 00:00:02 2.6 C 4.28 g/m*3 2.6 C 0 km/h
2160 22-01-2010 00:12:02 2.5 C 4.25 g/m*3 2.5 C 0 km/h
2161 22-01-2010 00:24:02 2.6 C 4.28 g/m*3 2.6 C 0 km/h
2162 22-01-2010 00:36:03 2.5 C 4.25 g/m*3 2.5 C 0 km/h
2163 22-01-2010 00:48:03 2.5 C 4.25 g/m*3 2.5 C 0 km/h
2164 22-01-2010 01:00:03 2.5 C 4.25 g/m*3 2.5 C 0 km/h
2165 22-01-2010 01:12:03 2.5 C 4.25 g/m*3 2.5 C 0 km/h
2166 22-01-2010 01:24:03 2.5 C 4.31 g/m*3 2.5 C 0 km/h
2167 22-01-2010 01:36:03 2.5 C 4.31 g/m*3 2.5 C 0 km/h
2168 22-01-2010 01:48:03 2.5 C 4.31 g/m*3 2.5 C 0 km/h
2169 22-01-2010 02:00:03 2.5 C 4.37 g/m*3 2.5 C 0 km/h
2170 22-01-2010 02:12:03 2.4 C 4.34 g/m*3 2.4 C 0 km/h
2171 22-01-2010 02:24:03 2.4 C 4.34 g/m*3 2.4 C 0 km/h
2172 22-01-2010 02:36:03 2.3 C 4.31 g/m*3 2.3 C 0 km/h
2173 22-01-2010 02:48:03 2.4 C 4.34 g/m*3 2.4 C 0 km/h
2174 22-01-2010 03:00:03 2.4 C 4.34 g/m*3 2.4 C 0 km/h
2175 22-01-2010 03:12:03 2.4 C 4.4 g/m*3 2.4 C 0 km/h
Sensor: Nr:Datum:Temp:Abs-Feuchte:Windchill:Wind:
Aussen-T/F 2176 22-01-2010 03:24:03 2.4 C 4.4 g/m*3 2.4 C 0 km/h
2177 22-01-2010 03:36:03 2.4 C 4.4 g/m*3 2.4 C 0 km/h
2178 22-01-2010 03:48:03 2.4 C 4.4 g/m*3 2.4 C 0 km/h
2179 22-01-2010 04:00:03 2.3 C 4.37 g/m*3 2.3 C 0 km/h
2180 22-01-2010 04:12:03 2.3 C 4.37 g/m*3 2.3 C 0 km/h
2181 22-01-2010 04:24:04 2.3 C 4.37 g/m*3 2.3 C 0 km/h
2182 22-01-2010 04:36:04 2.4 C 4.4 g/m*3 2.4 C 0 km/h
2183 22-01-2010 04:48:04 2.3 C 4.37 g/m*3 2.3 C 0 km/h
2184 22-01-2010 05:00:04 2.3 C 4.37 g/m*3 2.3 C 0 km/h
2185 22-01-2010 05:12:04 2.3 C 4.37 g/m*3 2.3 C 0 km/h
2186 22-01-2010 05:24:04 2.3 C 4.37 g/m*3 2.3 C 0 km/h
2187 22-01-2010 05:36:04 2.2 C 4.34 g/m*3 2.2 C 0 km/h
2188 22-01-2010 05:48:04 2.3 C 4.37 g/m*3 2.3 C 0 km/h
2189 22-01-2010 06:00:04 2.2 C 4.34 g/m*3 2.2 C 0 km/h
2190 22-01-2010 06:12:04 2.2 C 4.34 g/m*3 2.2 C 0 km/h
2191 22-01-2010 06:24:04 2.2 C 4.34 g/m*3 2.2 C 0 km/h
2192 22-01-2010 06:36:04 2.2 C 4.34 g/m*3 2.2 C 0 km/h
2193 22-01-2010 06:48:04 2.2 C 4.34 g/m*3 2.2 C 0 km/h
2194 22-01-2010 07:00:04 2.2 C 4.34 g/m*3 2.2 C 0 km/h
2195 22-01-2010 07:12:01 2.2 C 4.39 g/m*3 2.2 C 0 km/h
2196 22-01-2010 07:24:02 2.2 C 4.39 g/m*3 2.2 C 0 km/h
2197 22-01-2010 07:36:02 2.1 C 4.36 g/m*3 2.1 C 0 km/h
2198 22-01-2010 07:48:01 2.1 C 4.36 g/m*3 2.1 C 0 km/h
2199 22-01-2010 08:00:01 2.1 C 4.36 g/m*3 2.1 C 0 km/h
2200 22-01-2010 08:12:02 2 C 4.33 g/m*3 2 C 0 km/h
Sensor: Nr:Datum:Temp:Abs-Feuchte:Windchill:Wind:
Aussen-T/F 2201 22-01-2010 08:24:01 2 C 4.33 g/m*3 2 C 0 km/h
2202 22-01-2010 08:36:01 1.9 C 4.36 g/m*3 1.9 C 0 km/h
2203 22-01-2010 08:48:01 1.9 C 4.36 g/m*3 1.9 C 0 km/h
2204 22-01-2010 09:00:01 2.1 C 4.36 g/m*3 2.1 C 0 km/h
2205 22-01-2010 09:12:02 2.2 C 4.39 g/m*3 2.2 C 0 km/h
2206 22-01-2010 09:24:01 2.3 C 4.37 g/m*3 2.3 C 0 km/h
2207 22-01-2010 09:36:02 2.5 C 4.37 g/m*3 2.5 C 0 km/h
2208 22-01-2010 09:48:01 2.6 C 4.34 g/m*3 2.6 C 0 km/h
2209 22-01-2010 10:00:01 2.8 C 4.4 g/m*3 2.8 C 0 km/h
2210 22-01-2010 10:12:02 2.8 C 4.16 g/m*3 2.8 C 0 km/h
2211 22-01-2010 10:24:01 3 C 4.16 g/m*3 3 C 0 km/h
2212 22-01-2010 10:36:01 3.1 C 4.07 g/m*3 3.1 C 0 km/h
2213 22-01-2010 10:48:01 3.2 C 4.1 g/m*3 3.2 C 0 km/h
2214 22-01-2010 11:00:01 3.5 C 4.12 g/m*3 3.5 C 0 km/h
2215 22-01-2010 11:12:02 3.8 C 4.14 g/m*3 3.8 C 0 km/h
2216 22-01-2010 11:24:02 4 C 4.07 g/m*3 4 C 0 km/h
2217 22-01-2010 11:36:01 4 C 4.01 g/m*3 4 C 0 km/h
2218 22-01-2010 11:48:02 4.2 C 4.06 g/m*3 4.2 C 0 km/h
2219 22-01-2010 12:00:02 4.1 C 3.97 g/m*3 4.1 C 0 km/h
2220 22-01-2010 12:12:01 4.2 C 3.99 g/m*3 4.2 C 0 km/h
2221 22-01-2010 12:24:02 4.4 C 4.05 g/m*3 4.4 C 0 km/h
2222 22-01-2010 12:36:01 4.7 C 4.06 g/m*3 4.7 C 0 km/h
2223 22-01-2010 12:48:02 4.9 C 4.12 g/m*3 4.9 C 0 km/h
2224 22-01-2010 13:00:02 4.9 C 4.05 g/m*3 4.9 C 0 km/h
2225 22-01-2010 13:12:02 4.9 C 4.05 g/m*3 4.9 C 0 km/h
Sensor: Nr:Datum:Temp:Abs-Feuchte:Windchill:Wind:
Aussen-T/F 2226 22-01-2010 13:24:02 4.8 C 4.09 g/m*3 4.8 C 0 km/h
2227 22-01-2010 13:36:02 4.8 C 4.16 g/m*3 4.8 C 0 km/h
2228 22-01-2010 13:48:02 4.7 C 4.06 g/m*3 4.7 C 0 km/h
2229 22-01-2010 14:00:02 4.7 C 4.13 g/m*3 4.7 C 0 km/h
2230 22-01-2010 14:12:01 4.4 C 4.05 g/m*3 4.4 C 0 km/h
2231 22-01-2010 14:24:01 4.4 C 4.11 g/m*3 4.4 C 0 km/h
2232 22-01-2010 14:36:02 4.7 C 4.26 g/m*3 4.7 C 0 km/h
2233 22-01-2010 14:48:02 4.8 C 4.16 g/m*3 4.8 C 0 km/h
2234 22-01-2010 15:00:02 4.7 C 4.13 g/m*3 4.7 C 0 km/h
2235 22-01-2010 15:12:02 4.6 C 4.17 g/m*3 4.6 C 0 km/h
2236 22-01-2010 15:24:02 4.8 C 4.16 g/m*3 4.8 C 0 km/h
2237 22-01-2010 15:36:02 4.8 C 4.16 g/m*3 4.8 C 0 km/h
2238 22-01-2010 15:48:02 4.2 C 4.06 g/m*3 4.2 C 0 km/h
2239 22-01-2010 16:00:02 3.8 C 4.14 g/m*3 3.8 C 0 km/h
2240 22-01-2010 16:12:02 3.8 C 4.27 g/m*3 3.8 C 0 km/h
2241 22-01-2010 16:24:02 3.9 C 4.29 g/m*3 3.9 C 0 km/h
2242 22-01-2010 16:36:02 3.8 C 4.27 g/m*3 3.8 C 0 km/h
2243 22-01-2010 16:48:02 3.8 C 4.33 g/m*3 3.8 C 0 km/h
2244 22-01-2010 17:00:02 3.7 C 4.36 g/m*3 3.7 C 0 km/h
2245 22-01-2010 17:12:02 3.6 C 4.33 g/m*3 3.6 C 0 km/h
2246 22-01-2010 17:24:02 3.4 C 4.28 g/m*3 3.4 C 0 km/h
2247 22-01-2010 17:36:02 3.3 C 4.25 g/m*3 3.3 C 0 km/h
2248 22-01-2010 17:48:02 3.2 C 4.22 g/m*3 3.2 C 0 km/h
2249 22-01-2010 18:00:02 3.2 C 4.28 g/m*3 3.2 C 0 km/h
2250 22-01-2010 18:12:02 3.2 C 4.22 g/m*3 3.2 C 0 km/h
Sensor: Nr:Datum:Temp:Abs-Feuchte:Windchill:Wind:
Aussen-T/F 2251 22-01-2010 18:24:03 3.1 C 4.19 g/m*3 3.1 C 0 km/h
2252 22-01-2010 18:36:02 3 C 4.16 g/m*3 3 C 0 km/h
2253 22-01-2010 18:48:02 2.9 C 4.19 g/m*3 2.9 C 0 km/h
2254 22-01-2010 19:00:02 2.7 C 4.14 g/m*3 2.7 C 0 km/h
2255 22-01-2010 19:12:02 2.5 C 4.08 g/m*3 2.5 C 0 km/h
2256 22-01-2010 19:24:02 2.3 C 4.08 g/m*3 2.3 C 0 km/h
2257 22-01-2010 19:36:02 2.3 C 4.14 g/m*3 2.3 C 0 km/h
2258 22-01-2010 19:48:02 2.3 C 4.14 g/m*3 2.3 C 0 km/h
2259 22-01-2010 20:00:02 2.3 C 4.14 g/m*3 2.3 C 0 km/h
2260 22-01-2010 20:12:02 2.4 C 4.17 g/m*3 2.4 C 0 km/h
2261 22-01-2010 20:24:02 2.3 C 4.14 g/m*3 2.3 C 0 km/h
2262 22-01-2010 20:36:02 2.4 C 4.23 g/m*3 2.4 C 0 km/h
2263 22-01-2010 20:48:02 2.3 C 4.2 g/m*3 2.3 C 0 km/h
2264 22-01-2010 21:00:02 2.3 C 4.2 g/m*3 2.3 C 0 km/h
2265 22-01-2010 21:12:01 2.3 C 4.2 g/m*3 2.3 C 0 km/h
2266 22-01-2010 21:24:02 2.3 C 4.2 g/m*3 2.3 C 0 km/h
2267 22-01-2010 21:36:02 2.3 C 4.25 g/m*3 2.3 C 0 km/h
2268 22-01-2010 21:48:01 2.4 C 4.28 g/m*3 2.4 C 0 km/h
2269 22-01-2010 22:00:02 2.3 C 4.25 g/m*3 2.3 C 0 km/h
2270 22-01-2010 22:12:01 2.3 C 4.2 g/m*3 2.3 C 0 km/h
2271 22-01-2010 22:25:02 2.3 C 4.2 g/m*3 2.3 C 0 km/h
2272 22-01-2010 22:37:02 2.3 C 4.14 g/m*3 2.3 C 0 km/h
2273 22-01-2010 22:49:02 2.3 C 4.08 g/m*3 2.3 C 0 km/h
2274 22-01-2010 23:01:02 2.3 C 4.03 g/m*3 2.3 C 0 km/h
2275 22-01-2010 23:13:02 2.3 C 4.03 g/m*3 2.3 C 0 km/h
Sensor: Nr:Datum:Temp:Abs-Feuchte:Windchill:Wind:
Aussen-T/F 2276 22-01-2010 23:25:02 2.3 C 4.03 g/m*3 2.3 C 0 km/h
2277 22-01-2010 23:37:02 2.2 C 4 g/m*3 2.2 C 0 km/h
2278 22-01-2010 23:49:02 2.2 C 3.94 g/m*3 2.2 C 0 km/h
2279 23-01-2010 00:01:02 2.2 C 3.89 g/m*3 2.2 C 0 km/h
2280 23-01-2010 00:13:02 1.8 C 3.84 g/m*3 1.8 C 0 km/h
2281 23-01-2010 00:25:02 1.5 C 3.76 g/m*3 1.5 C 0 km/h
2282 23-01-2010 00:37:02 1.2 C 3.68 g/m*3 1.2 C 0 km/h
2283 23-01-2010 00:49:02 1.1 C 3.71 g/m*3 1.1 C 0 km/h
2284 23-01-2010 01:01:02 1 C 3.69 g/m*3 1 C 0 km/h
2285 23-01-2010 01:13:02 0.9 C 3.66 g/m*3 0.9 C 0 km/h
2286 23-01-2010 01:25:02 0.8 C 3.69 g/m*3 0.8 C 0 km/h
2287 23-01-2010 01:37:02 0.7 C 3.61 g/m*3 0.7 C 0 km/h
2288 23-01-2010 01:49:03 0.6 C 3.59 g/m*3 0.6 C 0 km/h
2289 23-01-2010 02:01:03 0.5 C 3.61 g/m*3 0.5 C 0 km/h
2290 23-01-2010 02:13:03 0.4 C 3.59 g/m*3 0.4 C 0 km/h
2291 23-01-2010 02:25:03 0.5 C 3.61 g/m*3 0.5 C 0 km/h
2292 23-01-2010 02:37:03 0.4 C 3.59 g/m*3 0.4 C 0 km/h
2293 23-01-2010 02:49:03 0.4 C 3.59 g/m*3 0.4 C 0 km/h
2294 23-01-2010 03:01:03 0.4 C 3.64 g/m*3 0.4 C 0 km/h
2295 23-01-2010 03:13:03 0.4 C 3.64 g/m*3 0.4 C 0 km/h
2296 23-01-2010 03:25:03 0.4 C 3.64 g/m*3 0.4 C 0 km/h
2297 23-01-2010 03:37:03 0.3 C 3.61 g/m*3 0.3 C 0 km/h
2298 23-01-2010 03:49:03 0.2 C 3.59 g/m*3 0.2 C 0 km/h
2299 23-01-2010 04:01:03 0.1 C 3.56 g/m*3 0.1 C 0 km/h
2300 23-01-2010 04:13:03 0 C 3.59 g/m*3 0 C 0 km/h
Sensor: Nr:Datum:Temp:Abs-Feuchte:Windchill:Wind:
Aussen-T/F 2301 23-01-2010 04:25:03 -0.1 C 3.56 g/m*3 -0.1 C 0 km/h
2302 23-01-2010 04:37:03 -0.2 C 3.54 g/m*3 -0.2 C 0 km/h
2303 23-01-2010 04:49:03 -0.2 C 3.54 g/m*3 -0.2 C 0 km/h
2304 23-01-2010 05:01:03 -0.3 C 3.51 g/m*3 -0.3 C 0 km/h
2305 23-01-2010 05:13:03 -0.3 C 3.51 g/m*3 -0.3 C 0 km/h
2306 23-01-2010 05:25:03 -0.3 C 3.51 g/m*3 -0.3 C 0 km/h
2307 23-01-2010 05:37:03 -0.4 C 3.44 g/m*3 -0.4 C 0 km/h
2308 23-01-2010 05:49:03 -0.5 C 3.46 g/m*3 -0.5 C 0 km/h
2309 23-01-2010 06:01:04 -0.5 C 3.46 g/m*3 -0.5 C 0 km/h
2310 23-01-2010 06:13:04 -0.6 C 3.44 g/m*3 -0.6 C 0 km/h
2311 23-01-2010 06:25:04 -0.5 C 3.46 g/m*3 -0.5 C 0 km/h
2312 23-01-2010 06:37:04 -0.6 C 3.44 g/m*3 -0.6 C 0 km/h
2313 23-01-2010 06:49:04 -0.7 C 3.42 g/m*3 -0.7 C 0 km/h
2314 23-01-2010 07:01:04 -1 C 3.35 g/m*3 -1 C 0 km/h
2315 23-01-2010 07:13:04 -1 C 3.39 g/m*3 -1 C 0 km/h
2316 23-01-2010 07:25:04 -1 C 3.39 g/m*3 -1 C 0 km/h
2317 23-01-2010 07:37:04 -1.1 C 3.32 g/m*3 -1.1 C 0 km/h
2318 23-01-2010 07:49:04 -1.1 C 3.37 g/m*3 -1.1 C 0 km/h
2319 23-01-2010 08:01:04 -1 C 3.35 g/m*3 -1 C 0 km/h
2320 23-01-2010 08:13:04 -1.1 C 3.32 g/m*3 -1.1 C 0 km/h
2321 23-01-2010 08:25:02 -1.1 C 3.28 g/m*3 -1.1 C 0 km/h
2322 23-01-2010 08:37:02 -1.1 C 3.23 g/m*3 -1.1 C 0 km/h
2323 23-01-2010 08:49:01 -1.1 C 3.23 g/m*3 -1.1 C 0 km/h
2324 23-01-2010 09:01:02 -1 C 3.25 g/m*3 -1 C 0 km/h
2325 23-01-2010 09:13:02 -1 C 3.21 g/m*3 -1 C 0 km/h
Sensor: Nr:Datum:Temp:Abs-Feuchte:Windchill:Wind:
Aussen-T/F 2326 23-01-2010 09:25:02 -1 C 3.21 g/m*3 -1 C 0 km/h
2327 23-01-2010 09:37:02 -1.1 C 3.19 g/m*3 -1.1 C 0 km/h
2328 23-01-2010 09:49:03 -1.2 C 3.17 g/m*3 -1.2 C 0 km/h
2329 23-01-2010 10:01:03 -1.2 C 3.17 g/m*3 -1.2 C 0 km/h
2330 23-01-2010 10:13:03 -1.1 C 3.19 g/m*3 -1.1 C 0 km/h
2331 23-01-2010 10:25:02 -1.1 C 3.19 g/m*3 -1.1 C 0 km/h
2332 23-01-2010 10:37:03 -1.2 C 3.12 g/m*3 -1.2 C 0 km/h
2333 23-01-2010 10:49:02 -1 C 3.21 g/m*3 -1 C 0 km/h
2334 23-01-2010 11:01:02 -1 C 3.16 g/m*3 -1 C 0 km/h
2335 23-01-2010 11:13:02 -1 C 3.16 g/m*3 -1 C 0 km/h
2336 23-01-2010 11:25:02 -0.9 C 3.19 g/m*3 -0.9 C 0 km/h
2337 23-01-2010 11:37:02 -0.6 C 3.25 g/m*3 -0.6 C 0 km/h
2338 23-01-2010 11:49:02 -0.8 C 3.16 g/m*3 -0.8 C 0 km/h
2339 23-01-2010 12:01:03 -0.9 C 3.19 g/m*3 -0.9 C 0 km/h
2340 23-01-2010 12:13:03 -0.8 C 3.21 g/m*3 -0.8 C 0 km/h
2341 23-01-2010 12:25:02 -0.7 C 3.23 g/m*3 -0.7 C 0 km/h
2342 23-01-2010 12:37:02 -0.6 C 3.25 g/m*3 -0.6 C 0 km/h
2343 23-01-2010 12:49:01 -0.5 C 3.28 g/m*3 -0.5 C 0 km/h
2344 23-01-2010 13:01:02 -0.6 C 3.25 g/m*3 -0.6 C 0 km/h
2345 23-01-2010 13:13:02 -0.5 C 3.28 g/m*3 -0.5 C 0 km/h
2346 23-01-2010 13:25:01 -0.6 C 3.25 g/m*3 -0.6 C 0 km/h
2347 23-01-2010 13:37:02 -0.5 C 3.28 g/m*3 -0.5 C 0 km/h
2348 23-01-2010 13:49:01 -0.4 C 3.3 g/m*3 -0.4 C 0 km/h
2349 23-01-2010 14:01:02 -0.3 C 3.32 g/m*3 -0.3 C 0 km/h
2350 23-01-2010 14:13:02 -0.3 C 3.32 g/m*3 -0.3 C 0 km/h
Sensor: Nr:Datum:Temp:Abs-Feuchte:Windchill:Wind:
Aussen-T/F 2351 23-01-2010 14:25:01 -0.3 C 3.27 g/m*3 -0.3 C 0 km/h
2352 23-01-2010 14:37:02 -0.3 C 3.27 g/m*3 -0.3 C 0 km/h
2353 23-01-2010 14:49:01 -0.3 C 3.32 g/m*3 -0.3 C 0 km/h
2354 23-01-2010 15:01:02 -0.5 C 3.28 g/m*3 -0.5 C 0 km/h
2355 23-01-2010 15:13:02 -0.6 C 3.25 g/m*3 -0.6 C 0 km/h
2356 23-01-2010 15:25:02 -0.6 C 3.25 g/m*3 -0.6 C 0 km/h
2357 23-01-2010 15:37:02 -0.6 C 3.3 g/m*3 -0.6 C 0 km/h
2358 23-01-2010 15:49:02 -0.6 C 3.3 g/m*3 -0.6 C 0 km/h
2359 23-01-2010 16:01:02 -0.5 C 3.32 g/m*3 -0.5 C 0 km/h
2360 23-01-2010 16:13:02 -0.6 C 3.3 g/m*3 -0.6 C 0 km/h
2361 23-01-2010 16:25:02 -0.7 C 3.28 g/m*3 -0.7 C 0 km/h
2362 23-01-2010 16:37:01 -0.7 C 3.32 g/m*3 -0.7 C 0 km/h
2363 23-01-2010 16:49:02 -0.7 C 3.32 g/m*3 -0.7 C 0 km/h
2364 23-01-2010 17:01:01 -0.7 C 3.32 g/m*3 -0.7 C 0 km/h
2365 23-01-2010 17:13:01 -0.6 C 3.35 g/m*3 -0.6 C 0 km/h
2366 23-01-2010 17:25:02 -0.6 C 3.35 g/m*3 -0.6 C 0 km/h
2367 23-01-2010 17:37:01 -0.5 C 3.42 g/m*3 -0.5 C 0 km/h
2368 23-01-2010 17:49:02 -0.6 C 3.35 g/m*3 -0.6 C 0 km/h
2369 23-01-2010 18:01:02 -0.5 C 3.37 g/m*3 -0.5 C 0 km/h
2370 23-01-2010 18:13:02 -0.6 C 3.35 g/m*3 -0.6 C 0 km/h
2371 23-01-2010 18:25:02 -0.6 C 3.35 g/m*3 -0.6 C 0 km/h
2372 23-01-2010 18:37:03 -0.7 C 3.32 g/m*3 -0.7 C 0 km/h
2373 23-01-2010 18:49:02 -0.8 C 3.3 g/m*3 -0.8 C 0 km/h
2374 23-01-2010 19:01:01 -0.8 C 3.3 g/m*3 -0.8 C 0 km/h
2375 23-01-2010 19:13:01 -0.7 C 3.32 g/m*3 -0.7 C 0 km/h
Sensor: Nr:Datum:Temp:Abs-Feuchte:Windchill:Wind:
Aussen-T/F 2376 23-01-2010 19:25:02 -0.7 C 3.32 g/m*3 -0.7 C 0 km/h
2377 23-01-2010 19:37:02 -0.7 C 3.28 g/m*3 -0.7 C 0 km/h
2378 23-01-2010 19:49:02 -0.6 C 3.3 g/m*3 -0.6 C 0 km/h
2379 23-01-2010 20:01:03 -0.7 C 3.23 g/m*3 -0.7 C 0 km/h
2380 23-01-2010 20:13:03 -0.7 C 3.23 g/m*3 -0.7 C 0 km/h
2381 23-01-2010 20:25:02 -0.7 C 3.23 g/m*3 -0.7 C 0 km/h
2382 23-01-2010 20:37:02 -0.6 C 3.25 g/m*3 -0.6 C 0 km/h
2383 23-01-2010 20:49:02 -0.6 C 3.25 g/m*3 -0.6 C 0 km/h
2384 23-01-2010 21:01:02 -0.6 C 3.25 g/m*3 -0.6 C 0 km/h
2385 23-01-2010 21:13:02 -0.6 C 3.25 g/m*3 -0.6 C 0 km/h
2386 23-01-2010 21:25:01 -0.5 C 3.28 g/m*3 -0.5 C 0 km/h
2387 23-01-2010 21:37:02 -0.6 C 3.25 g/m*3 -0.6 C 0 km/h
2388 23-01-2010 21:49:02 -0.6 C 3.25 g/m*3 -0.6 C 0 km/h
2389 23-01-2010 22:01:02 -0.5 C 3.28 g/m*3 -0.5 C 0 km/h
2390 23-01-2010 22:13:02 -0.5 C 3.28 g/m*3 -0.5 C 0 km/h
2391 23-01-2010 22:26:02 -0.5 C 3.28 g/m*3 -0.5 C 0 km/h
2392 23-01-2010 22:38:02 -0.5 C 3.28 g/m*3 -0.5 C 0 km/h
2393 23-01-2010 22:50:02 -0.5 C 3.28 g/m*3 -0.5 C 0 km/h
2394 23-01-2010 23:02:02 -0.5 C 3.28 g/m*3 -0.5 C 0 km/h
2395 23-01-2010 23:14:02 -0.5 C 3.23 g/m*3 -0.5 C 0 km/h
2396 23-01-2010 23:26:02 -0.5 C 3.28 g/m*3 -0.5 C 0 km/h
2397 23-01-2010 23:38:02 -0.3 C 3.32 g/m*3 -0.3 C 0 km/h
2398 23-01-2010 23:50:02 -0.5 C 3.23 g/m*3 -0.5 C 0 km/h
2399 24-01-2010 00:02:02 -0.5 C 3.23 g/m*3 -0.5 C 0 km/h
2400 24-01-2010 00:14:02 -0.5 C 3.23 g/m*3 -0.5 C 0 km/h
Sensor: Nr:Datum:Temp:Abs-Feuchte:Windchill:Wind:
Aussen-T/F 2401 24-01-2010 00:26:02 -0.5 C 3.23 g/m*3 -0.5 C 0 km/h
2402 24-01-2010 00:38:02 -0.5 C 3.23 g/m*3 -0.5 C 0 km/h
2403 24-01-2010 00:50:02 -0.5 C 3.28 g/m*3 -0.5 C 0 km/h
2404 24-01-2010 01:02:02 -0.5 C 3.23 g/m*3 -0.5 C 0 km/h
2405 24-01-2010 01:14:03 -0.5 C 3.23 g/m*3 -0.5 C 0 km/h
2406 24-01-2010 01:26:03 -0.5 C 3.23 g/m*3 -0.5 C 0 km/h
2407 24-01-2010 01:38:03 -0.5 C 3.23 g/m*3 -0.5 C 0 km/h
2408 24-01-2010 01:50:03 -0.5 C 3.28 g/m*3 -0.5 C 0 km/h
2409 24-01-2010 02:02:03 -0.5 C 3.23 g/m*3 -0.5 C 0 km/h
2410 24-01-2010 02:14:03 -0.5 C 3.23 g/m*3 -0.5 C 0 km/h
2411 24-01-2010 02:26:03 -0.5 C 3.23 g/m*3 -0.5 C 0 km/h
2412 24-01-2010 02:38:03 -0.3 C 3.32 g/m*3 -0.3 C 0 km/h
2413 24-01-2010 02:50:03 -0.5 C 3.28 g/m*3 -0.5 C 0 km/h
2414 24-01-2010 03:02:03 -0.6 C 3.35 g/m*3 -0.6 C 0 km/h
2415 24-01-2010 03:14:03 -0.6 C 3.39 g/m*3 -0.6 C 0 km/h
2416 24-01-2010 03:26:03 -0.5 C 3.46 g/m*3 -0.5 C 0 km/h
2417 24-01-2010 03:38:03 -0.6 C 3.44 g/m*3 -0.6 C 0 km/h
2418 24-01-2010 03:50:03 -0.6 C 3.49 g/m*3 -0.6 C 0 km/h
2419 24-01-2010 04:02:03 -0.6 C 3.53 g/m*3 -0.6 C 0 km/h
2420 24-01-2010 04:14:03 -0.6 C 3.58 g/m*3 -0.6 C 0 km/h
2421 24-01-2010 04:26:03 -0.5 C 3.65 g/m*3 -0.5 C 0 km/h
2422 24-01-2010 04:38:03 -0.4 C 3.68 g/m*3 -0.4 C 0 km/h
2423 24-01-2010 04:50:03 -0.3 C 3.7 g/m*3 -0.3 C 0 km/h
2424 24-01-2010 05:02:03 -0.3 C 3.75 g/m*3 -0.3 C 0 km/h
2425 24-01-2010 05:14:03 -0.3 C 3.75 g/m*3 -0.3 C 0 km/h
Sensor: Nr:Datum:Temp:Abs-Feuchte:Windchill:Wind:
Aussen-T/F 2426 24-01-2010 05:26:04 -0.3 C 3.8 g/m*3 -0.3 C 0 km/h
2427 24-01-2010 05:38:04 -0.3 C 3.8 g/m*3 -0.3 C 0 km/h
2428 24-01-2010 05:50:04 -0.3 C 3.8 g/m*3 -0.3 C 0 km/h
2429 24-01-2010 06:02:04 -0.4 C 3.82 g/m*3 -0.4 C 0 km/h
2430 24-01-2010 06:14:04 -0.5 C 3.79 g/m*3 -0.5 C 0 km/h
2431 24-01-2010 06:26:04 -0.4 C 3.86 g/m*3 -0.4 C 0 km/h
2432 24-01-2010 06:38:04 -0.4 C 3.86 g/m*3 -0.4 C 0 km/h
2433 24-01-2010 06:50:04 -0.4 C 3.86 g/m*3 -0.4 C 0 km/h
2434 24-01-2010 07:02:04 -0.4 C 3.86 g/m*3 -0.4 C 0 km/h
2435 24-01-2010 07:14:04 -0.5 C 3.88 g/m*3 -0.5 C 0 km/h
2436 24-01-2010 07:26:04 -0.4 C 3.91 g/m*3 -0.4 C 0 km/h
2437 24-01-2010 07:38:04 -0.5 C 3.88 g/m*3 -0.5 C 0 km/h
2438 24-01-2010 07:50:04 -0.5 C 3.93 g/m*3 -0.5 C 0 km/h
2439 24-01-2010 08:02:04 -0.6 C 3.9 g/m*3 -0.6 C 0 km/h
2440 24-01-2010 08:14:04 -0.5 C 3.98 g/m*3 -0.5 C 0 km/h
2441 24-01-2010 08:26:04 -0.4 C 4.01 g/m*3 -0.4 C 0 km/h
2442 24-01-2010 08:38:04 -0.4 C 4.01 g/m*3 -0.4 C 0 km/h
2443 24-01-2010 08:50:04 -0.4 C 4.05 g/m*3 -0.4 C 0 km/h
2444 24-01-2010 09:02:01 -0.4 C 4.05 g/m*3 -0.4 C 0 km/h
2445 24-01-2010 09:14:01 -0.3 C 4.08 g/m*3 -0.3 C 0 km/h
2446 24-01-2010 09:26:02 -0.3 C 4.08 g/m*3 -0.3 C 0 km/h
2447 24-01-2010 09:38:02 -0.2 C 4.11 g/m*3 -0.2 C 0 km/h
2448 24-01-2010 09:50:02 -0.1 C 4.14 g/m*3 -0.1 C 0 km/h
2449 24-01-2010 10:02:01 0.1 C 4.2 g/m*3 0.1 C 0 km/h
2450 24-01-2010 10:14:01 0.2 C 4.22 g/m*3 0.2 C 0 km/h
Sensor: Nr:Datum:Temp:Abs-Feuchte:Windchill:Wind:
Aussen-T/F 2451 24-01-2010 10:26:02 0.2 C 4.22 g/m*3 0.2 C 0 km/h
2452 24-01-2010 10:38:01 0.3 C 4.2 g/m*3 0.3 C 0 km/h
2453 24-01-2010 10:50:02 0.5 C 4.26 g/m*3 0.5 C 0 km/h
2454 24-01-2010 11:02:02 0.5 C 4.26 g/m*3 0.5 C 0 km/h
2455 24-01-2010 11:14:02 0.7 C 4.27 g/m*3 0.7 C 0 km/h
2456 24-01-2010 11:26:02 0.9 C 4.33 g/m*3 0.9 C 0 km/h
2457 24-01-2010 11:38:02 0.9 C 4.28 g/m*3 0.9 C 0 km/h
2458 24-01-2010 11:50:02 0.9 C 4.23 g/m*3 0.9 C 0 km/h
2459 24-01-2010 12:02:02 0.8 C 4.15 g/m*3 0.8 C 0 km/h
2460 24-01-2010 12:14:02 0.8 C 4.15 g/m*3 0.8 C 0 km/h
2461 24-01-2010 12:26:02 0.8 C 4.15 g/m*3 0.8 C 0 km/h
2462 24-01-2010 12:38:02 1 C 4.2 g/m*3 1 C 0 km/h
2463 24-01-2010 12:50:02 1.1 C 4.23 g/m*3 1.1 C 0 km/h
2464 24-01-2010 13:02:01 1.1 C 4.23 g/m*3 1.1 C 0 km/h
2465 24-01-2010 13:14:01 1.2 C 4.31 g/m*3 1.2 C 0 km/h
2466 24-01-2010 13:26:02 1.2 C 4.31 g/m*3 1.2 C 0 km/h
2467 24-01-2010 13:38:01 1.4 C 4.43 g/m*3 1.4 C 0 km/h
2468 24-01-2010 13:50:01 1.4 C 4.43 g/m*3 1.4 C 0 km/h
2469 24-01-2010 14:02:01 1.6 C 4.49 g/m*3 1.6 C 0 km/h
2470 24-01-2010 14:14:01 1.7 C 4.52 g/m*3 1.7 C 0 km/h
2471 24-01-2010 14:26:01 1.6 C 4.49 g/m*3 1.6 C 0 km/h
2472 24-01-2010 14:38:02 1.7 C 4.52 g/m*3 1.7 C 0 km/h
2473 24-01-2010 14:50:02 1.5 C 4.4 g/m*3 1.5 C 0 km/h
2474 24-01-2010 15:02:02 1.4 C 4.37 g/m*3 1.4 C 0 km/h
2475 24-01-2010 15:14:02 1.1 C 4.29 g/m*3 1.1 C 0 km/h
Sensor: Nr:Datum:Temp:Abs-Feuchte:Windchill:Wind:
Aussen-T/F 2476 24-01-2010 15:26:02 1.3 C 4.4 g/m*3 1.3 C 0 km/h
2477 24-01-2010 15:38:02 1.3 C 4.4 g/m*3 1.3 C 0 km/h
2478 24-01-2010 15:50:02 1.3 C 4.4 g/m*3 1.3 C 0 km/h
2479 24-01-2010 16:02:02 1.3 C 4.45 g/m*3 1.3 C 0 km/h
2480 24-01-2010 16:14:02 1.2 C 4.42 g/m*3 1.2 C 0 km/h
2481 24-01-2010 16:26:02 1.3 C 4.45 g/m*3 1.3 C 0 km/h
2482 24-01-2010 16:38:02 1.3 C 4.45 g/m*3 1.3 C 0 km/h
2483 24-01-2010 16:50:01 1.2 C 4.42 g/m*3 1.2 C 0 km/h
2484 24-01-2010 17:02:02 1.1 C 4.39 g/m*3 1.1 C 0 km/h
2485 24-01-2010 17:14:03 1 C 4.41 g/m*3 1 C 0 km/h
2486 24-01-2010 17:26:01 1 C 4.46 g/m*3 1 C 0 km/h
2487 24-01-2010 17:38:01 1 C 4.46 g/m*3 1 C 0 km/h
2488 24-01-2010 17:50:01 1 C 4.46 g/m*3 1 C 0 km/h
2489 24-01-2010 18:02:01 0.9 C 4.48 g/m*3 0.9 C 0 km/h
2490 24-01-2010 18:14:01 0.7 C 4.37 g/m*3 0.7 C 0 km/h
2491 24-01-2010 18:26:02 0.7 C 4.37 g/m*3 0.7 C 0 km/h
2492 24-01-2010 18:38:01 0.6 C 4.39 g/m*3 0.6 C 0 km/h
2493 24-01-2010 18:50:01 0.6 C 4.39 g/m*3 0.6 C 0 km/h
2494 24-01-2010 19:02:01 0.5 C 4.36 g/m*3 0.5 C 0 km/h
2495 24-01-2010 19:14:01 0.6 C 4.44 g/m*3 0.6 C 0 km/h
2496 24-01-2010 19:26:01 0.6 C 4.44 g/m*3 0.6 C 0 km/h
2497 24-01-2010 19:38:01 0.6 C 4.44 g/m*3 0.6 C 0 km/h
2498 24-01-2010 19:50:01 0.5 C 4.41 g/m*3 0.5 C 0 km/h
2499 24-01-2010 20:02:02 0.5 C 4.41 g/m*3 0.5 C 0 km/h
2500 24-01-2010 20:14:03 0.5 C 4.46 g/m*3 0.5 C 0 km/h
Sensor: Nr:Datum:Temp:Abs-Feuchte:Windchill:Wind:
Aussen-T/F 2501 24-01-2010 20:26:01 0.6 C 4.49 g/m*3 0.6 C 0 km/h
2502 24-01-2010 20:38:01 0.6 C 4.49 g/m*3 0.6 C 0 km/h
2503 24-01-2010 20:50:01 0.5 C 4.41 g/m*3 0.5 C 0 km/h
2504 24-01-2010 21:02:02 0.5 C 4.46 g/m*3 0.5 C 0 km/h
2505 24-01-2010 21:14:02 0.5 C 4.41 g/m*3 0.5 C 0 km/h
2506 24-01-2010 21:26:02 0.4 C 4.38 g/m*3 0.4 C 0 km/h
2507 24-01-2010 21:38:01 0.4 C 4.38 g/m*3 0.4 C 0 km/h
2508 24-01-2010 21:50:01 0.4 C 4.43 g/m*3 0.4 C 0 km/h
2509 24-01-2010 22:02:01 0.2 C 4.37 g/m*3 0.2 C 0 km/h
2510 24-01-2010 22:14:01 0.2 C 4.37 g/m*3 0.2 C 0 km/h
2511 24-01-2010 22:26:02 0.2 C 4.37 g/m*3 0.2 C 0 km/h
2512 24-01-2010 22:38:01 0.2 C 4.37 g/m*3 0.2 C 0 km/h
2513 24-01-2010 22:50:01 0.2 C 4.37 g/m*3 0.2 C 0 km/h
2514 24-01-2010 23:02:01 0.2 C 4.42 g/m*3 0.2 C 0 km/h
2515 24-01-2010 23:14:01 0.1 C 4.39 g/m*3 0.1 C 0 km/h
2516 24-01-2010 23:27:02 0.1 C 4.39 g/m*3 0.1 C 0 km/h
2517 24-01-2010 23:39:02 0.1 C 4.44 g/m*3 0.1 C 0 km/h
2518 24-01-2010 23:51:02 0.1 C 4.44 g/m*3 0.1 C 0 km/h
2519 25-01-2010 00:03:02 0.1 C 4.44 g/m*3 0.1 C 0 km/h
2520 25-01-2010 00:15:02 0.1 C 4.44 g/m*3 0.1 C 0 km/h
2521 25-01-2010 00:27:02 0.1 C 4.44 g/m*3 0.1 C 0 km/h
2522 25-01-2010 00:39:02 0.1 C 4.44 g/m*3 0.1 C 0 km/h
2523 25-01-2010 00:51:02 0.1 C 4.44 g/m*3 0.1 C 0 km/h
2524 25-01-2010 01:03:02 0.1 C 4.44 g/m*3 0.1 C 0 km/h
2525 25-01-2010 01:15:02 0.1 C 4.44 g/m*3 0.1 C 0 km/h
Sensor: Nr:Datum:Temp:Abs-Feuchte:Windchill:Wind:
Aussen-T/F 2526 25-01-2010 01:27:02 0.1 C 4.44 g/m*3 0.1 C 0 km/h
2527 25-01-2010 01:39:02 0 C 4.41 g/m*3 0 C 0 km/h
2528 25-01-2010 01:51:02 0 C 4.46 g/m*3 0 C 0 km/h
2529 25-01-2010 02:03:02 0 C 4.46 g/m*3 0 C 0 km/h
2530 25-01-2010 02:15:02 0 C 4.46 g/m*3 0 C 0 km/h
2531 25-01-2010 02:27:02 0 C 4.46 g/m*3 0 C 0 km/h
2532 25-01-2010 02:39:03 0 C 4.46 g/m*3 0 C 0 km/h
2533 25-01-2010 02:51:03 0 C 4.46 g/m*3 0 C 0 km/h
2534 25-01-2010 03:03:03 0 C 4.46 g/m*3 0 C 0 km/h
2535 25-01-2010 03:15:03 -0.1 C 4.43 g/m*3 -0.1 C 0 km/h
2536 25-01-2010 03:27:03 -0.1 C 4.43 g/m*3 -0.1 C 0 km/h
2537 25-01-2010 03:39:03 -0.1 C 4.43 g/m*3 -0.1 C 0 km/h
2538 25-01-2010 03:51:03 -0.1 C 4.43 g/m*3 -0.1 C 0 km/h
2539 25-01-2010 04:03:03 -0.1 C 4.43 g/m*3 -0.1 C 0 km/h
2540 25-01-2010 04:15:03 -0.1 C 4.38 g/m*3 -0.1 C 0 km/h
2541 25-01-2010 04:27:03 -0.1 C 4.38 g/m*3 -0.1 C 0 km/h
2542 25-01-2010 04:39:03 -0.1 C 4.38 g/m*3 -0.1 C 0 km/h
2543 25-01-2010 04:51:03 -0.2 C 4.35 g/m*3 -0.2 C 0 km/h
2544 25-01-2010 05:03:03 -0.2 C 4.35 g/m*3 -0.2 C 0 km/h
2545 25-01-2010 05:15:03 -0.2 C 4.35 g/m*3 -0.2 C 0 km/h
2546 25-01-2010 05:27:03 -0.2 C 4.35 g/m*3 -0.2 C 0 km/h
2547 25-01-2010 05:39:03 -0.2 C 4.35 g/m*3 -0.2 C 0 km/h
2548 25-01-2010 05:51:03 -0.2 C 4.35 g/m*3 -0.2 C 0 km/h
2549 25-01-2010 06:03:03 -0.3 C 4.27 g/m*3 -0.3 C 0 km/h
2550 25-01-2010 06:15:03 -0.3 C 4.27 g/m*3 -0.3 C 0 km/h
Sensor: Nr:Datum:Temp:Abs-Feuchte:Windchill:Wind:
Aussen-T/F 2551 25-01-2010 06:27:03 -0.3 C 4.27 g/m*3 -0.3 C 0 km/h
2552 25-01-2010 06:39:04 -0.3 C 4.27 g/m*3 -0.3 C 0 km/h
2553 25-01-2010 06:51:04 -0.3 C 4.27 g/m*3 -0.3 C 0 km/h
2554 25-01-2010 07:03:01 -0.3 C 4.27 g/m*3 -0.3 C 0 km/h
2555 25-01-2010 07:15:02 -0.3 C 4.22 g/m*3 -0.3 C 0 km/h
2556 25-01-2010 07:27:02 -0.4 C 4.19 g/m*3 -0.4 C 0 km/h
2557 25-01-2010 07:39:01 -0.5 C 4.17 g/m*3 -0.5 C 0 km/h
2558 25-01-2010 07:51:03 -0.5 C 4.17 g/m*3 -0.5 C 0 km/h
2559 25-01-2010 08:03:02 -0.6 C 4.14 g/m*3 -0.6 C 0 km/h
2560 25-01-2010 08:15:02 -0.7 C 4.11 g/m*3 -0.7 C 0 km/h
2561 25-01-2010 08:27:03 -0.7 C 4.11 g/m*3 -0.7 C 0 km/h
2562 25-01-2010 08:39:02 -0.7 C 4.11 g/m*3 -0.7 C 0 km/h
2563 25-01-2010 08:51:02 -0.6 C 4.14 g/m*3 -0.6 C 0 km/h
2564 25-01-2010 09:03:02 -0.3 C 4.18 g/m*3 -0.3 C 0 km/h
2565 25-01-2010 09:15:02 -0.3 C 4.18 g/m*3 -0.3 C 0 km/h
2566 25-01-2010 09:27:02 -0.3 C 4.18 g/m*3 -0.3 C 0 km/h
2567 25-01-2010 09:39:02 -0.3 C 4.13 g/m*3 -0.3 C 0 km/h
2568 25-01-2010 09:51:02 -0.3 C 4.08 g/m*3 -0.3 C 0 km/h
2569 25-01-2010 10:03:03 -0.2 C 4.01 g/m*3 -0.2 C 0 km/h
2570 25-01-2010 10:15:02 -0.1 C 4.04 g/m*3 -0.1 C 0 km/h
2571 25-01-2010 10:27:02 0 C 4.02 g/m*3 0 C 0 km/h
2572 25-01-2010 10:39:02 0.1 C 4.05 g/m*3 0.1 C 0 km/h
2573 25-01-2010 10:51:01 0.2 C 4.08 g/m*3 0.2 C 0 km/h
2574 25-01-2010 11:03:02 0.3 C 4.06 g/m*3 0.3 C 0 km/h
2575 25-01-2010 11:15:01 0.4 C 4.13 g/m*3 0.4 C 0 km/h
Sensor: Nr:Datum:Temp:Abs-Feuchte:Windchill:Wind:
Aussen-T/F 2576 25-01-2010 11:27:01 0.4 C 4.08 g/m*3 0.4 C 0 km/h
2577 25-01-2010 11:39:02 0.4 C 4.03 g/m*3 0.4 C 0 km/h
2578 25-01-2010 11:51:01 0.6 C 4.09 g/m*3 0.6 C 0 km/h
2579 25-01-2010 12:03:02 0.7 C 4.12 g/m*3 0.7 C 0 km/h
2580 25-01-2010 12:15:01 0.9 C 4.12 g/m*3 0.9 C 0 km/h
2581 25-01-2010 12:27:01 1.2 C 4.16 g/m*3 1.2 C 0 km/h
2582 25-01-2010 12:39:02 1.2 C 4.05 g/m*3 1.2 C 0 km/h
2583 25-01-2010 12:51:01 1.1 C 3.87 g/m*3 1.1 C 0 km/h
2584 25-01-2010 13:03:02 1 C 3.84 g/m*3 1 C 0 km/h
2585 25-01-2010 13:15:02 1 C 3.84 g/m*3 1 C 0 km/h
2586 25-01-2010 13:27:02 0.9 C 3.87 g/m*3 0.9 C 0 km/h
2587 25-01-2010 13:39:01 1 C 3.84 g/m*3 1 C 0 km/h
2588 25-01-2010 13:51:02 1.2 C 3.95 g/m*3 1.2 C 0 km/h
2589 25-01-2010 14:03:01 1.2 C 3.95 g/m*3 1.2 C 0 km/h
2590 25-01-2010 14:15:02 1.2 C 3.95 g/m*3 1.2 C 0 km/h
2591 25-01-2010 14:27:03 1.1 C 3.92 g/m*3 1.1 C 0 km/h
2592 25-01-2010 14:39:01 1.1 C 3.92 g/m*3 1.1 C 0 km/h
2593 25-01-2010 14:51:02 1 C 3.94 g/m*3 1 C 0 km/h
2594 25-01-2010 15:03:02 1 C 3.94 g/m*3 1 C 0 km/h
2595 25-01-2010 15:15:02 1 C 3.94 g/m*3 1 C 0 km/h
2596 25-01-2010 15:27:02 0.8 C 3.99 g/m*3 0.8 C 0 km/h
2597 25-01-2010 15:39:02 1 C 4.05 g/m*3 1 C 0 km/h
2598 25-01-2010 15:51:02 1.1 C 4.13 g/m*3 1.1 C 0 km/h
2599 25-01-2010 16:03:01 1 C 4.1 g/m*3 1 C 0 km/h
2600 25-01-2010 16:15:02 0.9 C 4.18 g/m*3 0.9 C 0 km/h
Sensor: Nr:Datum:Temp:Abs-Feuchte:Windchill:Wind:
Aussen-T/F 2601 25-01-2010 16:27:02 0.7 C 4.12 g/m*3 0.7 C 0 km/h
2602 25-01-2010 16:39:02 0.7 C 4.17 g/m*3 0.7 C 0 km/h
2603 25-01-2010 16:51:02 0.7 C 4.17 g/m*3 0.7 C 0 km/h
2604 25-01-2010 17:03:01 0.6 C 4.14 g/m*3 0.6 C 0 km/h
2605 25-01-2010 17:15:01 0.5 C 4.11 g/m*3 0.5 C 0 km/h
2606 25-01-2010 17:27:01 0.4 C 4.08 g/m*3 0.4 C 0 km/h
2607 25-01-2010 17:39:02 0.3 C 4.11 g/m*3 0.3 C 0 km/h
2608 25-01-2010 17:51:02 0.2 C 4.13 g/m*3 0.2 C 0 km/h
2609 25-01-2010 18:03:03 0.2 C 4.13 g/m*3 0.2 C 0 km/h
2610 25-01-2010 18:15:02 0.2 C 4.22 g/m*3 0.2 C 0 km/h
2611 25-01-2010 18:27:02 0 C 4.22 g/m*3 0 C 0 km/h
2612 25-01-2010 18:39:01 0 C 4.26 g/m*3 0 C 0 km/h
2613 25-01-2010 18:51:02 -0.2 C 4.21 g/m*3 -0.2 C 0 km/h
2614 25-01-2010 19:03:01 -0.4 C 4.19 g/m*3 -0.4 C 0 km/h
2615 25-01-2010 19:15:02 -0.5 C 4.21 g/m*3 -0.5 C 0 km/h
2616 25-01-2010 19:27:02 -0.5 C 4.21 g/m*3 -0.5 C 0 km/h
2617 25-01-2010 19:39:02 -0.5 C 4.26 g/m*3 -0.5 C 0 km/h
2618 25-01-2010 19:51:02 -0.6 C 4.23 g/m*3 -0.6 C 0 km/h
2619 25-01-2010 20:03:03 -0.5 C 4.26 g/m*3 -0.5 C 0 km/h
2620 25-01-2010 20:15:02 -0.6 C 4.23 g/m*3 -0.6 C 0 km/h
2621 25-01-2010 20:27:02 -0.6 C 4.23 g/m*3 -0.6 C 0 km/h
2622 25-01-2010 20:39:02 -0.7 C 4.2 g/m*3 -0.7 C 0 km/h
2623 25-01-2010 20:51:01 -0.8 C 4.17 g/m*3 -0.8 C 0 km/h
2624 25-01-2010 21:03:02 -0.7 C 4.2 g/m*3 -0.7 C 0 km/h
2625 25-01-2010 21:15:01 -0.6 C 4.23 g/m*3 -0.6 C 0 km/h
Sensor: Nr:Datum:Temp:Abs-Feuchte:Windchill:Wind:
Aussen-T/F 2626 25-01-2010 21:27:01 -0.7 C 4.15 g/m*3 -0.7 C 0 km/h
2627 25-01-2010 21:39:02 -0.7 C 4.15 g/m*3 -0.7 C 0 km/h
2628 25-01-2010 21:51:02 -0.8 C 4.08 g/m*3 -0.8 C 0 km/h
2629 25-01-2010 22:03:02 -0.7 C 4.11 g/m*3 -0.7 C 0 km/h
2630 25-01-2010 22:15:02 -0.6 C 4.14 g/m*3 -0.6 C 0 km/h
2631 25-01-2010 22:27:02 -0.8 C 4.03 g/m*3 -0.8 C 0 km/h
2632 25-01-2010 22:40:03 -0.7 C 4.06 g/m*3 -0.7 C 0 km/h
2633 25-01-2010 22:52:03 -0.9 C 4.01 g/m*3 -0.9 C 0 km/h
2634 25-01-2010 23:04:03 -0.9 C 3.96 g/m*3 -0.9 C 0 km/h
2635 25-01-2010 23:16:03 -0.8 C 4.03 g/m*3 -0.8 C 0 km/h
2636 25-01-2010 23:28:03 -0.9 C 3.96 g/m*3 -0.9 C 0 km/h
2637 25-01-2010 23:40:03 -1 C 3.93 g/m*3 -1 C 0 km/h
2638 25-01-2010 23:52:03 -1 C 3.93 g/m*3 -1 C 0 km/h
2639 26-01-2010 00:04:03 -1.1 C 3.91 g/m*3 -1.1 C 0 km/h
2640 26-01-2010 00:16:03 -1.1 C 3.91 g/m*3 -1.1 C 0 km/h
2641 26-01-2010 00:28:03 -1.1 C 3.91 g/m*3 -1.1 C 0 km/h
2642 26-01-2010 00:40:03 -1.1 C 3.91 g/m*3 -1.1 C 0 km/h
2643 26-01-2010 00:52:03 -1.4 C 3.82 g/m*3 -1.4 C 0 km/h
2644 26-01-2010 01:04:03 -1.5 C 3.84 g/m*3 -1.5 C 0 km/h
2645 26-01-2010 01:16:03 -1.6 C 3.81 g/m*3 -1.6 C 0 km/h
2646 26-01-2010 01:28:03 -1.4 C 3.87 g/m*3 -1.4 C 0 km/h
2647 26-01-2010 01:40:04 -1.7 C 3.79 g/m*3 -1.7 C 0 km/h
2648 26-01-2010 01:52:04 -1.6 C 3.81 g/m*3 -1.6 C 0 km/h
2649 26-01-2010 02:04:04 -1.5 C 3.84 g/m*3 -1.5 C 0 km/h
2650 26-01-2010 02:16:04 -1.7 C 3.79 g/m*3 -1.7 C 0 km/h
Sensor: Nr:Datum:Temp:Abs-Feuchte:Windchill:Wind:
Aussen-T/F 2651 26-01-2010 02:28:04 -1.8 C 3.76 g/m*3 -1.8 C 0 km/h
2652 26-01-2010 02:40:04 -1.8 C 3.76 g/m*3 -1.8 C 0 km/h
2653 26-01-2010 02:52:04 -1.9 C 3.74 g/m*3 -1.9 C 0 km/h
2654 26-01-2010 03:04:04 -1.7 C 3.79 g/m*3 -1.7 C 0 km/h
2655 26-01-2010 03:16:04 -1.7 C 3.79 g/m*3 -1.7 C 0 km/h
2656 26-01-2010 03:28:04 -1.8 C 3.76 g/m*3 -1.8 C 0 km/h
2657 26-01-2010 03:40:04 -2.1 C 3.68 g/m*3 -2.1 C 0 km/h
2658 26-01-2010 03:52:04 -2 C 3.75 g/m*3 -2 C 0 km/h
2659 26-01-2010 04:04:04 -2.1 C 3.73 g/m*3 -2.1 C 0 km/h
2660 26-01-2010 04:16:04 -2.1 C 3.73 g/m*3 -2.1 C 0 km/h
2661 26-01-2010 04:28:04 -2.1 C 3.73 g/m*3 -2.1 C 0 km/h
2662 26-01-2010 04:40:04 -2.2 C 3.66 g/m*3 -2.2 C 0 km/h
2663 26-01-2010 04:52:04 -2.2 C 3.66 g/m*3 -2.2 C 0 km/h
2664 26-01-2010 05:04:04 -2.2 C 3.66 g/m*3 -2.2 C 0 km/h
2665 26-01-2010 05:16:04 -2.1 C 3.68 g/m*3 -2.1 C 0 km/h
2666 26-01-2010 05:28:04 -2.2 C 3.66 g/m*3 -2.2 C 0 km/h
2667 26-01-2010 05:40:05 -2.1 C 3.68 g/m*3 -2.1 C 0 km/h
2668 26-01-2010 05:52:05 -2.3 C 3.59 g/m*3 -2.3 C 0 km/h
2669 26-01-2010 06:04:05 -2.3 C 3.59 g/m*3 -2.3 C 0 km/h
2670 26-01-2010 06:16:05 -2.3 C 3.59 g/m*3 -2.3 C 0 km/h
2671 26-01-2010 06:28:05 -2.3 C 3.59 g/m*3 -2.3 C 0 km/h
2672 26-01-2010 06:40:05 -2.4 C 3.57 g/m*3 -2.4 C 0 km/h
2673 26-01-2010 06:52:05 -2.4 C 3.57 g/m*3 -2.4 C 0 km/h
2674 26-01-2010 07:04:02 -2.3 C 3.59 g/m*3 -2.3 C 0 km/h
2675 26-01-2010 07:16:02 -2.2 C 3.62 g/m*3 -2.2 C 0 km/h
Sensor: Nr:Datum:Temp:Abs-Feuchte:Windchill:Wind:
Aussen-T/F 2676 26-01-2010 07:28:02 -2.1 C 3.64 g/m*3 -2.1 C 0 km/h
2677 26-01-2010 07:40:02 -2.1 C 3.6 g/m*3 -2.1 C 0 km/h
2678 26-01-2010 07:52:02 -2.1 C 3.56 g/m*3 -2.1 C 0 km/h
2679 26-01-2010 08:04:02 -2.1 C 3.52 g/m*3 -2.1 C 0 km/h
2680 26-01-2010 08:16:02 -2.7 C 3.21 g/m*3 -2.7 C 0 km/h
2681 26-01-2010 08:28:02 -2.8 C 3.11 g/m*3 -2.8 C 0 km/h
2682 26-01-2010 08:40:02 -3 C 2.99 g/m*3 -3 C 0 km/h
2683 26-01-2010 08:52:02 -3.3 C 2.81 g/m*3 -3.3 C 0 km/h
2684 26-01-2010 09:04:02 -3.3 C 2.81 g/m*3 -3.3 C 0 km/h
2685 26-01-2010 09:16:02 -3.3 C 2.77 g/m*3 -3.3 C 0 km/h
2686 26-01-2010 09:28:02 -3.3 C 2.73 g/m*3 -3.3 C 0 km/h
2687 26-01-2010 09:40:02 -3.8 C 2.49 g/m*3 -3.8 C 0 km/h
2688 26-01-2010 09:52:02 -3.9 C 2.47 g/m*3 -3.9 C 0 km/h
2689 26-01-2010 10:04:02 -3.7 C 2.47 g/m*3 -3.7 C 0 km/h
2690 26-01-2010 10:16:02 -3.5 C 2.46 g/m*3 -3.5 C 0 km/h
2691 26-01-2010 10:28:02 -3.5 C 2.39 g/m*3 -3.5 C 0 km/h
2692 26-01-2010 10:40:02 -3.2 C 2.44 g/m*3 -3.2 C 0 km/h
2693 26-01-2010 10:52:01 -3.2 C 2.4 g/m*3 -3.2 C 0 km/h
2694 26-01-2010 11:04:01 -3.3 C 2.31 g/m*3 -3.3 C 0 km/h
2695 26-01-2010 11:16:02 -3.4 C 2.29 g/m*3 -3.4 C 0 km/h
2696 26-01-2010 11:28:02 -3.1 C 2.38 g/m*3 -3.1 C 0 km/h
2697 26-01-2010 11:40:01 -2.8 C 2.43 g/m*3 -2.8 C 0 km/h
2698 26-01-2010 11:52:02 -2.7 C 2.45 g/m*3 -2.7 C 0 km/h
2699 26-01-2010 12:04:02 -2.9 C 2.37 g/m*3 -2.9 C 0 km/h
2700 26-01-2010 12:16:03 -2.7 C 2.41 g/m*3 -2.7 C 0 km/h
Sensor: Nr:Datum:Temp:Abs-Feuchte:Windchill:Wind:
Aussen-T/F 2701 26-01-2010 12:28:03 -2.7 C 2.37 g/m*3 -2.7 C 0 km/h
2702 26-01-2010 12:40:02 -2.5 C 2.36 g/m*3 -2.5 C 0 km/h
2703 26-01-2010 12:52:03 -2.5 C 2.36 g/m*3 -2.5 C 0 km/h
2704 26-01-2010 13:04:02 -3 C 2.24 g/m*3 -3 C 0 km/h
2705 26-01-2010 13:16:02 -3 C 2.24 g/m*3 -3 C 0 km/h
2706 26-01-2010 13:28:02 -2.5 C 2.36 g/m*3 -2.5 C 0 km/h
2707 26-01-2010 13:40:02 -2.1 C 2.34 g/m*3 -2.1 C 0 km/h
2708 26-01-2010 13:52:02 -1.7 C 2.37 g/m*3 -1.7 C 0 km/h
2709 26-01-2010 14:04:02 -1.4 C 2.37 g/m*3 -1.4 C 0 km/h
2710 26-01-2010 14:16:02 -1.1 C 2.38 g/m*3 -1.1 C 0 km/h
2711 26-01-2010 14:28:02 -0.9 C 2.37 g/m*3 -0.9 C 0 km/h
2712 26-01-2010 14:40:01 -0.9 C 2.32 g/m*3 -0.9 C 0 km/h
2713 26-01-2010 14:52:02 -1.1 C 2.29 g/m*3 -1.1 C 0 km/h
2714 26-01-2010 15:04:01 -1 C 2.35 g/m*3 -1 C 0 km/h
2715 26-01-2010 15:16:02 -0.7 C 2.4 g/m*3 -0.7 C 0 km/h
2716 26-01-2010 15:28:02 -1.1 C 2.29 g/m*3 -1.1 C 0 km/h
2717 26-01-2010 15:40:02 -1.4 C 2.29 g/m*3 -1.4 C 0 km/h
2718 26-01-2010 15:52:02 -1.6 C 2.34 g/m*3 -1.6 C 0 km/h
2719 26-01-2010 16:04:02 -1.9 C 2.33 g/m*3 -1.9 C 0 km/h
2720 26-01-2010 16:16:02 -2.1 C 2.34 g/m*3 -2.1 C 0 km/h
2721 26-01-2010 16:28:02 -2.4 C 2.34 g/m*3 -2.4 C 0 km/h
2722 26-01-2010 16:40:03 -2.8 C 2.31 g/m*3 -2.8 C 0 km/h
2723 26-01-2010 16:52:02 -3 C 2.32 g/m*3 -3 C 0 km/h
2724 26-01-2010 17:04:02 -3.3 C 2.31 g/m*3 -3.3 C 0 km/h
2725 26-01-2010 17:16:01 -3.5 C 2.31 g/m*3 -3.5 C 0 km/h
Sensor: Nr:Datum:Temp:Abs-Feuchte:Windchill:Wind:
Aussen-T/F 2726 26-01-2010 17:28:01 -3.7 C 2.32 g/m*3 -3.7 C 0 km/h
2727 26-01-2010 17:40:02 -4.1 C 2.29 g/m*3 -4.1 C 0 km/h
2728 26-01-2010 17:52:02 -4.3 C 2.33 g/m*3 -4.3 C 0 km/h
2729 26-01-2010 18:04:02 -4.6 C 2.31 g/m*3 -4.6 C 0 km/h
2730 26-01-2010 18:16:02 -4.8 C 2.31 g/m*3 -4.8 C 0 km/h
2731 26-01-2010 18:28:02 -4.9 C 2.33 g/m*3 -4.9 C 0 km/h
2732 26-01-2010 18:40:02 -4.9 C 2.37 g/m*3 -4.9 C 0 km/h
2733 26-01-2010 18:52:01 -5.1 C 2.3 g/m*3 -5.1 C 0 km/h
2734 26-01-2010 19:04:02 -5.3 C 2.3 g/m*3 -5.3 C 0 km/h
2735 26-01-2010 19:16:01 -5.4 C 2.32 g/m*3 -5.4 C 0 km/h
2736 26-01-2010 19:28:01 -5.6 C 2.28 g/m*3 -5.6 C 0 km/h
2737 26-01-2010 19:40:01 -5.7 C 2.3 g/m*3 -5.7 C 0 km/h
2738 26-01-2010 19:52:01 -5.9 C 2.3 g/m*3 -5.9 C 0 km/h
2739 26-01-2010 20:04:02 -6 C 2.31 g/m*3 -6 C 0 km/h
2740 26-01-2010 20:16:01 -6 C 2.34 g/m*3 -6 C 0 km/h
2741 26-01-2010 20:28:01 -6.2 C 2.31 g/m*3 -6.2 C 0 km/h
2742 26-01-2010 20:40:01 -6.4 C 2.28 g/m*3 -6.4 C 0 km/h
2743 26-01-2010 20:52:01 -6.4 C 2.28 g/m*3 -6.4 C 0 km/h
2744 26-01-2010 21:04:02 -6.6 C 2.27 g/m*3 -6.6 C 0 km/h
2745 26-01-2010 21:16:02 -6.7 C 2.26 g/m*3 -6.7 C 0 km/h
2746 26-01-2010 21:28:02 -6.9 C 2.22 g/m*3 -6.9 C 0 km/h
2747 26-01-2010 21:40:01 -7 C 2.21 g/m*3 -7 C 0 km/h
2748 26-01-2010 21:52:01 -6.9 C 2.25 g/m*3 -6.9 C 0 km/h
2749 26-01-2010 22:04:01 -7 C 2.27 g/m*3 -7 C 0 km/h
2750 26-01-2010 22:16:01 -7.1 C 2.25 g/m*3 -7.1 C 0 km/h
Sensor: Nr:Datum:Temp:Abs-Feuchte:Windchill:Wind:
Aussen-T/F 2751 26-01-2010 22:28:01 -7.2 C 2.23 g/m*3 -7.2 C 0 km/h
2752 26-01-2010 22:40:02 -7.1 C 2.25 g/m*3 -7.1 C 0 km/h
2753 26-01-2010 22:52:02 -7.2 C 2.23 g/m*3 -7.2 C 0 km/h
2754 26-01-2010 23:04:02 -7.5 C 2.16 g/m*3 -7.5 C 0 km/h
2755 26-01-2010 23:16:02 -7.6 C 2.14 g/m*3 -7.6 C 0 km/h
2756 26-01-2010 23:28:02 -7.7 C 2.13 g/m*3 -7.7 C 0 km/h
2757 26-01-2010 23:40:02 -7.7 C 2.13 g/m*3 -7.7 C 0 km/h
2758 26-01-2010 23:52:01 -8.1 C 2.06 g/m*3 -8.1 C 0 km/h
2759 27-01-2010 00:04:02 -8.2 C 2.05 g/m*3 -8.2 C 0 km/h
2760 27-01-2010 00:16:01 -8.3 C 2.03 g/m*3 -8.3 C 0 km/h
2761 27-01-2010 00:28:01 -8.2 C 2.07 g/m*3 -8.2 C 0 km/h
2762 27-01-2010 00:40:02 -8.3 C 2.06 g/m*3 -8.3 C 0 km/h
2763 27-01-2010 00:53:02 -8.6 C 2.01 g/m*3 -8.6 C 0 km/h
2764 27-01-2010 01:05:02 -8.8 C 1.98 g/m*3 -8.8 C 0 km/h
2765 27-01-2010 01:17:02 -8.9 C 1.97 g/m*3 -8.9 C 0 km/h
2766 27-01-2010 01:29:02 -8.9 C 1.97 g/m*3 -8.9 C 0 km/h
2767 27-01-2010 01:41:02 -8.9 C 1.97 g/m*3 -8.9 C 0 km/h
2768 27-01-2010 01:53:02 -9.2 C 1.93 g/m*3 -9.2 C 0 km/h
2769 27-01-2010 02:05:02 -9.3 C 1.91 g/m*3 -9.3 C 0 km/h
2770 27-01-2010 02:17:02 -9.1 C 1.94 g/m*3 -9.1 C 0 km/h
2771 27-01-2010 02:29:02 -9.3 C 1.91 g/m*3 -9.3 C 0 km/h
2772 27-01-2010 02:41:02 -9.4 C 1.9 g/m*3 -9.4 C 0 km/h
2773 27-01-2010 02:53:02 -9.4 C 1.9 g/m*3 -9.4 C 0 km/h
2774 27-01-2010 03:05:02 -9.3 C 1.91 g/m*3 -9.3 C 0 km/h
2775 27-01-2010 03:17:02 -9.1 C 1.94 g/m*3 -9.1 C 0 km/h
Sensor: Nr:Datum:Temp:Abs-Feuchte:Windchill:Wind:
Aussen-T/F 2776 27-01-2010 03:29:02 -9.1 C 1.94 g/m*3 -9.1 C 0 km/h
2777 27-01-2010 03:41:02 -8.9 C 1.97 g/m*3 -8.9 C 0 km/h
2778 27-01-2010 03:53:03 -8.9 C 1.94 g/m*3 -8.9 C 0 km/h
2779 27-01-2010 04:05:03 -8.8 C 1.96 g/m*3 -8.8 C 0 km/h
2780 27-01-2010 04:17:03 -8.8 C 1.93 g/m*3 -8.8 C 0 km/h
2781 27-01-2010 04:29:03 -8.5 C 2 g/m*3 -8.5 C 0 km/h
2782 27-01-2010 04:41:03 -8.4 C 2.02 g/m*3 -8.4 C 0 km/h
2783 27-01-2010 04:53:03 -8.4 C 2.02 g/m*3 -8.4 C 0 km/h
2784 27-01-2010 05:05:03 -8.4 C 2.04 g/m*3 -8.4 C 0 km/h
2785 27-01-2010 05:17:03 -8.4 C 2.02 g/m*3 -8.4 C 0 km/h
2786 27-01-2010 05:29:03 -8.6 C 1.96 g/m*3 -8.6 C 0 km/h
2787 27-01-2010 05:41:03 -8.7 C 1.92 g/m*3 -8.7 C 0 km/h
2788 27-01-2010 05:53:03 -8.8 C 1.91 g/m*3 -8.8 C 0 km/h
2789 27-01-2010 06:05:03 -8.7 C 1.95 g/m*3 -8.7 C 0 km/h
2790 27-01-2010 06:17:03 -8.8 C 1.93 g/m*3 -8.8 C 0 km/h
2791 27-01-2010 06:29:03 -8.9 C 1.92 g/m*3 -8.9 C 0 km/h
2792 27-01-2010 06:41:03 -9.1 C 1.89 g/m*3 -9.1 C 0 km/h
2793 27-01-2010 06:53:03 -9.2 C 1.88 g/m*3 -9.2 C 0 km/h
2794 27-01-2010 07:05:01 -9.4 C 1.82 g/m*3 -9.4 C 0 km/h
2795 27-01-2010 07:17:02 -9.3 C 1.84 g/m*3 -9.3 C 0 km/h
2796 27-01-2010 07:29:02 -9.1 C 1.89 g/m*3 -9.1 C 0 km/h
2797 27-01-2010 07:41:02 -9.1 C 1.89 g/m*3 -9.1 C 0 km/h
2798 27-01-2010 07:53:01 -9.2 C 1.88 g/m*3 -9.2 C 0 km/h
2799 27-01-2010 08:05:02 -9.3 C 1.84 g/m*3 -9.3 C 0 km/h
2800 27-01-2010 08:17:01 -9.2 C 1.88 g/m*3 -9.2 C 0 km/h
Sensor: Nr:Datum:Temp:Abs-Feuchte:Windchill:Wind:
Aussen-T/F 2801 27-01-2010 08:29:01 -9.2 C 1.88 g/m*3 -9.2 C 0 km/h
2802 27-01-2010 08:41:02 -9.2 C 1.88 g/m*3 -9.2 C 0 km/h
2803 27-01-2010 08:53:02 -9.3 C 1.86 g/m*3 -9.3 C 0 km/h
2804 27-01-2010 09:05:02 -9.2 C 1.88 g/m*3 -9.2 C 0 km/h
2805 27-01-2010 09:17:01 -9 C 1.88 g/m*3 -9 C 0 km/h
2806 27-01-2010 09:29:01 -8.8 C 1.91 g/m*3 -8.8 C 0 km/h
2807 27-01-2010 09:41:02 -8.6 C 1.91 g/m*3 -8.6 C 0 km/h
2808 27-01-2010 09:53:02 -8.6 C 1.88 g/m*3 -8.6 C 0 km/h
2809 27-01-2010 10:05:02 -8.7 C 1.84 g/m*3 -8.7 C 0 km/h
2810 27-01-2010 10:17:01 -8.6 C 1.86 g/m*3 -8.6 C 0 km/h
2811 27-01-2010 10:29:01 -8.4 C 1.88 g/m*3 -8.4 C 0 km/h
2812 27-01-2010 10:41:02 -7.8 C 1.94 g/m*3 -7.8 C 0 km/h
2813 27-01-2010 10:53:02 -7.5 C 1.96 g/m*3 -7.5 C 0 km/h
2814 27-01-2010 11:05:02 -6.9 C 2.02 g/m*3 -6.9 C 0 km/h
2815 27-01-2010 11:17:01 -7 C 1.94 g/m*3 -7 C 0 km/h
2816 27-01-2010 11:29:01 -6.9 C 1.96 g/m*3 -6.9 C 0 km/h
2817 27-01-2010 11:41:02 -6.5 C 2.02 g/m*3 -6.5 C 0 km/h
2818 27-01-2010 11:53:02 -5.8 C 2.09 g/m*3 -5.8 C 0 km/h
2819 27-01-2010 12:05:02 -5.3 C 2.13 g/m*3 -5.3 C 0 km/h
2820 27-01-2010 12:17:02 -5.1 C 2.1 g/m*3 -5.1 C 0 km/h
2821 27-01-2010 12:29:02 -4.7 C 2.16 g/m*3 -4.7 C 0 km/h
2822 27-01-2010 12:41:02 -4.2 C 2.16 g/m*3 -4.2 C 0 km/h
2823 27-01-2010 12:53:01 -3.9 C 2.14 g/m*3 -3.9 C 0 km/h
2824 27-01-2010 13:05:02 -4.5 C 1.98 g/m*3 -4.5 C 0 km/h
2825 27-01-2010 13:17:02 -4.4 C 2.06 g/m*3 -4.4 C 0 km/h
Sensor: Nr:Datum:Temp:Abs-Feuchte:Windchill:Wind:
Aussen-T/F 2826 27-01-2010 13:29:02 -3.9 C 2.1 g/m*3 -3.9 C 0 km/h
2827 27-01-2010 13:41:01 -3.3 C 2.19 g/m*3 -3.3 C 0 km/h
2828 27-01-2010 13:53:02 -2.6 C 2.34 g/m*3 -2.6 C 0 km/h
2829 27-01-2010 14:05:01 -2.2 C 2.37 g/m*3 -2.2 C 0 km/h
2830 27-01-2010 14:17:02 -2.4 C 2.25 g/m*3 -2.4 C 0 km/h
2831 27-01-2010 14:29:02 -2.2 C 2.33 g/m*3 -2.2 C 0 km/h
2832 27-01-2010 14:41:01 -2.1 C 2.34 g/m*3 -2.1 C 0 km/h
2833 27-01-2010 14:53:02 -2 C 2.44 g/m*3 -2 C 0 km/h
2834 27-01-2010 15:05:01 -2 C 2.44 g/m*3 -2 C 0 km/h
2835 27-01-2010 15:17:01 -2.1 C 2.43 g/m*3 -2.1 C 0 km/h
2836 27-01-2010 15:29:02 -2.1 C 2.47 g/m*3 -2.1 C 0 km/h
2837 27-01-2010 15:41:01 -2.3 C 2.44 g/m*3 -2.3 C 0 km/h
2838 27-01-2010 15:53:02 -2.2 C 2.45 g/m*3 -2.2 C 0 km/h
2839 27-01-2010 16:05:01 -2.1 C 2.39 g/m*3 -2.1 C 0 km/h
2840 27-01-2010 16:17:02 -2.1 C 2.39 g/m*3 -2.1 C 0 km/h
2841 27-01-2010 16:29:02 -2 C 2.32 g/m*3 -2 C 0 km/h
2842 27-01-2010 16:41:02 -2.1 C 2.26 g/m*3 -2.1 C 0 km/h
2843 27-01-2010 16:53:02 -2.1 C 2.18 g/m*3 -2.1 C 0 km/h
2844 27-01-2010 17:05:01 -2.3 C 2.06 g/m*3 -2.3 C 0 km/h
2845 27-01-2010 17:17:02 -2.4 C 2.13 g/m*3 -2.4 C 0 km/h
2846 27-01-2010 17:29:02 -2.4 C 2.17 g/m*3 -2.4 C 0 km/h
2847 27-01-2010 17:41:02 -2.4 C 2.21 g/m*3 -2.4 C 0 km/h
2848 27-01-2010 17:53:02 -2.4 C 2.21 g/m*3 -2.4 C 0 km/h
2849 27-01-2010 18:05:02 -2.3 C 2.27 g/m*3 -2.3 C 0 km/h
2850 27-01-2010 18:17:02 -2.4 C 2.29 g/m*3 -2.4 C 0 km/h
Sensor: Nr:Datum:Temp:Abs-Feuchte:Windchill:Wind:
Aussen-T/F 2851 27-01-2010 18:29:02 -2.3 C 2.31 g/m*3 -2.3 C 0 km/h
2852 27-01-2010 18:41:02 -2.3 C 2.35 g/m*3 -2.3 C 0 km/h
2853 27-01-2010 18:53:02 -2.3 C 2.39 g/m*3 -2.3 C 0 km/h
2854 27-01-2010 19:05:02 -2.1 C 2.39 g/m*3 -2.1 C 0 km/h
2855 27-01-2010 19:17:03 -2 C 2.4 g/m*3 -2 C 0 km/h
2856 27-01-2010 19:29:03 -1.9 C 2.42 g/m*3 -1.9 C 0 km/h
2857 27-01-2010 19:41:02 -1.6 C 2.34 g/m*3 -1.6 C 0 km/h
2858 27-01-2010 19:53:02 -1.6 C 2.38 g/m*3 -1.6 C 0 km/h
2859 27-01-2010 20:05:02 -1.7 C 2.37 g/m*3 -1.7 C 0 km/h
2860 27-01-2010 20:17:02 -2 C 2.57 g/m*3 -2 C 0 km/h
2861 27-01-2010 20:29:02 -2 C 2.57 g/m*3 -2 C 0 km/h
2862 27-01-2010 20:41:02 -1.9 C 2.59 g/m*3 -1.9 C 0 km/h
2863 27-01-2010 20:53:02 -1.9 C 2.55 g/m*3 -1.9 C 0 km/h
2864 27-01-2010 21:05:02 -1.9 C 2.55 g/m*3 -1.9 C 0 km/h
2865 27-01-2010 21:17:02 -2 C 2.66 g/m*3 -2 C 0 km/h
2866 27-01-2010 21:29:02 -1.8 C 2.61 g/m*3 -1.8 C 0 km/h
2867 27-01-2010 21:41:02 -2 C 2.66 g/m*3 -2 C 0 km/h
2868 27-01-2010 21:53:02 -1.9 C 2.67 g/m*3 -1.9 C 0 km/h
2869 27-01-2010 22:06:03 -2 C 2.74 g/m*3 -2 C 0 km/h
2870 27-01-2010 22:18:03 -2 C 2.74 g/m*3 -2 C 0 km/h
2871 27-01-2010 22:30:03 -1.9 C 2.67 g/m*3 -1.9 C 0 km/h
2872 27-01-2010 22:42:03 -1.9 C 2.67 g/m*3 -1.9 C 0 km/h
2873 27-01-2010 22:54:03 -1.9 C 2.72 g/m*3 -1.9 C 0 km/h
2874 27-01-2010 23:06:03 -2 C 2.82 g/m*3 -2 C 0 km/h
2875 27-01-2010 23:18:03 -2 C 2.91 g/m*3 -2 C 0 km/h
Sensor: Nr:Datum:Temp:Abs-Feuchte:Windchill:Wind:
Aussen-T/F 2876 27-01-2010 23:30:03 -2 C 2.87 g/m*3 -2 C 0 km/h
2877 27-01-2010 23:42:03 -2.1 C 2.89 g/m*3 -2.1 C 0 km/h
2878 27-01-2010 23:54:03 -2.2 C 2.95 g/m*3 -2.2 C 0 km/h
2879 28-01-2010 00:06:03 -2.1 C 2.93 g/m*3 -2.1 C 0 km/h
2880 28-01-2010 00:18:03 -2 C 2.99 g/m*3 -2 C 0 km/h
2881 28-01-2010 00:30:03 -2.1 C 3.06 g/m*3 -2.1 C 0 km/h
2882 28-01-2010 00:42:03 -2 C 3.16 g/m*3 -2 C 0 km/h
2883 28-01-2010 00:54:03 -1.9 C 3.18 g/m*3 -1.9 C 0 km/h
2884 28-01-2010 01:06:03 -2 C 3.25 g/m*3 -2 C 0 km/h
2885 28-01-2010 01:18:03 -2.1 C 3.43 g/m*3 -2.1 C 0 km/h
2886 28-01-2010 01:30:03 -2 C 3.5 g/m*3 -2 C 0 km/h
2887 28-01-2010 01:42:03 -1.7 C 3.57 g/m*3 -1.7 C 0 km/h
2888 28-01-2010 01:54:03 -1.4 C 3.56 g/m*3 -1.4 C 0 km/h
2889 28-01-2010 02:06:04 -1.2 C 3.52 g/m*3 -1.2 C 0 km/h
2890 28-01-2010 02:18:04 -1.1 C 3.5 g/m*3 -1.1 C 0 km/h
2891 28-01-2010 02:30:04 -1.1 C 3.46 g/m*3 -1.1 C 0 km/h
2892 28-01-2010 02:42:04 -1.1 C 3.46 g/m*3 -1.1 C 0 km/h
2893 28-01-2010 02:54:04 -1 C 3.53 g/m*3 -1 C 0 km/h
2894 28-01-2010 03:06:04 -1 C 3.53 g/m*3 -1 C 0 km/h
2895 28-01-2010 03:18:04 -0.9 C 3.55 g/m*3 -0.9 C 0 km/h
2896 28-01-2010 03:30:04 -0.9 C 3.55 g/m*3 -0.9 C 0 km/h
2897 28-01-2010 03:42:04 -0.9 C 3.6 g/m*3 -0.9 C 0 km/h
2898 28-01-2010 03:54:04 -0.9 C 3.64 g/m*3 -0.9 C 0 km/h
2899 28-01-2010 04:06:04 -0.9 C 3.69 g/m*3 -0.9 C 0 km/h
2900 28-01-2010 04:18:04 -0.8 C 3.71 g/m*3 -0.8 C 0 km/h
Sensor: Nr:Datum:Temp:Abs-Feuchte:Windchill:Wind:
Aussen-T/F 2901 28-01-2010 04:30:04 -0.7 C 3.78 g/m*3 -0.7 C 0 km/h
2902 28-01-2010 04:42:04 -0.5 C 3.84 g/m*3 -0.5 C 0 km/h
2903 28-01-2010 04:54:04 -0.5 C 3.84 g/m*3 -0.5 C 0 km/h
2904 28-01-2010 05:06:04 -0.7 C 3.92 g/m*3 -0.7 C 0 km/h
2905 28-01-2010 05:18:04 -0.7 C 4.06 g/m*3 -0.7 C 0 km/h
2906 28-01-2010 05:30:04 -0.7 C 4.11 g/m*3 -0.7 C 0 km/h
2907 28-01-2010 05:42:04 -0.5 C 4.21 g/m*3 -0.5 C 0 km/h
2908 28-01-2010 05:54:04 0.1 C 4.44 g/m*3 0.1 C 0 km/h
2909 28-01-2010 06:06:05 0.3 C 4.5 g/m*3 0.3 C 0 km/h
2910 28-01-2010 06:18:05 0.4 C 4.53 g/m*3 0.4 C 0 km/h
2911 28-01-2010 06:30:05 1 C 4.67 g/m*3 1 C 0 km/h
2912 28-01-2010 06:42:05 1.5 C 4.62 g/m*3 1.5 C 0 km/h
2913 28-01-2010 06:54:05 1.3 C 4.45 g/m*3 1.3 C 0 km/h
2914 28-01-2010 07:06:03 1.3 C 4.34 g/m*3 1.3 C 0 km/h
2915 28-01-2010 07:18:02 1.2 C 4.31 g/m*3 1.2 C 0 km/h
2916 28-01-2010 07:30:02 1.1 C 4.29 g/m*3 1.1 C 0 km/h
2917 28-01-2010 07:42:02 1.1 C 4.29 g/m*3 1.1 C 0 km/h
2918 28-01-2010 07:54:01 1.2 C 4.31 g/m*3 1.2 C 0 km/h
2919 28-01-2010 08:06:02 1.1 C 4.34 g/m*3 1.1 C 0 km/h
2920 28-01-2010 08:18:01 1 C 4.36 g/m*3 1 C 0 km/h
2921 28-01-2010 08:30:01 1.4 C 4.48 g/m*3 1.4 C 0 km/h
2922 28-01-2010 08:42:01 1.4 C 4.48 g/m*3 1.4 C 0 km/h
2923 28-01-2010 08:54:01 1.5 C 4.46 g/m*3 1.5 C 0 km/h
2924 28-01-2010 09:06:01 1.5 C 4.46 g/m*3 1.5 C 0 km/h
2925 28-01-2010 09:18:02 1.6 C 4.43 g/m*3 1.6 C 0 km/h
Sensor: Nr:Datum:Temp:Abs-Feuchte:Windchill:Wind:
Aussen-T/F 2926 28-01-2010 09:30:02 1.7 C 4.41 g/m*3 1.7 C 0 km/h
2927 28-01-2010 09:42:01 1.8 C 4.39 g/m*3 1.8 C 0 km/h
2928 28-01-2010 09:54:02 1.9 C 4.42 g/m*3 1.9 C 0 km/h
2929 28-01-2010 10:06:01 2.1 C 4.31 g/m*3 2.1 C 0 km/h
2930 28-01-2010 10:18:02 2.2 C 4.22 g/m*3 2.2 C 0 km/h
2931 28-01-2010 10:30:02 2.4 C 4.17 g/m*3 2.4 C 0 km/h
2932 28-01-2010 10:42:01 2.6 C 4.11 g/m*3 2.6 C 0 km/h
2933 28-01-2010 10:54:02 2.8 C 4.05 g/m*3 2.8 C 0 km/h
2934 28-01-2010 11:06:02 3 C 3.98 g/m*3 3 C 0 km/h
2935 28-01-2010 11:18:02 2.8 C 3.99 g/m*3 2.8 C 0 km/h
2936 28-01-2010 11:30:02 2.6 C 3.99 g/m*3 2.6 C 0 km/h
2937 28-01-2010 11:42:01 2.5 C 4.02 g/m*3 2.5 C 0 km/h
2938 28-01-2010 11:54:02 2.8 C 4.05 g/m*3 2.8 C 0 km/h
2939 28-01-2010 12:06:01 3.3 C 3.94 g/m*3 3.3 C 0 km/h
2940 28-01-2010 12:18:01 3.1 C 3.89 g/m*3 3.1 C 0 km/h
2941 28-01-2010 12:30:01 3.4 C 3.91 g/m*3 3.4 C 0 km/h
2942 28-01-2010 12:42:02 3.3 C 3.82 g/m*3 3.3 C 0 km/h
2943 28-01-2010 12:54:02 2.9 C 3.96 g/m*3 2.9 C 0 km/h
2944 28-01-2010 13:06:02 2.9 C 4.07 g/m*3 2.9 C 0 km/h
2945 28-01-2010 13:18:02 3.3 C 4 g/m*3 3.3 C 0 km/h
2946 28-01-2010 13:30:02 3.5 C 3.87 g/m*3 3.5 C 0 km/h
2947 28-01-2010 13:42:02 3.6 C 3.71 g/m*3 3.6 C 0 km/h
2948 28-01-2010 13:54:02 3.6 C 3.71 g/m*3 3.6 C 0 km/h
2949 28-01-2010 14:06:02 2.7 C 3.9 g/m*3 2.7 C 0 km/h
2950 28-01-2010 14:18:02 2.3 C 4.14 g/m*3 2.3 C 0 km/h
Sensor: Nr:Datum:Temp:Abs-Feuchte:Windchill:Wind:
Aussen-T/F 2951 28-01-2010 14:30:02 2.1 C 4.2 g/m*3 2.1 C 0 km/h
2952 28-01-2010 14:42:02 1.8 C 4.44 g/m*3 1.8 C 0 km/h
2953 28-01-2010 14:54:02 2.1 C 4.59 g/m*3 2.1 C 0 km/h
2954 28-01-2010 15:06:02 2.1 C 4.42 g/m*3 2.1 C 0 km/h
2955 28-01-2010 15:18:03 2.3 C 4.2 g/m*3 2.3 C 0 km/h
2956 28-01-2010 15:30:03 3.1 C 3.95 g/m*3 3.1 C 0 km/h
2957 28-01-2010 15:42:02 3 C 3.75 g/m*3 3 C 0 km/h
2958 28-01-2010 15:54:02 3 C 3.69 g/m*3 3 C 0 km/h
2959 28-01-2010 16:06:02 3 C 3.69 g/m*3 3 C 0 km/h
2960 28-01-2010 16:18:02 3 C 3.63 g/m*3 3 C 0 km/h
2961 28-01-2010 16:30:02 2.9 C 3.72 g/m*3 2.9 C 0 km/h
2962 28-01-2010 16:42:02 2.8 C 3.75 g/m*3 2.8 C 0 km/h
2963 28-01-2010 16:54:02 2.7 C 3.79 g/m*3 2.7 C 0 km/h
2964 28-01-2010 17:06:02 2.6 C 3.88 g/m*3 2.6 C 0 km/h
2965 28-01-2010 17:18:02 2.4 C 3.88 g/m*3 2.4 C 0 km/h
2966 28-01-2010 17:30:02 2.4 C 3.94 g/m*3 2.4 C 0 km/h
2967 28-01-2010 17:42:02 2.4 C 4 g/m*3 2.4 C 0 km/h
2968 28-01-2010 17:54:02 1.8 C 4.17 g/m*3 1.8 C 0 km/h
2969 28-01-2010 18:06:02 1.7 C 4.3 g/m*3 1.7 C 0 km/h
2970 28-01-2010 18:18:02 1.5 C 4.35 g/m*3 1.5 C 0 km/h
2971 28-01-2010 18:30:02 1.1 C 4.34 g/m*3 1.1 C 0 km/h
2972 28-01-2010 18:42:02 1.2 C 4.53 g/m*3 1.2 C 0 km/h
2973 28-01-2010 18:54:02 1.2 C 4.58 g/m*3 1.2 C 0 km/h
2974 28-01-2010 19:06:01 1.2 C 4.58 g/m*3 1.2 C 0 km/h
2975 28-01-2010 19:18:02 1.2 C 4.58 g/m*3 1.2 C 0 km/h
Sensor: Nr:Datum:Temp:Abs-Feuchte:Windchill:Wind:
Aussen-T/F 2976 28-01-2010 19:30:02 1.4 C 4.59 g/m*3 1.4 C 0 km/h
2977 28-01-2010 19:42:02 1.5 C 4.51 g/m*3 1.5 C 0 km/h
2978 28-01-2010 19:54:01 1.5 C 4.4 g/m*3 1.5 C 0 km/h
2979 28-01-2010 20:06:01 1.7 C 4.36 g/m*3 1.7 C 0 km/h
2980 28-01-2010 20:18:01 1.7 C 4.3 g/m*3 1.7 C 0 km/h
2981 28-01-2010 20:30:01 1.6 C 4.27 g/m*3 1.6 C 0 km/h
2982 28-01-2010 20:42:02 1.6 C 4.22 g/m*3 1.6 C 0 km/h
2983 28-01-2010 20:54:02 1.5 C 4.19 g/m*3 1.5 C 0 km/h
2984 28-01-2010 21:06:02 1.5 C 4.19 g/m*3 1.5 C 0 km/h
2985 28-01-2010 21:18:02 1.7 C 4.25 g/m*3 1.7 C 0 km/h
2986 28-01-2010 21:30:02 1.6 C 4.22 g/m*3 1.6 C 0 km/h
2987 28-01-2010 21:42:02 1.5 C 4.19 g/m*3 1.5 C 0 km/h
2988 28-01-2010 21:54:01 1.6 C 4.22 g/m*3 1.6 C 0 km/h
2989 28-01-2010 22:06:01 1.6 C 4.22 g/m*3 1.6 C 0 km/h
2990 28-01-2010 22:18:02 1.7 C 4.19 g/m*3 1.7 C 0 km/h
2991 28-01-2010 22:30:02 1.7 C 4.19 g/m*3 1.7 C 0 km/h
2992 28-01-2010 22:42:02 1.6 C 4.16 g/m*3 1.6 C 0 km/h
2993 28-01-2010 22:54:02 1.7 C 4.14 g/m*3 1.7 C 0 km/h
2994 28-01-2010 23:06:02 1.6 C 4.11 g/m*3 1.6 C 0 km/h
2995 28-01-2010 23:18:02 1.6 C 4.16 g/m*3 1.6 C 0 km/h
2996 28-01-2010 23:30:02 1.6 C 4.16 g/m*3 1.6 C 0 km/h
2997 28-01-2010 23:42:02 1.6 C 4.16 g/m*3 1.6 C 0 km/h
2998 28-01-2010 23:54:02 1.4 C 4.21 g/m*3 1.4 C 0 km/h
2999 29-01-2010 00:06:02 1.4 C 4.27 g/m*3 1.4 C 0 km/h
3000 29-01-2010 00:18:02 1.4 C 4.27 g/m*3 1.4 C 0 km/h
Sensor: Nr:Datum:Temp:Abs-Feuchte:Windchill:Wind:
Aussen-T/F 3001 29-01-2010 00:30:02 1.5 C 4.3 g/m*3 1.5 C 0 km/h
3002 29-01-2010 00:42:02 1.5 C 4.24 g/m*3 1.5 C 0 km/h
3003 29-01-2010 00:54:02 1.5 C 4.3 g/m*3 1.5 C 0 km/h
3004 29-01-2010 01:06:02 1.5 C 4.3 g/m*3 1.5 C 0 km/h
3005 29-01-2010 01:18:02 1.4 C 4.32 g/m*3 1.4 C 0 km/h
3006 29-01-2010 01:30:02 1.4 C 4.32 g/m*3 1.4 C 0 km/h
3007 29-01-2010 01:42:02 1.4 C 4.37 g/m*3 1.4 C 0 km/h
3008 29-01-2010 01:54:02 1.3 C 4.34 g/m*3 1.3 C 0 km/h
3009 29-01-2010 02:06:02 1.1 C 4.39 g/m*3 1.1 C 0 km/h
3010 29-01-2010 02:18:02 1 C 4.41 g/m*3 1 C 0 km/h
3011 29-01-2010 02:30:03 1.1 C 4.49 g/m*3 1.1 C 0 km/h
3012 29-01-2010 02:42:03 1.1 C 4.49 g/m*3 1.1 C 0 km/h
3013 29-01-2010 02:54:03 1.1 C 4.55 g/m*3 1.1 C 0 km/h
3014 29-01-2010 03:06:03 1.3 C 4.56 g/m*3 1.3 C 0 km/h
3015 29-01-2010 03:18:03 1.3 C 4.56 g/m*3 1.3 C 0 km/h
3016 29-01-2010 03:30:03 1.3 C 4.56 g/m*3 1.3 C 0 km/h
3017 29-01-2010 03:42:03 1.3 C 4.56 g/m*3 1.3 C 0 km/h
3018 29-01-2010 03:54:03 1.3 C 4.56 g/m*3 1.3 C 0 km/h
3019 29-01-2010 04:06:03 1.3 C 4.56 g/m*3 1.3 C 0 km/h
3020 29-01-2010 04:18:03 1.4 C 4.59 g/m*3 1.4 C 0 km/h
3021 29-01-2010 04:30:03 1.3 C 4.56 g/m*3 1.3 C 0 km/h
3022 29-01-2010 04:42:03 1.4 C 4.59 g/m*3 1.4 C 0 km/h
3023 29-01-2010 04:54:03 1.3 C 4.56 g/m*3 1.3 C 0 km/h
3024 29-01-2010 05:06:03 1.2 C 4.58 g/m*3 1.2 C 0 km/h
3025 29-01-2010 05:18:03 1 C 4.57 g/m*3 1 C 0 km/h
Sensor: Nr:Datum:Temp:Abs-Feuchte:Windchill:Wind:
Aussen-T/F 3026 29-01-2010 05:30:03 1 C 4.62 g/m*3 1 C 0 km/h
3027 29-01-2010 05:42:03 0.9 C 4.64 g/m*3 0.9 C 0 km/h
3028 29-01-2010 05:54:03 0.9 C 4.69 g/m*3 0.9 C 0 km/h
3029 29-01-2010 06:06:03 0.9 C 4.69 g/m*3 0.9 C 0 km/h
3030 29-01-2010 06:18:03 0.9 C 4.74 g/m*3 0.9 C 0 km/h
3031 29-01-2010 06:30:03 1 C 4.72 g/m*3 1 C 0 km/h
3032 29-01-2010 06:42:04 1 C 4.67 g/m*3 1 C 0 km/h
3033 29-01-2010 06:54:04 1 C 4.67 g/m*3 1 C 0 km/h
3034 29-01-2010 07:06:01 1 C 4.62 g/m*3 1 C 0 km/h
3035 29-01-2010 07:18:02 1 C 4.62 g/m*3 1 C 0 km/h
3036 29-01-2010 07:30:02 1 C 4.57 g/m*3 1 C 0 km/h
3037 29-01-2010 07:42:01 1 C 4.57 g/m*3 1 C 0 km/h
3038 29-01-2010 07:54:02 1.2 C 4.58 g/m*3 1.2 C 0 km/h
3039 29-01-2010 08:06:01 1.4 C 4.53 g/m*3 1.4 C 0 km/h
3040 29-01-2010 08:18:01 1.5 C 4.46 g/m*3 1.5 C 0 km/h
3041 29-01-2010 08:30:01 1.6 C 4.43 g/m*3 1.6 C 0 km/h
3042 29-01-2010 08:42:01 1.6 C 4.38 g/m*3 1.6 C 0 km/h
3043 29-01-2010 08:54:02 1.5 C 4.4 g/m*3 1.5 C 0 km/h
3044 29-01-2010 09:06:01 1.5 C 4.4 g/m*3 1.5 C 0 km/h
3045 29-01-2010 09:18:01 1.6 C 4.43 g/m*3 1.6 C 0 km/h
3046 29-01-2010 09:30:01 1.7 C 4.46 g/m*3 1.7 C 0 km/h
3047 29-01-2010 09:42:02 1.8 C 4.44 g/m*3 1.8 C 0 km/h
3048 29-01-2010 09:54:01 1.9 C 4.42 g/m*3 1.9 C 0 km/h
3049 29-01-2010 10:06:02 2.1 C 4.36 g/m*3 2.1 C 0 km/h
3050 29-01-2010 10:18:01 2.1 C 4.36 g/m*3 2.1 C 0 km/h
Sensor: Nr:Datum:Temp:Abs-Feuchte:Windchill:Wind:
Aussen-T/F 3051 29-01-2010 10:30:01 2.2 C 4.39 g/m*3 2.2 C 0 km/h
3052 29-01-2010 10:42:01 2.3 C 4.42 g/m*3 2.3 C 0 km/h
3053 29-01-2010 10:54:01 2.4 C 4.4 g/m*3 2.4 C 0 km/h
3054 29-01-2010 11:06:01 2.5 C 4.37 g/m*3 2.5 C 0 km/h
3055 29-01-2010 11:18:01 2.5 C 4.37 g/m*3 2.5 C 0 km/h
3056 29-01-2010 11:30:01 2.6 C 4.4 g/m*3 2.6 C 0 km/h
3057 29-01-2010 11:42:01 2.7 C 4.37 g/m*3 2.7 C 0 km/h
3058 29-01-2010 11:54:01 2.7 C 4.31 g/m*3 2.7 C 0 km/h
3059 29-01-2010 12:06:01 2.8 C 4.34 g/m*3 2.8 C 0 km/h
3060 29-01-2010 12:18:02 2.8 C 4.34 g/m*3 2.8 C 0 km/h
3061 29-01-2010 12:30:02 2.8 C 4.34 g/m*3 2.8 C 0 km/h
3062 29-01-2010 12:42:01 2.8 C 4.34 g/m*3 2.8 C 0 km/h
3063 29-01-2010 12:54:02 2.8 C 4.4 g/m*3 2.8 C 0 km/h
3064 29-01-2010 13:06:01 2.7 C 4.37 g/m*3 2.7 C 0 km/h
3065 29-01-2010 13:18:02 2.7 C 4.43 g/m*3 2.7 C 0 km/h
3066 29-01-2010 13:30:02 2.7 C 4.43 g/m*3 2.7 C 0 km/h
3067 29-01-2010 13:42:01 2.7 C 4.43 g/m*3 2.7 C 0 km/h
3068 29-01-2010 13:54:02 2.5 C 4.43 g/m*3 2.5 C 0 km/h
3069 29-01-2010 14:06:01 2.4 C 4.51 g/m*3 2.4 C 0 km/h
3070 29-01-2010 14:18:01 2.2 C 4.56 g/m*3 2.2 C 0 km/h
3071 29-01-2010 14:30:01 2.2 C 4.56 g/m*3 2.2 C 0 km/h
3072 29-01-2010 14:42:02 2.2 C 4.56 g/m*3 2.2 C 0 km/h
3073 29-01-2010 14:54:01 2.2 C 4.51 g/m*3 2.2 C 0 km/h
3074 29-01-2010 15:06:01 2.1 C 4.53 g/m*3 2.1 C 0 km/h
3075 29-01-2010 15:18:01 2.1 C 4.53 g/m*3 2.1 C 0 km/h
Sensor: Nr:Datum:Temp:Abs-Feuchte:Windchill:Wind:
Aussen-T/F 3076 29-01-2010 15:30:01 2 C 4.56 g/m*3 2 C 0 km/h
3077 29-01-2010 15:42:02 2 C 4.56 g/m*3 2 C 0 km/h
3078 29-01-2010 15:54:01 2.1 C 4.53 g/m*3 2.1 C 0 km/h
3079 29-01-2010 16:06:01 2.1 C 4.53 g/m*3 2.1 C 0 km/h
3080 29-01-2010 16:18:01 2 C 4.5 g/m*3 2 C 0 km/h
3081 29-01-2010 16:30:01 1.8 C 4.55 g/m*3 1.8 C 0 km/h
3082 29-01-2010 16:42:02 1.6 C 4.54 g/m*3 1.6 C 0 km/h
3083 29-01-2010 16:54:01 1.6 C 4.65 g/m*3 1.6 C 0 km/h
3084 29-01-2010 17:06:02 1.5 C 4.67 g/m*3 1.5 C 0 km/h
3085 29-01-2010 17:18:01 1.4 C 4.69 g/m*3 1.4 C 0 km/h
3086 29-01-2010 17:30:01 1.3 C 4.72 g/m*3 1.3 C 0 km/h
3087 29-01-2010 17:42:02 1.3 C 4.72 g/m*3 1.3 C 0 km/h
3088 29-01-2010 17:54:02 1.2 C 4.74 g/m*3 1.2 C 0 km/h
3089 29-01-2010 18:06:01 1 C 4.67 g/m*3 1 C 0 km/h
3090 29-01-2010 18:18:01 0.9 C 4.69 g/m*3 0.9 C 0 km/h
3091 29-01-2010 18:30:01 0.8 C 4.71 g/m*3 0.8 C 0 km/h
3092 29-01-2010 18:42:01 0.8 C 4.71 g/m*3 0.8 C 0 km/h
3093 29-01-2010 18:54:01 0.7 C 4.73 g/m*3 0.7 C 0 km/h
3094 29-01-2010 19:06:01 0.7 C 4.78 g/m*3 0.7 C 0 km/h
3095 29-01-2010 19:18:01 0.8 C 4.81 g/m*3 0.8 C 0 km/h
3096 29-01-2010 19:30:01 0.8 C 4.81 g/m*3 0.8 C 0 km/h
3097 29-01-2010 19:42:02 0.8 C 4.81 g/m*3 0.8 C 0 km/h
3098 29-01-2010 19:54:01 0.8 C 4.81 g/m*3 0.8 C 0 km/h
3099 29-01-2010 20:06:02 0.8 C 4.81 g/m*3 0.8 C 0 km/h
3100 29-01-2010 20:18:01 0.8 C 4.76 g/m*3 0.8 C 0 km/h
Sensor: Nr:Datum:Temp:Abs-Feuchte:Windchill:Wind:
Aussen-T/F 3101 29-01-2010 20:30:01 0.7 C 4.73 g/m*3 0.7 C 0 km/h
3102 29-01-2010 20:42:01 0.7 C 4.68 g/m*3 0.7 C 0 km/h
3103 29-01-2010 20:54:01 0.7 C 4.68 g/m*3 0.7 C 0 km/h
3104 29-01-2010 21:06:01 0.6 C 4.6 g/m*3 0.6 C 0 km/h
3105 29-01-2010 21:18:01 0.5 C 4.51 g/m*3 0.5 C 0 km/h
3106 29-01-2010 21:30:01 0.4 C 4.48 g/m*3 0.4 C 0 km/h
3107 29-01-2010 21:42:01 0.5 C 4.56 g/m*3 0.5 C 0 km/h
3108 29-01-2010 21:54:01 0.4 C 4.48 g/m*3 0.4 C 0 km/h
3109 29-01-2010 22:06:01 0.3 C 4.35 g/m*3 0.3 C 0 km/h
3110 29-01-2010 22:18:01 0.1 C 4.2 g/m*3 0.1 C 0 km/h
3111 29-01-2010 22:30:01 0 C 4.12 g/m*3 0 C 0 km/h
3112 29-01-2010 22:42:01 0.1 C 4.1 g/m*3 0.1 C 0 km/h
3113 29-01-2010 22:54:01 0.2 C 4.13 g/m*3 0.2 C 0 km/h
3114 29-01-2010 23:06:01 0.3 C 4.16 g/m*3 0.3 C 0 km/h
3115 29-01-2010 23:20:12 0 C 4.12 g/m*3 0 C 0 km/h
3116 29-01-2010 23:32:12 -0.1 C 4.09 g/m*3 -0.1 C 0 km/h
3117 29-01-2010 23:44:12 -0.5 C 3.98 g/m*3 -0.5 C 0 km/h
3118 29-01-2010 23:56:12 -0.4 C 4.01 g/m*3 -0.4 C 0 km/h
3119 30-01-2010 00:08:12 -0.5 C 3.93 g/m*3 -0.5 C 0 km/h
3120 30-01-2010 00:20:12 -0.3 C 3.94 g/m*3 -0.3 C 0 km/h
3121 30-01-2010 00:32:12 -0.3 C 3.84 g/m*3 -0.3 C 0 km/h
3122 30-01-2010 00:44:12 -0.1 C 3.8 g/m*3 -0.1 C 0 km/h
3123 30-01-2010 00:56:12 0.1 C 3.81 g/m*3 0.1 C 0 km/h
3124 30-01-2010 01:08:12 -0.1 C 3.8 g/m*3 -0.1 C 0 km/h
3125 30-01-2010 01:20:12 -0.1 C 3.8 g/m*3 -0.1 C 0 km/h
Sensor: Nr:Datum:Temp:Abs-Feuchte:Windchill:Wind:
Aussen-T/F 3126 30-01-2010 01:32:12 -0.1 C 3.8 g/m*3 -0.1 C 0 km/h
3127 30-01-2010 01:44:12 -0.4 C 3.77 g/m*3 -0.4 C 0 km/h
3128 30-01-2010 01:56:12 -0.4 C 3.82 g/m*3 -0.4 C 0 km/h
3129 30-01-2010 02:08:12 -0.6 C 3.81 g/m*3 -0.6 C 0 km/h
3130 30-01-2010 02:20:12 -0.9 C 3.78 g/m*3 -0.9 C 0 km/h
3131 30-01-2010 02:32:12 -0.9 C 3.82 g/m*3 -0.9 C 0 km/h
3132 30-01-2010 02:44:12 -0.9 C 3.82 g/m*3 -0.9 C 0 km/h
3133 30-01-2010 02:56:12 -1 C 3.8 g/m*3 -1 C 0 km/h
3134 30-01-2010 03:08:12 -0.8 C 3.85 g/m*3 -0.8 C 0 km/h
3135 30-01-2010 03:20:12 -0.9 C 3.78 g/m*3 -0.9 C 0 km/h
3136 30-01-2010 03:32:12 -1.3 C 3.67 g/m*3 -1.3 C 0 km/h
3137 30-01-2010 03:44:13 -1.5 C 3.62 g/m*3 -1.5 C 0 km/h
3138 30-01-2010 03:56:13 -1.5 C 3.67 g/m*3 -1.5 C 0 km/h
3139 30-01-2010 04:08:13 -1.3 C 3.67 g/m*3 -1.3 C 0 km/h
3140 30-01-2010 04:20:13 -1.5 C 3.54 g/m*3 -1.5 C 0 km/h
3141 30-01-2010 04:32:13 -1.5 C 3.49 g/m*3 -1.5 C 0 km/h
3142 30-01-2010 04:44:13 -1.4 C 3.52 g/m*3 -1.4 C 0 km/h
3143 30-01-2010 04:56:13 -1.4 C 3.47 g/m*3 -1.4 C 0 km/h
3144 30-01-2010 05:08:13 -1.4 C 3.47 g/m*3 -1.4 C 0 km/h
3145 30-01-2010 05:20:13 -1.2 C 3.52 g/m*3 -1.2 C 0 km/h
3146 30-01-2010 05:32:13 -0.9 C 3.51 g/m*3 -0.9 C 0 km/h
3147 30-01-2010 05:44:13 -0.9 C 3.46 g/m*3 -0.9 C 0 km/h
3148 30-01-2010 05:56:13 -0.5 C 3.46 g/m*3 -0.5 C 0 km/h
3149 30-01-2010 06:08:13 -0.4 C 3.44 g/m*3 -0.4 C 0 km/h
3150 30-01-2010 06:20:13 -0.3 C 3.42 g/m*3 -0.3 C 0 km/h
Sensor: Nr:Datum:Temp:Abs-Feuchte:Windchill:Wind:
Aussen-T/F 3151 30-01-2010 06:32:13 -0.1 C 3.51 g/m*3 -0.1 C 0 km/h
3152 30-01-2010 06:44:13 -0.1 C 3.51 g/m*3 -0.1 C 0 km/h
3153 30-01-2010 06:56:13 0.1 C 3.42 g/m*3 0.1 C 0 km/h
3154 30-01-2010 07:08:13 -0.1 C 3.42 g/m*3 -0.1 C 0 km/h
3155 30-01-2010 07:20:13 -0.1 C 3.42 g/m*3 -0.1 C 0 km/h
3156 30-01-2010 07:32:13 -0.1 C 3.42 g/m*3 -0.1 C 0 km/h
3157 30-01-2010 07:44:13 -0.2 C 3.44 g/m*3 -0.2 C 0 km/h
3158 30-01-2010 07:56:02 -0.2 C 3.49 g/m*3 -0.2 C 0 km/h
3159 30-01-2010 08:08:02 -0.2 C 3.49 g/m*3 -0.2 C 0 km/h
3160 30-01-2010 08:20:02 -0.1 C 3.51 g/m*3 -0.1 C 0 km/h
3161 30-01-2010 08:32:02 -0.2 C 3.68 g/m*3 -0.2 C 0 km/h
3162 30-01-2010 08:44:02 -0.3 C 3.7 g/m*3 -0.3 C 0 km/h
3163 30-01-2010 08:56:03 -0.4 C 3.72 g/m*3 -0.4 C 0 km/h
3164 30-01-2010 09:08:02 -0.4 C 3.77 g/m*3 -0.4 C 0 km/h
3165 30-01-2010 09:20:02 -0.4 C 3.72 g/m*3 -0.4 C 0 km/h
3166 30-01-2010 09:32:03 -0.3 C 3.7 g/m*3 -0.3 C 0 km/h
3167 30-01-2010 09:44:03 0 C 3.68 g/m*3 0 C 0 km/h
3168 30-01-2010 09:56:02 0.1 C 3.61 g/m*3 0.1 C 0 km/h
3169 30-01-2010 10:08:02 0 C 3.59 g/m*3 0 C 0 km/h
3170 30-01-2010 10:20:02 0 C 3.63 g/m*3 0 C 0 km/h
3171 30-01-2010 10:32:02 -0.1 C 3.61 g/m*3 -0.1 C 0 km/h
3172 30-01-2010 10:44:02 -0.1 C 3.75 g/m*3 -0.1 C 0 km/h
3173 30-01-2010 10:56:02 -0.1 C 3.9 g/m*3 -0.1 C 0 km/h
3174 30-01-2010 11:08:02 -0.4 C 3.91 g/m*3 -0.4 C 0 km/h
3175 30-01-2010 11:20:02 -0.5 C 3.93 g/m*3 -0.5 C 0 km/h
Sensor: Nr:Datum:Temp:Abs-Feuchte:Windchill:Wind:
Aussen-T/F 3176 30-01-2010 11:32:02 -0.3 C 4.03 g/m*3 -0.3 C 0 km/h
3177 30-01-2010 11:44:02 0 C 4.02 g/m*3 0 C 0 km/h
3178 30-01-2010 11:56:01 0.4 C 3.98 g/m*3 0.4 C 0 km/h
3179 30-01-2010 12:08:02 0.2 C 3.88 g/m*3 0.2 C 0 km/h
3180 30-01-2010 12:20:02 -0.2 C 3.92 g/m*3 -0.2 C 0 km/h
3181 30-01-2010 12:32:01 -0.4 C 4.01 g/m*3 -0.4 C 0 km/h
3182 30-01-2010 12:44:01 -0.3 C 4.08 g/m*3 -0.3 C 0 km/h
3183 30-01-2010 12:56:01 -0.2 C 4.01 g/m*3 -0.2 C 0 km/h
3184 30-01-2010 13:08:01 0 C 3.88 g/m*3 0 C 0 km/h
3185 30-01-2010 13:20:02 0 C 3.63 g/m*3 0 C 0 km/h
3186 30-01-2010 13:32:01 -0.2 C 3.49 g/m*3 -0.2 C 0 km/h
3187 30-01-2010 13:44:01 0.3 C 3.56 g/m*3 0.3 C 0 km/h
3188 30-01-2010 13:56:02 0.5 C 3.46 g/m*3 0.5 C 0 km/h
3189 30-01-2010 14:08:01 0.6 C 3.48 g/m*3 0.6 C 0 km/h
3190 30-01-2010 14:20:02 0.5 C 3.41 g/m*3 0.5 C 0 km/h
3191 30-01-2010 14:32:01 0.4 C 3.44 g/m*3 0.4 C 0 km/h
3192 30-01-2010 14:44:01 0.3 C 3.51 g/m*3 0.3 C 0 km/h
3193 30-01-2010 14:56:03 -1.1 C 3.41 g/m*3 -1.1 C 0 km/h
3194 30-01-2010 15:08:02 -1.3 C 3.5 g/m*3 -1.3 C 0 km/h
3195 30-01-2010 15:20:02 -1.1 C 3.59 g/m*3 -1.1 C 0 km/h
3196 30-01-2010 15:32:02 -0.9 C 3.6 g/m*3 -0.9 C 0 km/h
3197 30-01-2010 15:44:02 -0.7 C 3.6 g/m*3 -0.7 C 0 km/h
3198 30-01-2010 15:56:02 -0.9 C 3.41 g/m*3 -0.9 C 0 km/h
3199 30-01-2010 16:08:02 -1.3 C 3.19 g/m*3 -1.3 C 0 km/h
3200 30-01-2010 16:20:02 -1.4 C 3.21 g/m*3 -1.4 C 0 km/h
Sensor: Nr:Datum:Temp:Abs-Feuchte:Windchill:Wind:
Aussen-T/F 3201 30-01-2010 16:32:01 -1.6 C 3.21 g/m*3 -1.6 C 0 km/h
3202 30-01-2010 16:44:01 -1.5 C 3.27 g/m*3 -1.5 C 0 km/h
3203 30-01-2010 16:56:02 -1.5 C 3.32 g/m*3 -1.5 C 0 km/h
3204 30-01-2010 17:08:01 -1.6 C 3.34 g/m*3 -1.6 C 0 km/h
3205 30-01-2010 17:20:02 -1.7 C 3.36 g/m*3 -1.7 C 0 km/h
3206 30-01-2010 17:32:02 -2 C 3.29 g/m*3 -2 C 0 km/h
3207 30-01-2010 17:44:02 -2.4 C 3.16 g/m*3 -2.4 C 0 km/h
3208 30-01-2010 17:56:02 -2.6 C 3.15 g/m*3 -2.6 C 0 km/h
3209 30-01-2010 18:08:02 -2.4 C 3.24 g/m*3 -2.4 C 0 km/h
3210 30-01-2010 18:20:02 -2.4 C 3.24 g/m*3 -2.4 C 0 km/h
3211 30-01-2010 18:32:03 -2.3 C 3.26 g/m*3 -2.3 C 0 km/h
3212 30-01-2010 18:44:03 -2.4 C 3.2 g/m*3 -2.4 C 0 km/h
3213 30-01-2010 18:56:02 -2.6 C 3.11 g/m*3 -2.6 C 0 km/h
3214 30-01-2010 19:08:01 -2.9 C 3.05 g/m*3 -2.9 C 0 km/h
3215 30-01-2010 19:20:02 -3.1 C 3 g/m*3 -3.1 C 0 km/h
3216 30-01-2010 19:32:02 -3.3 C 2.96 g/m*3 -3.3 C 0 km/h
3217 30-01-2010 19:44:02 -3.5 C 2.92 g/m*3 -3.5 C 0 km/h
3218 30-01-2010 19:56:01 -3.7 C 2.92 g/m*3 -3.7 C 0 km/h
3219 30-01-2010 20:08:02 -4 C 2.85 g/m*3 -4 C 0 km/h
3220 30-01-2010 20:20:01 -4.2 C 2.81 g/m*3 -4.2 C 0 km/h
3221 30-01-2010 20:32:02 -4.5 C 2.75 g/m*3 -4.5 C 0 km/h
3222 30-01-2010 20:44:02 -4.9 C 2.68 g/m*3 -4.9 C 0 km/h
3223 30-01-2010 20:56:02 -4.7 C 2.75 g/m*3 -4.7 C 0 km/h
3224 30-01-2010 21:08:02 -4.3 C 2.86 g/m*3 -4.3 C 0 km/h
3225 30-01-2010 21:20:02 -4.1 C 2.91 g/m*3 -4.1 C 0 km/h
Sensor: Nr:Datum:Temp:Abs-Feuchte:Windchill:Wind:
Aussen-T/F 3226 30-01-2010 21:32:02 -4.2 C 2.89 g/m*3 -4.2 C 0 km/h
3227 30-01-2010 21:44:02 -4.6 C 2.77 g/m*3 -4.6 C 0 km/h
3228 30-01-2010 21:56:02 -5.1 C 2.64 g/m*3 -5.1 C 0 km/h
3229 30-01-2010 22:08:02 -5.6 C 2.54 g/m*3 -5.6 C 0 km/h
3230 30-01-2010 22:21:03 -5.9 C 2.49 g/m*3 -5.9 C 0 km/h
3231 30-01-2010 22:33:04 -5.7 C 2.56 g/m*3 -5.7 C 0 km/h
3232 30-01-2010 22:45:04 -6 C 2.5 g/m*3 -6 C 0 km/h
3233 30-01-2010 22:57:04 -6.1 C 2.48 g/m*3 -6.1 C 0 km/h
3234 30-01-2010 23:09:04 -6.3 C 2.45 g/m*3